Provisional Data: Sterling Run near Sterling Run, PA


Please select a monitoring station.
Please select start date.
Please select start date.

Toggle Unit: C/F Toggle Unit: C/F
Sample Time Temperature (C) Temperature (F) Specific Conductivity (mS/cm) pH   Turbidity (NTU+) DO (mg/L)
10/20/2020 12:00:00 AM 10.21 50.378 0.098 6.57 7.53 8.81
10/20/2020 12:15:00 AM 10.28 50.504 0.098 6.66 7.43 9.32
10/20/2020 12:30:00 AM 10.3 50.54 0.097 6.69 7.43 9.51
10/20/2020 12:45:00 AM 10.24 50.432 0.098 6.64 7.41 9.13
10/20/2020 1:00:00 AM 10.35 50.63 0.097 6.74 7.38 9.69
10/20/2020 1:15:00 AM 10.31 50.558 0.098 6.69 7.42 9.4
10/20/2020 1:30:00 AM 10.25 50.45 0.098 6.63 7.41 8.97
10/20/2020 1:45:00 AM 10.2 50.36 0.098 6.57 7.47 8.52
10/20/2020 2:00:00 AM 10.21 50.378 0.098 6.56 7.4 8.46
10/20/2020 2:15:00 AM 10.22 50.396 0.098 6.56 7.36 8.43
10/20/2020 2:30:00 AM 10.27 50.486 0.098 6.62 7.41 8.79
10/20/2020 2:45:00 AM 10.33 50.594 0.098 6.67 7.37 9.22
10/20/2020 3:00:00 AM 10.3 50.54 0.098 6.62 7.37 8.99
10/20/2020 3:15:00 AM 10.28 50.504 0.098 6.59 7.41 8.75
10/20/2020 3:30:00 AM 10.31 50.558 0.098 6.62 7.35 8.78
10/20/2020 3:45:00 AM 10.32 50.576 0.098 6.6 7.39 8.8
10/20/2020 4:00:00 AM 10.31 50.558 0.098 6.61 7.36 8.76
10/20/2020 4:15:00 AM 10.31 50.558 0.098 6.59 7.37 8.71
10/20/2020 4:30:00 AM 10.32 50.576 0.098 6.59 7.37 8.67
10/20/2020 4:45:00 AM 10.32 50.576 0.098 6.58 7.35 8.67
10/20/2020 5:00:00 AM 10.34 50.612 0.098 6.59 7.37 9.02
10/20/2020 5:15:00 AM 10.36 50.648 0.098 6.64 7.38 8.96
10/20/2020 5:30:00 AM 10.33 50.594 0.098 6.59 7.4 8.66
10/20/2020 5:45:00 AM 10.36 50.648 0.098 6.6 7.48 8.73
10/20/2020 6:00:00 AM 10.31 50.558 0.099 6.58 7.43 8.44
10/20/2020 6:15:00 AM 10.31 50.558 0.098 6.56 7.38 8.34
10/20/2020 6:30:00 AM 10.43 50.774 0.097 6.65 7.52 9.07
10/20/2020 6:45:00 AM 10.5 50.9 0.096 6.73 7.85 9.51
10/20/2020 7:00:00 AM 10.54 50.972 0.096 6.74 8.28 9.72
10/20/2020 7:15:00 AM 10.53 50.954 0.096 6.7 8.15 9.43
10/20/2020 7:30:00 AM 10.54 50.972 0.096 6.7 8.05 9.44
10/20/2020 7:45:00 AM 10.55 50.99 0.096 6.71 7.98 9.4
10/20/2020 8:00:00 AM 10.59 51.062 0.095 6.73 8.19 9.66
10/20/2020 8:15:00 AM 10.6 51.08 0.095 6.73 8.04 9.66
10/20/2020 8:30:00 AM 10.58 51.044 0.095 6.7 7.9 9.37
10/20/2020 8:45:00 AM 10.6 51.08 0.095 6.7 7.92 9.55
10/20/2020 9:00:00 AM 10.63 51.134 0.095 6.72 7.97 9.65
10/20/2020 9:15:00 AM 10.65 51.17 0.095 6.73 7.94 9.76
10/20/2020 9:30:00 AM 10.66 51.188 0.095 6.74 7.8 9.79
10/20/2020 9:45:00 AM 10.67 51.206 0.096 6.72 7.69 9.72
10/20/2020 10:00:00 AM 10.67 51.206 0.096 6.7 7.58 9.6
10/20/2020 10:15:00 AM 10.71 51.278 0.096 6.74 7.67 9.72
10/20/2020 10:30:00 AM 10.75 51.35 0.096 6.75 7.61 9.93
10/20/2020 10:45:00 AM 10.79 51.422 0.095 6.77 7.55 10.08
10/20/2020 11:00:00 AM 10.82 51.476 0.095 6.77 7.55 10.19
10/20/2020 11:15:00 AM 10.82 51.476 0.096 6.8 7.56 10.16
10/20/2020 11:30:00 AM 10.84 51.512 0.095 6.8 7.66 10.19
10/20/2020 11:45:00 AM 10.85 51.53 0.095 6.81 7.54 10.24
10/20/2020 12:00:00 PM 10.88 51.584 0.095 6.81 7.58 10.26
10/20/2020 12:15:00 PM 10.9 51.62 0.095 6.82 7.69 10.22
10/20/2020 12:30:00 PM 10.93 51.674 0.095 6.81 7.55 10.23
10/20/2020 12:45:00 PM 10.96 51.728 0.095 6.83 7.55 10.26
10/20/2020 1:00:00 PM 10.99 51.782 0.096 6.81 7.56 10.17
10/20/2020 1:15:00 PM 11.02 51.836 0.096 6.81 7.53 10.14
10/20/2020 1:30:00 PM 11.04 51.872 0.096 6.8 7.59 10.11
10/20/2020 1:45:00 PM 11.05 51.89 0.096 6.8 7.6 10.09
10/20/2020 2:00:00 PM 11.05 51.89 0.096 6.8 7.74 10.08
10/20/2020 2:15:00 PM 11.07 51.926 0.096 6.8 7.79 10.13
10/20/2020 2:30:00 PM 11.1 51.98 0.096 6.82 7.9 10.17
10/20/2020 2:45:00 PM 11.13 52.034 0.096 6.82 7.84 10.18
10/20/2020 3:00:00 PM 11.15 52.07 0.097 6.83 7.87 10.22
10/20/2020 3:15:00 PM 11.16 52.088 0.097 6.82 7.78 10.19
10/20/2020 3:30:00 PM 11.18 52.124 0.097 6.83 7.77 10.21
10/20/2020 3:45:00 PM 11.19 52.142 0.098 6.82 7.78 10.18
10/20/2020 4:00:00 PM 11.2 52.16 0.098 6.82 7.72 10.19
10/20/2020 4:15:00 PM 11.2 52.16 0.098 6.82 7.69 10.18
10/20/2020 4:30:00 PM 11.21 52.178 0.099 6.82 7.66 10.17
10/20/2020 4:45:00 PM 11.21 52.178 0.099 6.82 7.73 10.16
10/20/2020 5:00:00 PM 11.21 52.178 0.099 6.81 7.64 10.15
10/20/2020 5:15:00 PM 11.21 52.178 0.1 6.82 7.67 10.14
10/20/2020 5:30:00 PM 11.21 52.178 0.1 6.81 7.65 10.14
10/20/2020 5:45:00 PM 11.21 52.178 0.1 6.81 7.66 10.13
10/20/2020 6:00:00 PM 11.21 52.178 0.1 6.81 7.77 10.11
10/20/2020 6:15:00 PM 11.22 52.196 0.1 6.8 7.62 10.06
10/20/2020 6:30:00 PM 11.22 52.196 0.1 6.79 7.6 10.03
10/20/2020 6:45:00 PM 11.22 52.196 0.1 6.78 7.63 10.03
10/20/2020 7:00:00 PM 11.22 52.196 0.101 6.78 7.59 10.02
10/20/2020 7:15:00 PM 11.22 52.196 0.101 6.78 7.58 10.03
10/20/2020 7:30:00 PM 11.23 52.214 0.101 6.78 7.53 10.03
10/20/2020 7:45:00 PM 11.24 52.232 0.101 6.78 7.55 10.01
10/20/2020 8:00:00 PM 11.24 52.232 0.101 6.78 7.5 10.01
10/20/2020 8:15:00 PM 11.24 52.232 0.101 6.78 7.51 10.02
10/20/2020 8:30:00 PM 11.24 52.232 0.101 6.78 7.5 10
10/20/2020 8:45:00 PM 11.24 52.232 0.101 6.78 7.5 9.99
10/20/2020 9:00:00 PM 11.24 52.232 0.102 6.78 7.48 10
10/20/2020 9:15:00 PM 11.23 52.214 0.102 6.77 7.51 9.97
10/20/2020 9:30:00 PM 11.22 52.196 0.102 6.77 7.49 10
10/20/2020 9:45:00 PM 11.22 52.196 0.102 6.78 7.45 10.02
10/20/2020 10:00:00 PM 11.21 52.178 0.102 6.79 7.48 10.04
10/20/2020 10:15:00 PM 11.21 52.178 0.102 6.77 7.43 9.97
10/20/2020 10:30:00 PM 11.2 52.16 0.102 6.77 7.49 9.97
10/20/2020 10:45:00 PM 11.2 52.16 0.102 6.77 7.45 9.97
10/20/2020 11:00:00 PM 11.2 52.16 0.102 6.76 7.41 9.94
10/20/2020 11:15:00 PM 11.2 52.16 0.102 6.76 7.45 9.96
10/20/2020 11:30:00 PM 11.19 52.142 0.102 6.76 7.43 9.97
10/20/2020 11:45:00 PM 11.19 52.142 0.103 6.76 7.55 9.97
10/21/2020 12:00:00 AM 11.18 52.124 0.103 6.75 7.92 9.92
10/21/2020 12:15:00 AM 11.18 52.124 0.103 6.75 7.58 9.91
10/21/2020 12:30:00 AM 11.19 52.142 0.103 6.75 7.45 9.92
10/21/2020 12:45:00 AM 11.19 52.142 0.103 6.75 7.58 9.9
10/21/2020 1:00:00 AM 11.19 52.142 0.103 6.75 7.5 9.88
10/21/2020 1:15:00 AM 11.19 52.142 0.103 6.74 7.45 9.85
10/21/2020 1:30:00 AM 11.18 52.124 0.103 6.73 7.37 9.79
10/21/2020 1:45:00 AM 11.18 52.124 0.103 6.72 7.41 9.73
10/21/2020 2:00:00 AM 11.19 52.142 0.103 6.72 7.39 9.72
10/21/2020 2:15:00 AM 11.18 52.124 0.103 6.71 7.41 9.67
10/21/2020 2:30:00 AM 11.17 52.106 0.103 6.7 7.35 9.66
10/21/2020 2:45:00 AM 11.17 52.106 0.103 6.7 7.35 9.66
10/21/2020 3:00:00 AM 11.16 52.088 0.104 6.7 7.39 9.65
10/21/2020 3:15:00 AM 11.17 52.106 0.104 6.7 7.39 9.67
10/21/2020 3:30:00 AM 11.16 52.088 0.104 6.7 7.38 9.65
10/21/2020 3:45:00 AM 11.16 52.088 0.104 6.7 7.34 9.67
10/21/2020 4:00:00 AM 11.16 52.088 0.104 6.7 7.71 9.68
10/21/2020 4:15:00 AM 11.16 52.088 0.104 6.7 7.38 9.66
10/21/2020 4:30:00 AM 11.16 52.088 0.104 6.7 7.35 9.65
10/21/2020 4:45:00 AM 11.16 52.088 0.104 6.7 7.34 9.62
10/21/2020 5:00:00 AM 11.16 52.088 0.104 6.7 7.38 9.64
10/21/2020 5:15:00 AM 11.15 52.07 0.104 6.7 7.36 9.62
10/21/2020 5:30:00 AM 11.14 52.052 0.104 6.69 7.37 9.61
10/21/2020 5:45:00 AM 11.14 52.052 0.104 6.71 7.36 9.73
10/21/2020 6:00:00 AM 11.14 52.052 0.104 6.7 7.35 9.61
10/21/2020 6:15:00 AM 11.14 52.052 0.104 6.69 7.44 9.59
10/21/2020 6:30:00 AM 11.14 52.052 0.104 6.69 7.34 9.59
10/21/2020 6:45:00 AM 11.14 52.052 0.104 6.69 7.35 9.57
10/21/2020 7:00:00 AM 11.14 52.052 0.104 6.69 7.34 9.57
10/21/2020 7:15:00 AM 11.15 52.07 0.104 6.68 7.33 9.55
10/21/2020 7:30:00 AM 11.15 52.07 0.104 6.68 7.36 9.56
10/21/2020 7:45:00 AM 11.15 52.07 0.104 6.68 7.35 9.55
10/21/2020 8:00:00 AM 11.15 52.07 0.104 6.67 7.36 9.51
10/21/2020 8:15:00 AM 11.16 52.088 0.104 6.68 7.38 9.54
10/21/2020 8:30:00 AM 11.18 52.124 0.104 6.69 7.33 9.58
10/21/2020 8:45:00 AM 11.2 52.16 0.104 6.69 7.36 9.51
10/21/2020 9:00:00 AM 11.22 52.196 0.104 6.69 7.33 9.58
10/21/2020 9:15:00 AM 11.24 52.232 0.104 6.68 7.31 9.55
10/21/2020 9:30:00 AM 11.28 52.304 0.104 6.7 7.36 9.6
10/21/2020 9:45:00 AM 11.34 52.412 0.104 6.69 7.32 9.57
10/21/2020 10:00:00 AM 11.43 52.574 0.104 6.71 7.32 9.55
10/21/2020 10:15:00 AM 11.55 52.79 0.104 6.72 7.32 9.51
10/21/2020 10:30:00 AM 11.64 52.952 0.104 6.73 7.3 9.6
10/21/2020 10:45:00 AM 11.7 53.06 0.104 6.7 7.29 9.4
10/21/2020 11:00:00 AM 11.86 53.348 0.104 6.71 7.29 9.42
10/21/2020 11:15:00 AM 11.95 53.51 0.104 6.7 7.28 9.39
10/21/2020 11:30:00 AM 12.16 53.888 0.104 6.75 7.25 9.61
10/21/2020 11:45:00 AM 12.17 53.906 0.104 6.67 7.27 9.27
10/21/2020 12:00:00 PM 12.1 53.78 0.104 6.56 7.25 8.63
10/21/2020 12:15:00 PM 12.17 53.906 0.104 6.54 7.26 8.47
10/21/2020 12:30:00 PM 12.14 53.852 0.104 6.5 7.42 8.29
10/21/2020 12:45:00 PM 12.18 53.924 0.104 6.5 7.3 8.22
10/21/2020 1:00:00 PM 12.16 53.888 0.103 6.5 7.27 8.18
10/21/2020 1:15:00 PM 12.18 53.924 0.103 6.49 7.26 8.12
10/21/2020 1:30:00 PM 12.31 54.158 0.103 6.52 7.22 8.39
10/21/2020 1:45:00 PM 12.28 54.104 0.104 6.5 7.22 8.34
10/21/2020 2:00:00 PM 12.27 54.086 0.103 6.5 7.26 8.24
10/21/2020 2:15:00 PM 12.34 54.212 0.103 6.5 7.21 8.15
10/21/2020 2:30:00 PM 12.31 54.158 0.103 6.47 7.62 8.07
10/21/2020 2:45:00 PM 12.32 54.176 0.103 6.47 7.24 7.91
10/21/2020 3:00:00 PM 12.34 54.212 0.103 6.46 7.25 7.91
10/21/2020 3:15:00 PM 12.33 54.194 0.103 6.46 7.3 7.87
10/21/2020 3:30:00 PM 12.42 54.356 0.103 6.48 7.21 7.86
10/21/2020 3:45:00 PM 12.49 54.482 0.103 6.45 7.19 7.7
10/21/2020 4:00:00 PM 12.54 54.572 0.104 6.45 7.16 7.81
10/21/2020 4:15:00 PM 12.5 54.5 0.103 6.44 7.18 7.78
10/21/2020 4:30:00 PM 12.58 54.644 0.104 6.46 7.2 7.92
10/21/2020 4:45:00 PM 12.44 54.392 0.103 6.43 7.14 7.55
10/21/2020 5:00:00 PM 12.48 54.464 0.103 6.43 7.2 7.4
10/21/2020 5:15:00 PM 12.4 54.32 0.103 6.44 7.69 7.38
10/21/2020 5:30:00 PM 12.42 54.356 0.104 6.42 7.24 7.47
10/21/2020 5:45:00 PM 12.39 54.302 0.103 6.43 7.15 7.4
10/21/2020 6:00:00 PM 12.41 54.338 0.104 6.42 7.17 7.45
10/21/2020 6:15:00 PM 12.5 54.5 0.104 6.47 7.3 7.58
10/21/2020 6:30:00 PM 12.51 54.518 0.104 6.46 7.2 7.59
10/21/2020 6:45:00 PM 12.4 54.32 0.104 6.43 7.16 7.46
10/21/2020 7:00:00 PM 12.34 54.212 0.104 6.42 7.22 7.37
10/21/2020 7:15:00 PM 12.51 54.518 0.104 6.45 7.21 7.51
10/21/2020 7:30:00 PM 12.41 54.338 0.104 6.43 7.23 7.36
10/21/2020 7:45:00 PM 12.58 54.644 0.104 6.47 7.22 7.72
10/21/2020 8:00:00 PM 12.35 54.23 0.104 6.41 7.23 7.28
10/21/2020 8:15:00 PM 12.35 54.23 0.104 6.41 7.21 7.27
10/21/2020 8:30:00 PM 12.59 54.662 0.104 6.47 7.2 7.7
10/21/2020 8:45:00 PM 12.73 54.914 0.105 6.55 7.19 7.93
10/21/2020 9:00:00 PM 13.06 55.508 0.105 6.67 7.16 8.83
10/21/2020 9:15:00 PM 13.21 55.778 0.105 6.71 7.2 9.13
10/21/2020 9:30:00 PM 13.23 55.814 0.105 6.73 7.21 9.22
10/21/2020 9:45:00 PM 13.14 55.652 0.105 6.68 7.21 8.97
10/21/2020 10:00:00 PM 13.14 55.652 0.105 6.7 7.28 9.17
10/21/2020 10:15:00 PM 13.14 55.652 0.105 6.71 7.2 9.23
10/21/2020 10:30:00 PM 13.13 55.634 0.105 6.7 7.17 9.2
10/21/2020 10:45:00 PM 13.1 55.58 0.105 6.68 7.16 9.13
10/21/2020 11:00:00 PM 13.1 55.58 0.105 6.68 7.26 9.22
10/21/2020 11:15:00 PM 12.59 54.662 0.104 6.45 7.25 7.57
10/21/2020 11:30:00 PM 12.58 54.644 0.105 6.42 7.19 7.66
10/21/2020 11:45:00 PM 12.74 54.932 0.105 6.52 7.18 8.21
10/22/2020 12:00:00 AM 12.49 54.482 0.104 6.41 7.22 7.42
10/22/2020 12:15:00 AM 12.36 54.248 0.104 6.36 7.36 6.93
10/22/2020 12:30:00 AM 12.62 54.716 0.104 6.5 7.21 7.75
10/22/2020 12:45:00 AM 12.55 54.59 0.105 6.48 7.17 7.81
10/22/2020 1:00:00 AM 12.92 55.256 0.105 6.68 7.16 8.89
10/22/2020 1:15:00 AM 12.96 55.328 0.105 6.68 7.21 9.17
10/22/2020 1:30:00 AM 12.92 55.256 0.105 6.66 7.25 9.1
10/22/2020 1:45:00 AM 12.67 54.806 0.105 6.45 7.18 7.89
10/22/2020 2:00:00 AM 12.81 55.058 0.105 6.57 7.19 8.59
10/22/2020 2:15:00 AM 12.87 55.166 0.105 6.65 7.22 8.94
10/22/2020 2:30:00 AM 12.91 55.238 0.105 6.67 7.2 9.12
10/22/2020 2:45:00 AM 12.89 55.202 0.105 6.66 7.19 9.16
10/22/2020 3:00:00 AM 12.91 55.238 0.105 6.68 7.22 9.34
10/22/2020 3:15:00 AM 12.9 55.22 0.105 6.68 7.18 9.31
10/22/2020 3:30:00 AM 12.9 55.22 0.105 6.68 7.23 9.34
10/22/2020 3:45:00 AM 12.9 55.22 0.105 6.69 7.16 9.36
10/22/2020 4:00:00 AM 12.89 55.202 0.105 6.69 7.17 9.32
10/22/2020 4:15:00 AM 12.88 55.184 0.105 6.68 7.13 9.32
10/22/2020 4:30:00 AM 12.87 55.166 0.105 6.68 7.21 9.35
10/22/2020 4:45:00 AM 12.85 55.13 0.105 6.68 7.2 9.34
10/22/2020 5:00:00 AM 12.84 55.112 0.105 6.69 7.16 9.42
10/22/2020 5:15:00 AM 12.83 55.094 0.105 6.69 7.16 9.43
10/22/2020 5:30:00 AM 12.84 55.112 0.105 6.69 7.16 9.43
10/22/2020 5:45:00 AM 12.84 55.112 0.105 6.7 7.21 9.42
10/22/2020 6:00:00 AM 12.82 55.076 0.105 6.69 7.18 9.43
10/22/2020 6:15:00 AM 12.8 55.04 0.105 6.69 7.2 9.43
10/22/2020 6:30:00 AM 12.8 55.04 0.105 6.69 7.19 9.43
10/22/2020 6:45:00 AM 12.8 55.04 0.105 6.7 7.18 9.42
10/22/2020 7:00:00 AM 12.8 55.04 0.105 6.7 7.18 9.41
10/22/2020 7:15:00 AM 12.79 55.022 0.105 6.7 7.17 9.42
10/22/2020 7:30:00 AM 12.77 54.986 0.105 6.69 7.21 9.39
10/22/2020 7:45:00 AM 12.77 54.986 0.105 6.7 7.21 9.44
10/22/2020 8:00:00 AM 12.77 54.986 0.105 6.7 7.13 9.44
10/22/2020 8:15:00 AM 12.78 55.004 0.105 6.7 7.16 9.44
10/22/2020 8:30:00 AM 12.81 55.058 0.105 6.7 7.18 9.41
10/22/2020 8:45:00 AM 12.81 55.058 0.105 6.7 7.2 9.42
10/22/2020 9:00:00 AM 12.82 55.076 0.105 6.71 7.18 9.42
10/22/2020 9:15:00 AM 12.85 55.13 0.105 6.72 7.21 9.47
10/22/2020 9:30:00 AM 12.9 55.22 0.105 6.74 7.15 9.54
10/22/2020 9:45:00 AM 12.94 55.292 0.105 6.74 7.16 9.53
10/22/2020 10:00:00 AM 13.01 55.418 0.105 6.76 7.17 9.59
10/22/2020 10:15:00 AM 13.06 55.508 0.105 6.76 7.16 9.6
10/22/2020 10:30:00 AM 13.15 55.67 0.105 6.78 7.13 9.62
10/22/2020 10:45:00 AM 13.3 55.94 0.105 6.8 7.19 9.6
10/22/2020 11:00:00 AM 13.42 56.156 0.105 6.79 7.18 9.53
10/22/2020 11:15:00 AM 13.6 56.48 0.105 6.79 7.14 9.53
10/22/2020 11:30:00 AM 13.82 56.876 0.105 6.82 7.16 9.54
10/22/2020 11:45:00 AM 14 57.2 0.105 6.79 7.18 9.33
10/22/2020 12:00:00 PM 14.16 57.488 0.105 6.8 7.04 9.37
10/22/2020 12:15:00 PM 14.37 57.866 0.105 6.77 7.09 9.17
10/22/2020 12:30:00 PM 14.48 58.064 0.105 6.79 7.04 9.38
10/22/2020 12:45:00 PM 14.59 58.262 0.105 6.78 7.04 9.11
10/22/2020 1:00:00 PM 14.63 58.334 0.105 6.72 7.04 9.12
10/22/2020 1:15:00 PM 14.7 58.46 0.105 6.79 7.04 9.35
10/22/2020 1:30:00 PM 14.68 58.424 0.105 6.8 7.01 9.44
10/22/2020 1:45:00 PM 14.74 58.532 0.105 6.78 7.09 9.28
10/22/2020 2:00:00 PM 14.67 58.406 0.105 6.66 7.3 8.64
10/22/2020 2:15:00 PM 14.73 58.514 0.105 6.76 7.03 9.23
10/22/2020 2:30:00 PM 14.83 58.694 0.105 6.78 7.13 9.18
10/22/2020 2:45:00 PM 14.74 58.532 0.105 6.76 7.01 9.23
10/22/2020 3:00:00 PM 14.81 58.658 0.105 6.77 7 9.12
10/22/2020 3:15:00 PM 14.8 58.64 0.105 6.76 6.97 9.24
10/22/2020 3:30:00 PM 14.78 58.604 0.105 6.74 7.01 9.22
10/22/2020 3:45:00 PM 14.72 58.496 0.105 6.76 6.97 9.22
10/22/2020 4:00:00 PM 14.59 58.262 0.105 6.71 7.04 9.01
10/22/2020 4:15:00 PM 14.59 58.262 0.105 6.7 7.04 9.07
10/22/2020 4:30:00 PM 14.64 58.352 0.105 6.79 7.03 9.17
10/22/2020 4:45:00 PM 14.63 58.334 0.105 6.79 7.09 9.21
10/22/2020 5:00:00 PM 14.61 58.298 0.105 6.77 7.04 9.17
10/22/2020 5:15:00 PM 14.57 58.226 0.105 6.74 7.05 8.95
10/22/2020 5:30:00 PM 14.56 58.208 0.105 6.77 7.02 9.13
10/22/2020 5:45:00 PM 14.54 58.172 0.105 6.77 7.01 9.14
10/22/2020 6:00:00 PM 14.47 58.046 0.105 6.74 7.01 9.02
10/22/2020 6:15:00 PM 14.46 58.028 0.105 6.76 7.04 9.08
10/22/2020 6:30:00 PM 14.42 57.956 0.105 6.75 7 9.06
10/22/2020 6:45:00 PM 14.37 57.866 0.105 6.75 7 9.04
10/22/2020 7:00:00 PM 14.33 57.794 0.105 6.73 7.08 9.03
10/22/2020 7:15:00 PM 14.28 57.704 0.105 6.73 7.05 9.01
10/22/2020 7:30:00 PM 14.24 57.632 0.105 6.72 7.04 8.98
10/22/2020 7:45:00 PM 14.19 57.542 0.105 6.72 7.1 9.01
10/22/2020 8:00:00 PM 14.15 57.47 0.105 6.72 7.15 9.03
10/22/2020 8:15:00 PM 14.11 57.398 0.105 6.72 7.05 9.03
10/22/2020 8:30:00 PM 14.06 57.308 0.105 6.72 7.08 9.02
10/22/2020 8:45:00 PM 14 57.2 0.105 6.72 7.05 9.03
10/22/2020 9:00:00 PM 13.95 57.11 0.105 6.71 7.1 9
10/22/2020 9:15:00 PM 13.91 57.038 0.105 6.71 7.08 9.04
10/22/2020 9:30:00 PM 13.86 56.948 0.105 6.72 7.05 9.06
10/22/2020 9:45:00 PM 13.82 56.876 0.105 6.71 7.11 9.04
10/22/2020 10:00:00 PM 13.77 56.786 0.105 6.72 7.06 9.06
10/22/2020 10:15:00 PM 13.72 56.696 0.105 6.71 7.05 9.09
10/22/2020 10:30:00 PM 13.67 56.606 0.105 6.72 7.05 9.1
10/22/2020 10:45:00 PM 13.61 56.498 0.105 6.71 7.09 9.06
10/22/2020 11:00:00 PM 13.57 56.426 0.105 6.71 7.07 9.09
10/22/2020 11:15:00 PM 13.52 56.336 0.105 6.71 7.05 9.09
10/22/2020 11:30:00 PM 13.47 56.246 0.105 6.71 7.06 9.12
10/22/2020 11:45:00 PM 13.41 56.138 0.105 6.72 7.07 9.15
10/23/2020 12:00:00 AM 13.36 56.048 0.105 6.72 7.2 9.12
10/23/2020 12:15:00 AM 13.32 55.976 0.105 6.72 7.07 9.14
10/23/2020 12:30:00 AM 13.27 55.886 0.105 6.72 7.09 9.13
10/23/2020 12:45:00 AM 13.22 55.796 0.105 6.72 7.1 9.16
10/23/2020 1:00:00 AM 13.18 55.724 0.105 6.72 7.14 9.18
10/23/2020 1:15:00 AM 13.13 55.634 0.105 6.73 7.09 9.2
10/23/2020 1:30:00 AM 13.1 55.58 0.105 6.72 7.12 9.17
10/23/2020 1:45:00 AM 13.04 55.472 0.105 6.73 7.08 9.2
10/23/2020 2:00:00 AM 13 55.4 0.105 6.73 7.12 9.18
10/23/2020 2:15:00 AM 12.95 55.31 0.105 6.73 7.14 9.23
10/23/2020 2:30:00 AM 12.91 55.238 0.105 6.73 7.15 9.25
10/23/2020 2:45:00 AM 12.86 55.148 0.105 6.73 7.08 9.26
10/23/2020 3:00:00 AM 12.81 55.058 0.105 6.73 7.12 9.27
10/23/2020 3:15:00 AM 12.77 54.986 0.105 6.73 7.12 9.27
10/23/2020 3:30:00 AM 12.73 54.914 0.105 6.74 7.12 9.27
10/23/2020 3:45:00 AM 12.68 54.824 0.105 6.73 7.1 9.28
10/23/2020 4:00:00 AM 12.64 54.752 0.105 6.73 7.17 9.28
10/23/2020 4:15:00 AM 12.63 54.734 0.105 6.73 7.12 9.28
10/23/2020 4:30:00 AM 12.62 54.716 0.105 6.74 7.09 9.28
10/23/2020 4:45:00 AM 12.61 54.698 0.105 6.73 7.11 9.32
10/23/2020 5:00:00 AM 12.6 54.68 0.105 6.74 7.19 9.33
10/23/2020 5:15:00 AM 12.59 54.662 0.105 6.74 7.1 9.31
10/23/2020 5:30:00 AM 12.58 54.644 0.105 6.74 7.09 9.3
10/23/2020 5:45:00 AM 12.58 54.644 0.105 6.74 7.1 9.33
10/23/2020 6:00:00 AM 12.57 54.626 0.105 6.74 7.09 9.36
10/23/2020 6:15:00 AM 12.53 54.554 0.105 6.74 7.09 9.34
10/23/2020 6:30:00 AM 12.48 54.464 0.105 6.74 7.14 9.36
10/23/2020 6:45:00 AM 12.44 54.392 0.105 6.74 7.11 9.35
10/23/2020 7:00:00 AM 12.4 54.32 0.105 6.74 7.1 9.35
10/23/2020 7:15:00 AM 12.36 54.248 0.105 6.74 7.13 9.36
10/23/2020 7:30:00 AM 12.33 54.194 0.105 6.73 7.14 9.34
10/23/2020 7:45:00 AM 12.3 54.14 0.105 6.73 7.13 9.33
10/23/2020 8:00:00 AM 12.26 54.068 0.105 6.73 7.1 9.33
10/23/2020 8:15:00 AM 12.23 54.014 0.105 6.72 7.1 9.38
10/23/2020 8:30:00 AM 12.23 54.014 0.105 6.73 7.15 9.41
10/23/2020 8:45:00 AM 12.25 54.05 0.105 6.75 7.11 9.49
10/23/2020 9:00:00 AM 12.25 54.05 0.105 6.76 7.13 9.55
10/23/2020 9:15:00 AM 12.27 54.086 0.105 6.77 7.17 9.58
10/23/2020 9:30:00 AM 12.32 54.176 0.105 6.78 7.09 9.61
10/23/2020 9:45:00 AM 12.35 54.23 0.105 6.79 7.13 9.63
10/23/2020 10:00:00 AM 12.44 54.392 0.105 6.81 7.13 9.67
10/23/2020 10:15:00 AM 12.55 54.59 0.105 6.82 7.13 9.73
10/23/2020 10:30:00 AM 12.64 54.752 0.105 6.82 7.15 9.68
10/23/2020 10:45:00 AM 12.75 54.95 0.104 6.84 7.13 9.73
10/23/2020 11:00:00 AM 12.87 55.166 0.104 6.82 7.1 9.59
10/23/2020 11:15:00 AM 12.98 55.364 0.104 6.85 7.1 9.76
10/23/2020 11:30:00 AM 13.17 55.706 0.104 6.85 7.05 9.71
10/23/2020 11:45:00 AM 13.39 56.102 0.104 6.84 7.05 9.56
10/23/2020 12:00:00 PM 13.68 56.624 0.105 6.84 7.08 9.35
10/23/2020 12:15:00 PM 13.68 56.624 0.105 6.69 7.03 8.4
10/23/2020 12:30:00 PM 13.99 57.182 0.105 6.8 7.04 9.29
10/23/2020 12:45:00 PM 13.96 57.128 0.105 6.7 7.03 8.59
10/23/2020 1:00:00 PM 14.08 57.344 0.105 6.77 7.03 9.24
10/23/2020 1:15:00 PM 14.13 57.434 0.104 6.83 7.01 9.56
10/23/2020 1:30:00 PM 14.03 57.254 0.104 6.78 7.1 9.22
10/23/2020 1:45:00 PM 14.08 57.344 0.104 6.76 7.2 9.27
10/23/2020 2:00:00 PM 14.13 57.434 0.104 6.81 7.04 9.43
10/23/2020 2:15:00 PM 14.16 57.488 0.104 6.83 7.08 9.54
10/23/2020 2:30:00 PM 14.23 57.614 0.104 6.81 7.05 9.45
10/23/2020 2:45:00 PM 14.25 57.65 0.104 6.83 7.25 9.48
10/23/2020 3:00:00 PM 14.24 57.632 0.104 6.83 7.09 9.46
10/23/2020 3:15:00 PM 14.27 57.686 0.104 6.83 7.02 9.46
10/23/2020 3:30:00 PM 14.31 57.758 0.104 6.86 7.02 9.5
10/23/2020 3:45:00 PM 14.28 57.704 0.104 6.83 7.05 9.46
10/23/2020 4:00:00 PM 14.3 57.74 0.104 6.85 7.04 9.46
10/23/2020 4:15:00 PM 14.35 57.83 0.104 6.85 7.05 9.41
10/23/2020 4:30:00 PM 14.32 57.776 0.104 6.84 7.06 9.4
10/23/2020 4:45:00 PM 14.33 57.794 0.104 6.82 7.03 9.28
10/23/2020 5:00:00 PM 14.34 57.812 0.104 6.81 7.03 9.27
10/23/2020 5:15:00 PM 14.34 57.812 0.104 6.81 7.03 9.24
10/23/2020 5:30:00 PM 14.29 57.722 0.104 6.78 7.03 9.11
10/23/2020 5:45:00 PM 14.25 57.65 0.104 6.74 7.04 8.99
10/23/2020 6:00:00 PM 14.28 57.704 0.104 6.8 7.05 9.18
10/23/2020 6:15:00 PM 14.25 57.65 0.104 6.78 7.06 9.13
10/23/2020 6:30:00 PM 14.21 57.578 0.104 6.77 7.1 9.07
10/23/2020 6:45:00 PM 14.19 57.542 0.104 6.78 7.09 9.08
10/23/2020 7:00:00 PM 14.16 57.488 0.104 6.77 6.93 9.06
10/23/2020 7:15:00 PM 14.14 57.452 0.104 6.77 6.89 9.07
10/23/2020 7:30:00 PM 14.1 57.38 0.104 6.76 6.94 9.04
10/23/2020 7:45:00 PM 14.05 57.29 0.104 6.74 6.99 8.97
10/23/2020 8:00:00 PM 14.03 57.254 0.104 6.76 6.94 9.03
10/23/2020 8:15:00 PM 14.01 57.218 0.104 6.75 6.94 9.01
10/23/2020 8:30:00 PM 14 57.2 0.104 6.75 6.97 8.98
10/23/2020 8:45:00 PM 13.97 57.146 0.104 6.75 6.99 8.96
10/23/2020 9:00:00 PM 13.95 57.11 0.104 6.75 7 8.98
10/23/2020 9:15:00 PM 13.92 57.056 0.104 6.74 6.97 8.97
10/23/2020 9:30:00 PM 13.9 57.02 0.104 6.74 6.97 8.97
10/23/2020 9:45:00 PM 13.89 57.002 0.104 6.75 6.95 8.99
10/23/2020 10:00:00 PM 13.86 56.948 0.104 6.75 6.92 8.99
10/23/2020 10:15:00 PM 13.83 56.894 0.104 6.75 6.9 8.99
10/23/2020 10:30:00 PM 13.79 56.822 0.104 6.73 6.94 8.97
10/23/2020 10:45:00 PM 13.76 56.768 0.104 6.74 6.91 9
10/23/2020 11:00:00 PM 13.73 56.714 0.104 6.74 6.87 8.98
10/23/2020 11:15:00 PM 13.71 56.678 0.104 6.74 6.93 9.01
10/23/2020 11:30:00 PM 13.68 56.624 0.104 6.73 7.34 8.98
10/23/2020 11:45:00 PM 13.66 56.588 0.104 6.74 6.92 9
10/24/2020 12:00:00 AM 13.62 56.516 0.104 6.72 6.88 8.94
10/24/2020 12:15:00 AM 13.6 56.48 0.104 6.73 6.98 8.96
10/24/2020 12:30:00 AM 13.6 56.48 0.104 6.74 6.93 8.98
10/24/2020 12:45:00 AM 13.59 56.462 0.104 6.74 6.9 8.99
10/24/2020 1:00:00 AM 13.6 56.48 0.104 6.74 6.99 9
10/24/2020 1:15:00 AM 13.62 56.516 0.104 6.74 7.01 8.98
10/24/2020 1:30:00 AM 13.59 56.462 0.104 6.73 7.32 8.95
10/24/2020 1:45:00 AM 13.59 56.462 0.104 6.74 7.07 8.99
10/24/2020 2:00:00 AM 13.56 56.408 0.104 6.74 6.97 9
10/24/2020 2:15:00 AM 13.55 56.39 0.104 6.73 6.92 8.97
10/24/2020 2:30:00 AM 13.56 56.408 0.104 6.73 6.89 8.96
10/24/2020 2:45:00 AM 13.56 56.408 0.104 6.73 6.9 8.97
10/24/2020 3:00:00 AM 13.55 56.39 0.104 6.73 6.87 8.97
10/24/2020 3:15:00 AM 13.54 56.372 0.104 6.72 6.92 8.96
10/24/2020 3:30:00 AM 13.54 56.372 0.104 6.72 6.91 8.95
10/24/2020 3:45:00 AM 13.53 56.354 0.104 6.73 6.86 8.99
10/24/2020 4:00:00 AM 13.55 56.39 0.104 6.74 6.89 8.99
10/24/2020 4:15:00 AM 13.53 56.354 0.104 6.73 6.91 9.01
10/24/2020 4:30:00 AM 13.54 56.372 0.104 6.73 6.92 9.02
10/24/2020 4:45:00 AM 13.55 56.39 0.104 6.74 6.9 9.03
10/24/2020 5:00:00 AM 13.54 56.372 0.104 6.75 6.92 9.12
10/24/2020 5:15:00 AM 13.54 56.372 0.104 6.74 7 9.05
10/24/2020 5:30:00 AM 13.54 56.372 0.104 6.72 7.01 9
10/24/2020 5:45:00 AM 13.53 56.354 0.104 6.75 6.97 9.05
10/24/2020 6:00:00 AM 13.47 56.246 0.104 6.72 6.95 9.01
10/24/2020 6:15:00 AM 13.43 56.174 0.104 6.74 6.94 9.08
10/24/2020 6:30:00 AM 13.4 56.12 0.103 6.73 7.15 9.07
10/24/2020 6:45:00 AM 13.38 56.084 0.104 6.73 7 8.96
10/24/2020 7:00:00 AM 13.35 56.03 0.104 6.73 6.93 9.04
10/24/2020 7:15:00 AM 13.3 55.94 0.104 6.74 6.96 9.05
10/24/2020 7:30:00 AM 13.25 55.85 0.104 6.75 6.97 9.09
10/24/2020 7:45:00 AM 13.2 55.76 0.104 6.74 6.96 9
10/24/2020 8:00:00 AM 13.17 55.706 0.104 6.75 6.97 9.09
10/24/2020 8:15:00 AM 13.14 55.652 0.104 6.75 6.95 9.1
10/24/2020 8:30:00 AM 13.11 55.598 0.104 6.75 6.96 9.12
10/24/2020 8:45:00 AM 13.06 55.508 0.104 6.77 6.97 9.21
10/24/2020 9:00:00 AM 13.03 55.454 0.103 6.77 6.99 9.22
10/24/2020 9:15:00 AM 13.01 55.418 0.103 6.78 6.98 9.26
10/24/2020 9:30:00 AM 12.98 55.364 0.103 6.78 6.98 9.27
10/24/2020 9:45:00 AM 12.96 55.328 0.104 6.77 6.96 9.18
10/24/2020 10:00:00 AM 12.93 55.274 0.103 6.76 7 9.18
10/24/2020 10:15:00 AM 12.94 55.292 0.103 6.79 7 9.33
10/24/2020 10:30:00 AM 12.93 55.274 0.103 6.8 7 9.35
10/24/2020 10:45:00 AM 12.93 55.274 0.103 6.81 6.98 9.43
10/24/2020 11:00:00 AM 12.92 55.256 0.103 6.82 6.99 9.47
10/24/2020 11:15:00 AM 12.88 55.184 0.103 6.81 7.01 9.44
10/24/2020 11:30:00 AM 12.84 55.112 0.103 6.8 7 9.44
10/24/2020 11:45:00 AM 12.83 55.094 0.103 6.83 7.02 9.54
10/24/2020 12:00:00 PM 12.79 55.022 0.103 6.83 7.01 9.56
10/24/2020 12:15:00 PM 12.77 54.986 0.103 6.83 7.01 9.51
10/24/2020 12:30:00 PM 12.79 55.022 0.103 6.84 7.06 9.56
10/24/2020 12:45:00 PM 12.89 55.202 0.103 6.86 6.99 9.56
10/24/2020 1:00:00 PM 12.99 55.382 0.103 6.87 6.96 9.59
10/24/2020 1:15:00 PM 13.06 55.508 0.103 6.88 7 9.62
10/24/2020 1:30:00 PM 13.11 55.598 0.103 6.87 6.95 9.68
10/24/2020 1:45:00 PM 13.1 55.58 0.103 6.86 6.98 9.65
10/24/2020 2:00:00 PM 13.07 55.526 0.103 6.84 6.98 9.62
10/24/2020 2:15:00 PM 13.04 55.472 0.103 6.85 6.97 9.67
10/24/2020 2:30:00 PM 13.09 55.562 0.103 6.84 6.98 9.5
10/24/2020 2:45:00 PM 13.14 55.652 0.103 6.87 6.99 9.71
10/24/2020 3:00:00 PM 13.16 55.688 0.103 6.84 6.97 9.59
10/24/2020 3:15:00 PM 13.17 55.706 0.103 6.84 6.96 9.54
10/24/2020 3:30:00 PM 13.17 55.706 0.103 6.86 6.99 9.61
10/24/2020 3:45:00 PM 12.97 55.346 0.103 6.84 7 9.61
10/24/2020 4:00:00 PM 12.82 55.076 0.103 6.82 7.06 9.58
10/24/2020 4:15:00 PM 12.68 54.824 0.103 6.81 7.56 9.58
10/24/2020 4:30:00 PM 12.61 54.698 0.103 6.8 7.06 9.53
10/24/2020 4:45:00 PM 12.51 54.518 0.103 6.8 7.27 9.55
10/24/2020 5:00:00 PM 12.41 54.338 0.102 6.81 7.02 9.57
10/24/2020 5:15:00 PM 12.31 54.158 0.102 6.8 7.04 9.58
10/24/2020 5:30:00 PM 12.24 54.032 0.102 6.8 7.29 9.52
10/24/2020 5:45:00 PM 12.15 53.87 0.102 6.79 7.04 9.5
10/24/2020 6:00:00 PM 12.05 53.69 0.103 6.79 7.04 9.51
10/24/2020 6:15:00 PM 11.95 53.51 0.103 6.78 7.01 9.52
10/24/2020 6:30:00 PM 11.9 53.42 0.103 6.77 7.04 9.46
10/24/2020 6:45:00 PM 11.91 53.438 0.103 6.76 7.03 9.32
10/24/2020 7:00:00 PM 11.8 53.24 0.103 6.75 7.05 9.41
10/24/2020 7:15:00 PM 11.71 53.078 0.103 6.77 7.04 9.47
10/24/2020 7:30:00 PM 11.64 52.952 0.103 6.76 7.01 9.49
10/24/2020 7:45:00 PM 11.58 52.844 0.103 6.77 7.12 9.55
10/24/2020 8:00:00 PM 11.55 52.79 0.103 6.77 7.05 9.53
10/24/2020 8:15:00 PM 11.55 52.79 0.102 6.76 7.03 9.48
10/24/2020 8:30:00 PM 11.51 52.718 0.102 6.78 7.03 9.57
10/24/2020 8:45:00 PM 11.5 52.7 0.103 6.77 7.01 9.5
10/24/2020 9:00:00 PM 11.46 52.628 0.103 6.77 7.06 9.52
10/24/2020 9:15:00 PM 11.43 52.574 0.103 6.77 7.03 9.51
10/24/2020 9:30:00 PM 11.4 52.52 0.103 6.77 7.06 9.53
10/24/2020 9:45:00 PM 11.39 52.502 0.103 6.77 7.04 9.5
10/24/2020 10:00:00 PM 11.34 52.412 0.103 6.77 7.03 9.56
10/24/2020 10:15:00 PM 11.32 52.376 0.102 6.77 7.11 9.55
10/24/2020 10:30:00 PM 11.28 52.304 0.102 6.78 7.05 9.59
10/24/2020 10:45:00 PM 11.25 52.25 0.103 6.78 7.1 9.61
10/24/2020 11:00:00 PM 11.21 52.178 0.103 6.78 7.06 9.62
10/24/2020 11:15:00 PM 11.19 52.142 0.103 6.78 7.06 9.58
10/24/2020 11:30:00 PM 11.16 52.088 0.103 6.78 7.09 9.63
10/24/2020 11:45:00 PM 11.11 51.998 0.103 6.77 7.11 9.64
10/25/2020 12:00:00 AM 11.08 51.944 0.102 6.78 7.1 9.66
10/25/2020 12:15:00 AM 11.05 51.89 0.102 6.78 7.11 9.66
10/25/2020 12:30:00 AM 11.02 51.836 0.102 6.79 7.09 9.69
10/25/2020 12:45:00 AM 11 51.8 0.103 6.79 7.09 9.71
10/25/2020 1:00:00 AM 10.96 51.728 0.102 6.79 7.12 9.73
10/25/2020 1:15:00 AM 10.96 51.728 0.103 6.78 7.06 9.71
10/25/2020 1:30:00 AM 10.91 51.638 0.103 6.78 7.09 9.71
10/25/2020 1:45:00 AM 10.85 51.53 0.103 6.79 7.08 9.72
10/25/2020 2:00:00 AM 10.79 51.422 0.103 6.78 7.09 9.78
10/25/2020 2:15:00 AM 10.73 51.314 0.103 6.78 7.12 9.74
10/25/2020 2:30:00 AM 10.71 51.278 0.103 6.77 7.22 9.74
10/25/2020 2:45:00 AM 10.62 51.116 0.103 6.78 7.1 9.77
10/25/2020 3:00:00 AM 10.56 51.008 0.103 6.77 7.1 9.82
10/25/2020 3:15:00 AM 10.52 50.936 0.103 6.78 7.1 9.82
10/25/2020 3:30:00 AM 10.5 50.9 0.103 6.77 7.1 9.76
10/25/2020 3:45:00 AM 10.41 50.738 0.103 6.76 7.14 9.83
10/25/2020 4:00:00 AM 10.38 50.684 0.103 6.76 7.08 9.74
10/25/2020 4:15:00 AM 10.31 50.558 0.103 6.77 7.08 9.81
10/25/2020 4:30:00 AM 10.28 50.504 0.103 6.76 7.1 9.79
10/25/2020 4:45:00 AM 10.18 50.324 0.103 6.76 7.12 9.86
10/25/2020 5:00:00 AM 10.12 50.216 0.103 6.76 7.14 9.82
10/25/2020 5:15:00 AM 10.03 50.054 0.103 6.77 7.12 9.91
10/25/2020 5:30:00 AM 9.95 49.91 0.103 6.77 7.1 9.92
10/25/2020 5:45:00 AM 9.87 49.766 0.102 6.77 7.09 10.01
10/25/2020 6:00:00 AM 9.84 49.712 0.102 6.77 7.09 9.97
10/25/2020 6:15:00 AM 9.77 49.586 0.103 6.77 7.09 9.99
10/25/2020 6:30:00 AM 9.73 49.514 0.103 6.77 7.12 9.97
10/25/2020 6:45:00 AM 9.64 49.352 0.102 6.77 7.14 10.04
10/25/2020 7:00:00 AM 9.55 49.19 0.102 6.78 7.13 10.04
10/25/2020 7:15:00 AM 9.49 49.082 0.102 6.77 7.16 10.13
10/25/2020 7:30:00 AM 9.49 49.082 0.103 6.78 7.11 10.07
10/25/2020 7:45:00 AM 9.45 49.01 0.103 6.77 7.26 10.09
10/25/2020 8:00:00 AM 9.41 48.938 0.102 6.78 7.19 10.14
10/25/2020 8:15:00 AM 9.37 48.866 0.103 6.78 7.15 10.15
10/25/2020 8:30:00 AM 9.3 48.74 0.103 6.79 7.23 10.23
10/25/2020 8:45:00 AM 9.32 48.776 0.103 6.8 7.12 10.22
10/25/2020 9:00:00 AM 9.28 48.704 0.102 6.81 7.12 10.31
10/25/2020 9:15:00 AM 9.28 48.704 0.102 6.81 7.17 10.38
10/25/2020 9:30:00 AM 9.28 48.704 0.102 6.82 7.27 10.37
10/25/2020 9:45:00 AM 9.3 48.74 0.102 6.83 7.12 10.41
10/25/2020 10:00:00 AM 9.33 48.794 0.102 6.84 7.09 10.49
10/25/2020 10:15:00 AM 9.36 48.848 0.102 6.87 7.1 10.55
10/25/2020 10:30:00 AM 9.51 49.118 0.102 6.86 7.1 10.42
10/25/2020 10:45:00 AM 9.6 49.28 0.102 6.87 7.25 10.53
10/25/2020 11:00:00 AM 9.74 49.532 0.102 6.9 7.11 10.53
10/25/2020 11:15:00 AM 9.89 49.802 0.102 6.9 7.15 10.52
10/25/2020 11:30:00 AM 10.02 50.036 0.102 6.91 7.11 10.56
10/25/2020 11:45:00 AM 10.16 50.288 0.102 6.92 7.23 10.57
10/25/2020 12:00:00 PM 10.35 50.63 0.102 6.92 7.11 10.53
10/25/2020 12:15:00 PM 10.46 50.828 0.102 6.92 7.29 10.57
10/25/2020 12:30:00 PM 10.53 50.954 0.102 6.92 7.08 10.57
10/25/2020 12:45:00 PM 10.53 50.954 0.102 6.91 7.06 10.65
10/25/2020 1:00:00 PM 10.5 50.9 0.102 6.9 7.31 10.57
10/25/2020 1:15:00 PM 10.53 50.954 0.102 6.89 7.2 10.53
10/25/2020 1:30:00 PM 10.56 51.008 0.102 6.91 7.07 10.6
10/25/2020 1:45:00 PM 10.7 51.26 0.102 6.91 7.16 10.53
10/25/2020 2:00:00 PM 10.68 51.224 0.102 6.9 7.07 10.52
10/25/2020 2:15:00 PM 10.63 51.134 0.102 6.89 7.06 10.53
10/25/2020 2:30:00 PM 10.67 51.206 0.102 6.89 7.11 10.51
10/25/2020 2:45:00 PM 10.66 51.188 0.102 6.89 7.05 10.48
10/25/2020 3:00:00 PM 10.65 51.17 0.102 6.87 7.19 10.42
10/25/2020 3:15:00 PM 10.66 51.188 0.102 6.88 7.06 10.46
10/25/2020 3:30:00 PM 10.66 51.188 0.102 6.87 7.05 10.45
10/25/2020 3:45:00 PM 10.68 51.224 0.102 6.88 7.11 10.47
10/25/2020 4:00:00 PM 10.74 51.332 0.102 6.89 7.1 10.37
10/25/2020 4:15:00 PM 10.7 51.26 0.102 6.89 7.08 10.46
10/25/2020 4:30:00 PM 10.73 51.314 0.102 6.89 7.11 10.42
10/25/2020 4:45:00 PM 10.72 51.296 0.102 6.88 7.07 10.36
10/25/2020 5:00:00 PM 10.72 51.296 0.102 6.87 7.1 10.33
10/25/2020 5:15:00 PM 10.73 51.314 0.102 6.85 7.06 10.23
10/25/2020 5:30:00 PM 10.69 51.242 0.102 6.86 7.11 10.3
10/25/2020 5:45:00 PM 10.69 51.242 0.102 6.86 7.12 10.25
10/25/2020 6:00:00 PM 10.67 51.206 0.102 6.85 7.09 10.24
10/25/2020 6:15:00 PM 10.67 51.206 0.102 6.84 7.11 10.17
10/25/2020 6:30:00 PM 10.65 51.17 0.102 6.83 7.07 10.12
10/25/2020 6:45:00 PM 10.63 51.134 0.102 6.82 7.16 10.07
10/25/2020 7:00:00 PM 10.59 51.062 0.102 6.82 7.13 10.07
10/25/2020 7:15:00 PM 10.56 51.008 0.102 6.82 7.1 10.08
10/25/2020 7:30:00 PM 10.55 50.99 0.102 6.81 7.06 10.05
10/25/2020 7:45:00 PM 10.55 50.99 0.102 6.8 7.01 9.98
10/25/2020 8:00:00 PM 10.54 50.972 0.102 6.78 7.16 9.89
10/25/2020 8:15:00 PM 10.5 50.9 0.102 6.8 7.03 9.94
10/25/2020 8:30:00 PM 10.47 50.846 0.102 6.78 7.06 9.93
10/25/2020 8:45:00 PM 10.46 50.828 0.102 6.78 7.06 9.87
10/25/2020 9:00:00 PM 10.44 50.792 0.102 6.77 7.07 9.89
10/25/2020 9:15:00 PM 10.43 50.774 0.102 6.78 7.07 9.89
10/25/2020 9:30:00 PM 10.41 50.738 0.102 6.78 7.08 9.89
10/25/2020 9:45:00 PM 10.38 50.684 0.102 6.78 7.11 9.89
10/25/2020 10:00:00 PM 10.36 50.648 0.102 6.77 7.15 9.9
10/25/2020 10:15:00 PM 10.33 50.594 0.102 6.77 7.05 9.92
10/25/2020 10:30:00 PM 10.28 50.504 0.102 6.76 7.11 9.9
10/25/2020 10:45:00 PM 10.26 50.468 0.102 6.77 7.18 9.92
10/25/2020 11:00:00 PM 10.25 50.45 0.102 6.78 7.26 9.91
10/25/2020 11:15:00 PM 10.24 50.432 0.102 6.77 7.14 9.87
10/25/2020 11:30:00 PM 10.2 50.36 0.102 6.77 7.11 9.92
10/25/2020 11:45:00 PM 10.19 50.342 0.102 6.77 7.07 9.89
10/26/2020 12:00:00 AM 10.17 50.306 0.102 6.76 7.09 9.88
10/26/2020 12:15:00 AM 10.15 50.27 0.102 6.77 7.08 9.9
10/26/2020 12:30:00 AM 10.11 50.198 0.102 6.78 7.1 9.98
10/26/2020 12:45:00 AM 10.08 50.144 0.102 6.78 7.11 9.98
10/26/2020 1:00:00 AM 10.08 50.144 0.102 6.78 7.08 9.92
10/26/2020 1:15:00 AM 10.04 50.072 0.102 6.77 7.07 9.97
10/26/2020 1:30:00 AM 10.01 50.018 0.102 6.77 7.1 9.99
10/26/2020 1:45:00 AM 9.99 49.982 0.102 6.77 7.13 9.95
10/26/2020 2:00:00 AM 9.98 49.964 0.102 6.77 7.17 9.98
10/26/2020 2:15:00 AM 9.98 49.964 0.102 6.77 7.1 9.88
10/26/2020 2:30:00 AM 9.98 49.964 0.102 6.75 7.12 9.9
10/26/2020 2:45:00 AM 9.97 49.946 0.102 6.75 7.1 9.9
10/26/2020 3:00:00 AM 9.96 49.928 0.102 6.76 7.1 9.86
10/26/2020 3:15:00 AM 9.93 49.874 0.102 6.76 7.1 9.91
10/26/2020 3:30:00 AM 9.91 49.838 0.102 6.77 7.11 9.97
10/26/2020 3:45:00 AM 9.92 49.856 0.102 6.76 7.11 9.86
10/26/2020 4:00:00 AM 9.91 49.838 0.102 6.77 7.08 9.95
10/26/2020 4:15:00 AM 9.89 49.802 0.102 6.77 7.12 9.94
10/26/2020 4:30:00 AM 9.91 49.838 0.102 6.77 7.1 9.92
10/26/2020 4:45:00 AM 9.89 49.802 0.101 6.76 7.16 9.94
10/26/2020 5:00:00 AM 9.87 49.766 0.102 6.77 7.22 9.98
10/26/2020 5:15:00 AM 9.89 49.802 0.102 6.77 7.34 9.97
10/26/2020 5:30:00 AM 9.9 49.82 0.102 6.77 7.22 9.98
10/26/2020 5:45:00 AM 9.88 49.784 0.102 6.78 7.55 10.01
10/26/2020 6:00:00 AM 9.88 49.784 0.102 6.78 9.61 9.99
10/26/2020 6:15:00 AM 9.91 49.838 0.102 6.77 10.96 9.92
10/26/2020 6:30:00 AM 9.9 49.82 0.102 6.78 11.2 10.01
10/26/2020 6:45:00 AM 9.9 49.82 0.102 6.78 9.77 10.01
10/26/2020 7:00:00 AM 9.89 49.802 0.102 6.78 9.08 9.99
10/26/2020 7:15:00 AM 9.91 49.838 0.102 6.77 8.67 9.96
10/26/2020 7:30:00 AM 9.93 49.874 0.102 6.76 8.83 9.93
10/26/2020 7:45:00 AM 9.91 49.838 0.102 6.76 8.5 9.96
10/26/2020 8:00:00 AM 9.92 49.856 0.102 6.77 8.37 9.98
10/26/2020 8:15:00 AM 9.93 49.874 0.102 6.77 8.19 9.99
10/26/2020 8:30:00 AM 9.93 49.874 0.102 6.77 8.04 10.01
10/26/2020 8:45:00 AM 9.94 49.892 0.102 6.78 7.87 10.09
10/26/2020 9:00:00 AM 9.96 49.928 0.102 6.78 7.67 10.01
10/26/2020 9:15:00 AM 9.98 49.964 0.102 6.78 7.56 10.05
10/26/2020 9:30:00 AM 9.99 49.982 0.102 6.79 7.46 10.1
10/26/2020 9:45:00 AM 10.03 50.054 0.102 6.81 7.36 10.14
10/26/2020 10:00:00 AM 10.06 50.108 0.102 6.81 7.32 10.2
10/26/2020 10:15:00 AM 10.12 50.216 0.102 6.8 7.26 10.08
10/26/2020 10:30:00 AM 10.15 50.27 0.102 6.8 7.22 10.06
10/26/2020 10:45:00 AM 10.19 50.342 0.102 6.82 7.31 10.18
10/26/2020 11:00:00 AM 10.25 50.45 0.102 6.83 7.22 10.19
10/26/2020 11:15:00 AM 10.33 50.594 0.102 6.84 7.45 10.21
10/26/2020 11:30:00 AM 10.4 50.72 0.102 6.86 7.55 10.32
10/26/2020 11:45:00 AM 10.45 50.81 0.102 6.85 7.25 10.25
10/26/2020 12:00:00 PM 10.52 50.936 0.102 6.86 7.15 10.26
10/26/2020 12:15:00 PM 10.6 51.08 0.102 6.86 7.18 10.22
10/26/2020 12:30:00 PM 10.65 51.17 0.102 6.84 7.09 10.13
10/26/2020 12:45:00 PM 10.67 51.206 0.102 6.84 7.07 10.19
10/26/2020 1:00:00 PM 10.7 51.26 0.102 6.84 7.11 10.15
10/26/2020 1:15:00 PM 10.74 51.332 0.102 6.83 7.11 10.18
10/26/2020 1:30:00 PM 10.79 51.422 0.102 6.84 7.07 10.17
10/26/2020 1:45:00 PM 10.83 51.494 0.102 6.84 7.09 10.09
10/26/2020 2:00:00 PM 10.93 51.674 0.102 6.84 7.05 10.11
10/26/2020 2:15:00 PM 10.95 51.71 0.101 6.87 7.08 10.21
10/26/2020 2:30:00 PM 10.98 51.764 0.101 6.86 7.11 10.2
10/26/2020 2:45:00 PM 11.02 51.836 0.101 6.82 7.09 10.12
10/26/2020 3:00:00 PM 11.05 51.89 0.101 6.84 7.09 10.14
10/26/2020 3:15:00 PM 11.07 51.926 0.101 6.85 7.05 10.13
10/26/2020 3:30:00 PM 11.09 51.962 0.102 6.81 7.12 9.95
10/26/2020 3:45:00 PM 11.11 51.998 0.102 6.81 7.08 9.95
10/26/2020 4:00:00 PM 11.12 52.016 0.102 6.81 7.08 9.96
10/26/2020 4:15:00 PM 11.12 52.016 0.102 6.81 7.22 9.99
10/26/2020 4:30:00 PM 11.1 51.98 0.101 6.8 7.08 9.95
10/26/2020 4:45:00 PM 11.1 51.98 0.102 6.78 7.06 9.77
10/26/2020 5:00:00 PM 11.12 52.016 0.101 6.79 7.04 9.89
10/26/2020 5:15:00 PM 11.14 52.052 0.101 6.81 7.07 9.94
10/26/2020 5:30:00 PM 11.13 52.034 0.102 6.79 7.09 9.87
10/26/2020 5:45:00 PM 11.13 52.034 0.102 6.79 7.07 9.85
10/26/2020 6:00:00 PM 11.14 52.052 0.102 6.79 7.05 9.88
10/26/2020 6:15:00 PM 11.13 52.034 0.102 6.77 7.08 9.8
10/26/2020 6:30:00 PM 11.13 52.034 0.102 6.76 7.09 9.79
10/26/2020 6:45:00 PM 11.14 52.052 0.102 6.77 7.06 9.79
10/26/2020 7:00:00 PM 11.13 52.034 0.102 6.75 7 9.7
10/26/2020 7:15:00 PM 11.13 52.034 0.102 6.74 7 9.66
10/26/2020 7:30:00 PM 11.13 52.034 0.102 6.73 7.03 9.5
10/26/2020 7:45:00 PM 11.14 52.052 0.102 6.74 7.02 9.62
10/26/2020 8:00:00 PM 11.15 52.07 0.102 6.77 7.09 9.78
10/26/2020 8:15:00 PM 11.14 52.052 0.102 6.76 6.99 9.7
10/26/2020 8:30:00 PM 11.15 52.07 0.102 6.74 7.43 9.63
10/26/2020 8:45:00 PM 11.14 52.052 0.102 6.77 6.98 9.75
10/26/2020 9:00:00 PM 11.14 52.052 0.102 6.77 6.98 9.74
10/26/2020 9:15:00 PM 11.14 52.052 0.102 6.75 6.99 9.66
10/26/2020 9:30:00 PM 11.14 52.052 0.102 6.77 6.96 9.73
10/26/2020 9:45:00 PM 11.13 52.034 0.102 6.75 6.99 9.67
10/26/2020 10:00:00 PM 11.13 52.034 0.102 6.77 7 9.73
10/26/2020 10:15:00 PM 11.13 52.034 0.102 6.75 7.05 9.55
10/26/2020 10:30:00 PM 11.12 52.016 0.102 6.77 6.96 9.74
10/26/2020 10:45:00 PM 11.11 51.998 0.102 6.76 7.01 9.65
10/26/2020 11:00:00 PM 11.1 51.98 0.102 6.76 6.97 9.66
10/26/2020 11:15:00 PM 11.08 51.944 0.102 6.76 6.97 9.67
10/26/2020 11:30:00 PM 11.07 51.926 0.102 6.76 6.96 9.59
10/26/2020 11:45:00 PM 11.06 51.908 0.102 6.76 6.97 9.62
10/27/2020 12:00:00 AM 11.02 51.836 0.102 6.75 6.98 9.59
10/27/2020 12:15:00 AM 10.97 51.746 0.102 6.76 6.98 9.65
10/27/2020 12:30:00 AM 10.93 51.674 0.102 6.77 6.99 9.74
10/27/2020 12:45:00 AM 10.91 51.638 0.102 6.76 6.96 9.55
10/27/2020 1:00:00 AM 10.88 51.584 0.102 6.77 7 9.73
10/27/2020 1:15:00 AM 10.86 51.548 0.102 6.76 6.97 9.69
10/27/2020 1:30:00 AM 10.83 51.494 0.102 6.76 6.99 9.67
10/27/2020 1:45:00 AM 10.81 51.458 0.102 6.77 7 9.77
10/27/2020 2:00:00 AM 10.79 51.422 0.102 6.78 6.97 9.86
10/27/2020 2:15:00 AM 10.76 51.368 0.102 6.78 7 9.85
10/27/2020 2:30:00 AM 10.74 51.332 0.102 6.77 6.98 9.79
10/27/2020 2:45:00 AM 10.71 51.278 0.102 6.78 7.01 9.89
10/27/2020 3:00:00 AM 10.69 51.242 0.102 6.78 7 9.8
10/27/2020 3:15:00 AM 10.67 51.206 0.102 6.77 7 9.82
10/27/2020 3:30:00 AM 10.65 51.17 0.102 6.78 6.99 9.83
10/27/2020 3:45:00 AM 10.63 51.134 0.102 6.78 7.04 9.83
10/27/2020 4:00:00 AM 10.61 51.098 0.102 6.78 7.04 9.83
10/27/2020 4:15:00 AM 10.59 51.062 0.102 6.78 7.03 9.9
10/27/2020 4:30:00 AM 10.58 51.044 0.102 6.78 7.03 9.8
10/27/2020 4:45:00 AM 10.57 51.026 0.102 6.77 7.09 9.81
10/27/2020 5:00:00 AM 10.55 50.99 0.102 6.78 7.05 9.89
10/27/2020 5:15:00 AM 10.54 50.972 0.102 6.78 7.08 9.85
10/27/2020 5:30:00 AM 10.51 50.918 0.102 6.78 7.22 9.9
10/27/2020 5:45:00 AM 10.5 50.9 0.102 6.78 7.06 9.89
10/27/2020 6:00:00 AM 10.48 50.864 0.102 6.79 7.06 9.96
10/27/2020 6:15:00 AM 10.47 50.846 0.102 6.78 7.05 9.96
10/27/2020 6:30:00 AM 10.45 50.81 0.102 6.79 7.2 9.95
10/27/2020 6:45:00 AM 10.44 50.792 0.102 6.78 7.02 9.93
10/27/2020 7:00:00 AM 10.43 50.774 0.102 6.78 7.06 9.92
10/27/2020 7:15:00 AM 10.42 50.756 0.102 6.79 7.19 9.96
10/27/2020 7:30:00 AM 10.41 50.738 0.102 6.79 7.04 9.92
10/27/2020 7:45:00 AM 10.39 50.702 0.102 6.79 7.04 9.99
10/27/2020 8:00:00 AM 10.38 50.684 0.102 6.8 7.08 9.98
10/27/2020 8:15:00 AM 10.38 50.684 0.102 6.8 7.1 9.98
10/27/2020 8:30:00 AM 10.38 50.684 0.102 6.81 7.03 10.04
10/27/2020 8:45:00 AM 10.38 50.684 0.102 6.81 7.06 10.09
10/27/2020 9:00:00 AM 10.39 50.702 0.102 6.82 7.02 10.15
10/27/2020 9:15:00 AM 10.42 50.756 0.102 6.83 7.14 10.18
10/27/2020 9:30:00 AM 10.43 50.774 0.102 6.83 7.01 10.17
10/27/2020 9:45:00 AM 10.44 50.792 0.102 6.85 6.97 10.24
10/27/2020 10:00:00 AM 10.45 50.81 0.102 6.85 7.03 10.22
10/27/2020 10:15:00 AM 10.47 50.846 0.102 6.85 7 10.23
10/27/2020 10:30:00 AM 10.51 50.918 0.102 6.86 7.05 10.31
10/27/2020 10:45:00 AM 10.6 51.08 0.102 6.88 7.01 10.33
10/27/2020 11:00:00 AM 10.68 51.224 0.102 6.89 7.04 10.37
10/27/2020 11:15:00 AM 10.76 51.368 0.102 6.9 7 10.41
10/27/2020 11:30:00 AM 10.82 51.476 0.102 6.91 7.01 10.41
10/27/2020 11:45:00 AM 10.85 51.53 0.102 6.91 6.99 10.43
10/27/2020 12:00:00 PM 10.86 51.548 0.102 6.9 7 10.41
10/27/2020 12:15:00 PM 10.87 51.566 0.102 6.9 7.01 10.39
10/27/2020 12:30:00 PM 10.89 51.602 0.102 6.89 7.02 10.37
10/27/2020 12:45:00 PM 10.9 51.62 0.102 6.89 7.02 10.41
10/27/2020 1:00:00 PM 10.96 51.728 0.102 6.9 7.06 10.36
10/27/2020 1:15:00 PM 11.01 51.818 0.101 6.9 6.99 10.37
10/27/2020 1:30:00 PM 11.04 51.872 0.101 6.9 7 10.36
10/27/2020 1:45:00 PM 11.04 51.872 0.101 6.89 7 10.36
10/27/2020 2:00:00 PM 11.04 51.872 0.101 6.88 7.01 10.29
10/27/2020 2:15:00 PM 11.02 51.836 0.101 6.88 7.04 10.36
10/27/2020 2:30:00 PM 11.02 51.836 0.101 6.87 6.97 10.28
10/27/2020 2:45:00 PM 11.03 51.854 0.101 6.88 7.04 10.31
10/27/2020 3:00:00 PM 11.04 51.872 0.101 6.85 6.99 10.18
10/27/2020 3:15:00 PM 11.06 51.908 0.101 6.87 7.05 10.32
10/27/2020 3:30:00 PM 11.06 51.908 0.101 6.88 7.1 10.3
10/27/2020 3:45:00 PM 11.04 51.872 0.101 6.88 7.01 10.3
10/27/2020 4:00:00 PM 11.04 51.872 0.101 6.88 6.99 10.27
10/27/2020 4:15:00 PM 11.04 51.872 0.101 6.88 7.03 10.27
10/27/2020 4:30:00 PM 11.02 51.836 0.101 6.86 7.03 10.17
10/27/2020 4:45:00 PM 11 51.8 0.101 6.86 7.03 10.22
10/27/2020 5:00:00 PM 10.98 51.764 0.101 6.85 7.01 10.09
10/27/2020 5:15:00 PM 10.95 51.71 0.101 6.85 7 10.17
10/27/2020 5:30:00 PM 10.93 51.674 0.101 6.84 7 10.13
10/27/2020 5:45:00 PM 10.91 51.638 0.101 6.85 6.96 10.14
10/27/2020 6:00:00 PM 10.88 51.584 0.101 6.84 7.03 10.09
10/27/2020 6:15:00 PM 10.86 51.548 0.102 6.82 7.01 10.05
10/27/2020 6:30:00 PM 10.82 51.476 0.102 6.82 7.08 10.05
10/27/2020 6:45:00 PM 10.81 51.458 0.102 6.82 7.06 10.02
10/27/2020 7:00:00 PM 10.79 51.422 0.102 6.81 7.15 10
10/27/2020 7:15:00 PM 10.77 51.386 0.102 6.81 7.04 10.01
10/27/2020 7:30:00 PM 10.74 51.332 0.102 6.81 7.07 10.02
10/27/2020 7:45:00 PM 10.7 51.26 0.102 6.8 7.02 10
10/27/2020 8:00:00 PM 10.68 51.224 0.102 6.8 7.03 9.9
10/27/2020 8:15:00 PM 10.65 51.17 0.102 6.78 7.07 9.87
10/27/2020 8:30:00 PM 10.62 51.116 0.102 6.79 7.09 9.96
10/27/2020 8:45:00 PM 10.61 51.098 0.102 6.79 7.05 9.86
10/27/2020 9:00:00 PM 10.58 51.044 0.102 6.8 7.03 9.95
10/27/2020 9:15:00 PM 10.56 51.008 0.102 6.8 7.15 10
10/27/2020 9:30:00 PM 10.54 50.972 0.102 6.8 7.02 9.99
10/27/2020 9:45:00 PM 10.51 50.918 0.102 6.79 7.04 9.97
10/27/2020 10:00:00 PM 10.49 50.882 0.102 6.8 7.06 9.99
10/27/2020 10:15:00 PM 10.45 50.81 0.102 6.8 7.03 9.99
10/27/2020 10:30:00 PM 10.42 50.756 0.102 6.8 7.22 9.96
10/27/2020 10:45:00 PM 10.4 50.72 0.102 6.8 7.18 9.95
10/27/2020 11:00:00 PM 10.38 50.684 0.102 6.79 7.07 9.94
10/27/2020 11:15:00 PM 10.33 50.594 0.102 6.78 7.09 9.94
10/27/2020 11:30:00 PM 10.31 50.558 0.102 6.79 7.1 9.94
10/27/2020 11:45:00 PM 10.3 50.54 0.102 6.79 7.06 9.94
10/28/2020 12:00:00 AM 10.29 50.522 0.102 6.8 7.05 9.99
10/28/2020 12:15:00 AM 10.29 50.522 0.102 6.8 7.13 9.93
10/28/2020 12:30:00 AM 10.28 50.504 0.102 6.79 7.06 9.94
10/28/2020 12:45:00 AM 10.26 50.468 0.102 6.8 7.01 9.91
10/28/2020 1:00:00 AM 10.25 50.45 0.102 6.79 7.05 9.95
10/28/2020 1:15:00 AM 10.23 50.414 0.102 6.8 7.07 9.96
10/28/2020 1:30:00 AM 10.22 50.396 0.102 6.79 7.04 9.99
10/28/2020 1:45:00 AM 10.21 50.378 0.102 6.8 7.05 10.04
10/28/2020 2:00:00 AM 10.2 50.36 0.102 6.8 7.03 10.05
10/28/2020 2:15:00 AM 10.19 50.342 0.102 6.81 7.06 10.05
10/28/2020 2:30:00 AM 10.18 50.324 0.102 6.8 7.09 10.04
10/28/2020 2:45:00 AM 10.18 50.324 0.102 6.8 7.06 10.05
10/28/2020 3:00:00 AM 10.17 50.306 0.102 6.8 7.05 10.06
10/28/2020 3:15:00 AM 10.16 50.288 0.102 6.8 7.05 10.04
10/28/2020 3:30:00 AM 10.15 50.27 0.102 6.8 7.1 10.03
10/28/2020 3:45:00 AM 10.14 50.252 0.102 6.79 7.11 10.04
10/28/2020 4:00:00 AM 10.13 50.234 0.102 6.79 7.11 10.01
10/28/2020 4:15:00 AM 10.13 50.234 0.102 6.79 7.11 10.01
10/28/2020 4:30:00 AM 10.12 50.216 0.102 6.8 7.07 10.03
10/28/2020 4:45:00 AM 10.11 50.198 0.102 6.79 7.06 10
10/28/2020 5:00:00 AM 10.09 50.162 0.101 6.79 7.1 10
10/28/2020 5:15:00 AM 10.08 50.144 0.101 6.79 7.1 10.03
10/28/2020 5:30:00 AM 10.07 50.126 0.101 6.79 7.11 10.03
10/28/2020 5:45:00 AM 10.05 50.09 0.101 6.8 7.32 10.09
10/28/2020 6:00:00 AM 10.05 50.09 0.101 6.8 7.1 10.08
10/28/2020 6:15:00 AM 10.04 50.072 0.101 6.8 7.35 10.07
10/28/2020 6:30:00 AM 10.04 50.072 0.101 6.8 8.28 10.08
10/28/2020 6:45:00 AM 10.03 50.054 0.101 6.81 8.83 10.09
10/28/2020 7:00:00 AM 10.03 50.054 0.101 6.8 8.74 10.07
10/28/2020 7:15:00 AM 10.02 50.036 0.101 6.8 8.45 10.04
10/28/2020 7:30:00 AM 10.02 50.036 0.101 6.8 8.16 9.95
10/28/2020 7:45:00 AM 10.03 50.054 0.101 6.79 8.13 9.93
10/28/2020 8:00:00 AM 10.01 50.018 0.101 6.8 8.25 9.99
10/28/2020 8:15:00 AM 10.02 50.036 0.101 6.79 8.15 9.94
10/28/2020 8:30:00 AM 10.02 50.036 0.101 6.79 8.12 9.94
10/28/2020 8:45:00 AM 10 50 0.101 6.8 7.97 10.08
10/28/2020 9:00:00 AM 10.02 50.036 0.101 6.81 7.89 10.03
10/28/2020 9:15:00 AM 10.03 50.054 0.101 6.81 7.79 10.1
10/28/2020 9:30:00 AM 10.05 50.09 0.101 6.83 7.73 10.22
10/28/2020 9:45:00 AM 10.11 50.198 0.101 6.85 7.66 10.25
10/28/2020 10:00:00 AM 10.17 50.306 0.101 6.86 7.64 10.32
10/28/2020 10:15:00 AM 10.23 50.414 0.101 6.87 7.48 10.36
10/28/2020 10:30:00 AM 10.28 50.504 0.101 6.88 7.43 10.41
10/28/2020 10:45:00 AM 10.34 50.612 0.101 6.88 7.39 10.37
10/28/2020 11:00:00 AM 10.37 50.666 0.101 6.89 7.36 10.44
10/28/2020 11:15:00 AM 10.42 50.756 0.101 6.88 7.39 10.32
10/28/2020 11:30:00 AM 10.48 50.864 0.101 6.9 7.27 10.44
10/28/2020 11:45:00 AM 10.52 50.936 0.101 6.89 7.21 10.41
10/28/2020 12:00:00 PM 10.59 51.062 0.101 6.91 7.18 10.45
10/28/2020 12:15:00 PM 10.71 51.278 0.101 6.92 7.19 10.43
10/28/2020 12:30:00 PM 10.81 51.458 0.101 6.93 7.09 10.49
10/28/2020 12:45:00 PM 10.87 51.566 0.101 6.92 7.08 10.48
10/28/2020 1:00:00 PM 10.92 51.656 0.101 6.93 7.08 10.5
10/28/2020 1:15:00 PM 10.97 51.746 0.101 6.92 7.1 10.45
10/28/2020 1:30:00 PM 11.01 51.818 0.101 6.93 7.05 10.47
10/28/2020 1:45:00 PM 11.04 51.872 0.101 6.92 7.04 10.41
10/28/2020 2:00:00 PM 11.11 51.998 0.101 6.92 7.04 10.43
10/28/2020 2:15:00 PM 11.22 52.196 0.101 6.94 7.04 10.41
10/28/2020 2:30:00 PM 11.21 52.178 0.101 6.92 6.99 10.41
10/28/2020 2:45:00 PM 11.18 52.124 0.101 6.91 7 10.39
10/28/2020 3:00:00 PM 11.19 52.142 0.101 6.9 7 10.36
10/28/2020 3:15:00 PM 11.22 52.196 0.101 6.92 7.03 10.37
10/28/2020 3:30:00 PM 11.21 52.178 0.101 6.92 6.99 10.39
10/28/2020 3:45:00 PM 11.18 52.124 0.101 6.91 6.99 10.35
10/28/2020 4:00:00 PM 11.17 52.106 0.101 6.9 7 10.34
10/28/2020 4:15:00 PM 11.15 52.07 0.101 6.9 7.01 10.33
10/28/2020 4:30:00 PM 11.15 52.07 0.101 6.9 7 10.33
10/28/2020 4:45:00 PM 11.15 52.07 0.101 6.9 7 10.32
10/28/2020 5:00:00 PM 11.13 52.034 0.101 6.89 6.99 10.28
10/28/2020 5:15:00 PM 11.1 51.98 0.101 6.88 6.97 10.21
10/28/2020 5:30:00 PM 11.08 51.944 0.101 6.88 7.01 10.24
10/28/2020 5:45:00 PM 11.05 51.89 0.101 6.86 7 10.18
10/28/2020 6:00:00 PM 11.01 51.818 0.101 6.85 6.99 10.14
10/28/2020 6:15:00 PM 10.96 51.728 0.101 6.85 6.99 10.14
10/28/2020 6:30:00 PM 10.91 51.638 0.101 6.84 7.09 10.12
10/28/2020 6:45:00 PM 10.87 51.566 0.101 6.83 6.91 10.1
10/28/2020 7:00:00 PM 10.82 51.476 0.101 6.82 6.88 10.03
10/28/2020 7:15:00 PM 10.78 51.404 0.101 6.82 6.88 10.05
10/28/2020 7:30:00 PM 10.73 51.314 0.101 6.82 6.85 10.04
10/28/2020 7:45:00 PM 10.68 51.224 0.101 6.82 6.92 10.06
10/28/2020 8:00:00 PM 10.63 51.134 0.101 6.82 6.87 10.07
10/28/2020 8:15:00 PM 10.57 51.026 0.101 6.81 6.91 10.07
10/28/2020 8:30:00 PM 10.52 50.936 0.101 6.81 6.94 10.06
10/28/2020 8:45:00 PM 10.48 50.864 0.101 6.81 6.98 10.05
10/28/2020 9:00:00 PM 10.44 50.792 0.101 6.8 6.91 10.05
10/28/2020 9:15:00 PM 10.4 50.72 0.101 6.8 6.87 10.04
10/28/2020 9:30:00 PM 10.36 50.648 0.101 6.79 6.93 10.03
10/28/2020 9:45:00 PM 10.31 50.558 0.101 6.8 6.91 10.08
10/28/2020 10:00:00 PM 10.27 50.486 0.101 6.8 6.87 10.09
10/28/2020 10:15:00 PM 10.24 50.432 0.101 6.8 6.97 10.11
10/28/2020 10:30:00 PM 10.2 50.36 0.101 6.8 6.89 10.13
10/28/2020 10:45:00 PM 10.16 50.288 0.101 6.8 6.91 10.12
10/28/2020 11:00:00 PM 10.12 50.216 0.101 6.81 6.91 10.14
10/28/2020 11:15:00 PM 10.08 50.144 0.101 6.8 6.89 10.14
10/28/2020 11:30:00 PM 10.05 50.09 0.101 6.8 6.87 10.15
10/28/2020 11:45:00 PM 10.01 50.018 0.101 6.8 6.91 10.16
10/29/2020 12:00:00 AM 9.99 49.982 0.101 6.8 6.91 10.15
10/29/2020 12:15:00 AM 9.96 49.928 0.101 6.8 6.86 10.15
10/29/2020 12:30:00 AM 9.92 49.856 0.101 6.8 6.9 10.16
10/29/2020 12:45:00 AM 9.89 49.802 0.101 6.8 6.87 10.18
10/29/2020 1:00:00 AM 9.85 49.73 0.101 6.81 6.88 10.2
10/29/2020 1:15:00 AM 9.82 49.676 0.101 6.81 6.91 10.21
10/29/2020 1:30:00 AM 9.8 49.64 0.101 6.81 6.91 10.21
10/29/2020 1:45:00 AM 9.78 49.604 0.101 6.81 6.91 10.22
10/29/2020 2:00:00 AM 9.75 49.55 0.101 6.82 6.85 10.23
10/29/2020 2:15:00 AM 9.74 49.532 0.102 6.82 6.93 10.24
10/29/2020 2:30:00 AM 9.73 49.514 0.102 6.81 6.89 10.24
10/29/2020 2:45:00 AM 9.72 49.496 0.102 6.81 6.91 10.23
10/29/2020 3:00:00 AM 9.71 49.478 0.102 6.82 6.89 10.25
10/29/2020 3:15:00 AM 9.7 49.46 0.102 6.82 6.89 10.26
10/29/2020 3:30:00 AM 9.68 49.424 0.102 6.81 6.88 10.26
10/29/2020 3:45:00 AM 9.66 49.388 0.102 6.82 6.89 10.3
10/29/2020 4:00:00 AM 9.65 49.37 0.102 6.82 6.88 10.31
10/29/2020 4:15:00 AM 9.64 49.352 0.102 6.82 6.93 10.31
10/29/2020 4:30:00 AM 9.64 49.352 0.102 6.81 6.9 10.27
10/29/2020 4:45:00 AM 9.63 49.334 0.102 6.81 6.86 10.26
10/29/2020 5:00:00 AM 9.62 49.316 0.102 6.82 6.92 10.3
10/29/2020 5:15:00 AM 9.61 49.298 0.102 6.82 7.01 10.28
10/29/2020 5:30:00 AM 9.59 49.262 0.101 6.81 6.87 10.29
10/29/2020 5:45:00 AM 9.58 49.244 0.101 6.82 7.42 10.3
10/29/2020 6:00:00 AM 9.56 49.208 0.101 6.82 6.98 10.3
10/29/2020 6:15:00 AM 9.55 49.19 0.101 6.82 7.02 10.3
10/29/2020 6:30:00 AM 9.54 49.172 0.101 6.82 7.09 10.31
10/29/2020 6:45:00 AM 9.53 49.154 0.101 6.82 7.05 10.33
10/29/2020 7:00:00 AM 9.52 49.136 0.101 6.83 7.16 10.32
10/29/2020 7:15:00 AM 9.51 49.118 0.101 6.83 8.84 10.32
10/29/2020 7:30:00 AM 9.49 49.082 0.1 6.83 12.29 10.33
10/29/2020 7:45:00 AM 9.48 49.064 0.1 6.84 13.39 10.36
10/29/2020 8:00:00 AM 9.46 49.028 0.1 6.84 13.88 10.36
10/29/2020 8:15:00 AM 9.45 49.01 0.099 6.84 14.47 10.37
10/29/2020 8:30:00 AM 9.43 48.974 0.099 6.85 14.14 10.4
10/29/2020 8:45:00 AM 9.42 48.956 0.098 6.85 14.77 10.41
10/29/2020 9:00:00 AM 9.4 48.92 0.098 6.86 16.14 10.42
10/29/2020 9:15:00 AM 9.4 48.92 0.098 6.85 15.56 10.43
10/29/2020 9:30:00 AM 9.4 48.92 0.097 6.85 14.63 10.43
10/29/2020 9:45:00 AM 9.4 48.92 0.097 6.85 13.31 10.46
10/29/2020 10:00:00 AM 9.4 48.92 0.097 6.85 11.85 10.47
10/29/2020 10:15:00 AM 9.42 48.956 0.097 6.84 10.79 10.46
10/29/2020 10:30:00 AM 9.42 48.956 0.096 6.84 10.25 10.48
10/29/2020 10:45:00 AM 9.43 48.974 0.096 6.84 9.55 10.48
10/29/2020 11:00:00 AM 9.43 48.974 0.096 6.85 9.07 10.5
10/29/2020 11:15:00 AM 9.44 48.992 0.096 6.85 8.84 10.49
10/29/2020 11:30:00 AM 9.44 48.992 0.096 6.85 8.51 10.53
10/29/2020 11:45:00 AM 9.44 48.992 0.095 6.86 8.4 10.54
10/29/2020 12:00:00 PM 9.44 48.992 0.095 6.86 8.25 10.56
10/29/2020 12:15:00 PM 9.45 49.01 0.095 6.87 8.11 10.58
10/29/2020 12:30:00 PM 9.47 49.046 0.095 6.88 7.99 10.6
10/29/2020 12:45:00 PM 9.5 49.1 0.095 6.88 7.76 10.54
10/29/2020 1:00:00 PM 9.52 49.136 0.095 6.86 7.72 10.5
10/29/2020 1:15:00 PM 9.52 49.136 0.095 6.87 7.86 10.56
10/29/2020 1:30:00 PM 9.56 49.208 0.095 6.88 8.13 10.6
10/29/2020 1:45:00 PM 9.59 49.262 0.094 6.89 8.35 10.66
10/29/2020 2:00:00 PM 9.58 49.244 0.094 6.88 10.74 10.72
10/29/2020 2:15:00 PM 9.56 49.208 0.093 6.87 10.82 10.71
10/29/2020 2:30:00 PM 9.53 49.154 0.093 6.88 13.35 10.72
10/29/2020 2:45:00 PM 9.51 49.118 0.093 6.91 14.92 10.72
10/29/2020 3:00:00 PM 9.47 49.046 0.095 6.93 19.15 10.72
10/29/2020 3:15:00 PM 9.43 48.974 0.096 6.94 18.61 10.73
10/29/2020 3:30:00 PM 9.4 48.92 0.096 6.95 19.1 10.73
10/29/2020 3:45:00 PM 9.38 48.884 0.096 6.94 19.74 10.73
10/29/2020 4:00:00 PM 9.35 48.83 0.097 6.93 19.19 10.74
10/29/2020 4:15:00 PM 9.34 48.812 0.098 6.9 18.79 10.76
10/29/2020 4:30:00 PM 9.34 48.812 0.099 6.9 18.21 10.78
10/29/2020 4:45:00 PM 9.35 48.83 0.1 6.88 18.62 10.78
10/29/2020 5:00:00 PM 9.36 48.848 0.1 6.87 18.12 10.77
10/29/2020 5:15:00 PM 9.36 48.848 0.1 6.86 18.31 10.77
10/29/2020 5:30:00 PM 9.36 48.848 0.101 6.85 19.71 10.77
10/29/2020 5:45:00 PM 9.36 48.848 0.101 6.84 20.24 10.75
10/29/2020 6:00:00 PM 9.35 48.83 0.102 6.83 21.88 10.77
10/29/2020 6:15:00 PM 9.35 48.83 0.102 6.83 24.11 10.77
10/29/2020 6:30:00 PM 9.35 48.83 0.102 6.83 25.3 10.75
10/29/2020 6:45:00 PM 9.34 48.812 0.102 6.82 26.5 10.77
10/29/2020 7:00:00 PM 9.34 48.812 0.102 6.81 26.6 10.76
10/29/2020 7:15:00 PM 9.33 48.794 0.102 6.8 27.08 10.77
10/29/2020 7:30:00 PM 9.33 48.794 0.103 6.78 25.71 10.78
10/29/2020 7:45:00 PM 9.33 48.794 0.103 6.77 23.64 10.78
10/29/2020 8:00:00 PM 9.33 48.794 0.104 6.76 23.03 10.78
10/29/2020 8:15:00 PM 9.33 48.794 0.104 6.75 21.03 10.79
10/29/2020 8:30:00 PM 9.33 48.794 0.104 6.75 20.39 10.8
10/29/2020 8:45:00 PM 9.33 48.794 0.104 6.74 20.07 10.8
10/29/2020 9:00:00 PM 9.34 48.812 0.103 6.73 17.64 10.79
10/29/2020 9:15:00 PM 9.34 48.812 0.103 6.72 17.67 10.79
10/29/2020 9:30:00 PM 9.34 48.812 0.103 6.72 16.93 10.79
10/29/2020 9:45:00 PM 9.34 48.812 0.103 6.71 16.21 10.79
10/29/2020 10:00:00 PM 9.34 48.812 0.103 6.71 16.12 10.79
10/29/2020 10:15:00 PM 9.34 48.812 0.103 6.7 15.61 10.78
10/29/2020 10:30:00 PM 9.34 48.812 0.103 6.7 15.51 10.8
10/29/2020 10:45:00 PM 9.34 48.812 0.102 6.7 15.09 10.79
10/29/2020 11:00:00 PM 9.34 48.812 0.102 6.7 15.11 10.79
10/29/2020 11:15:00 PM 9.33 48.794 0.102 6.69 14.76 10.79
10/29/2020 11:30:00 PM 9.32 48.776 0.101 6.69 14.44 10.79
10/29/2020 11:45:00 PM 9.31 48.758 0.101 6.69 13.82 10.79
10/30/2020 12:00:00 AM 9.3 48.74 0.1 6.69 13.31 10.79
10/30/2020 12:15:00 AM 9.3 48.74 0.1 6.7 13.32 10.8
10/30/2020 12:30:00 AM 9.29 48.722 0.099 6.7 12.91 10.8
10/30/2020 12:45:00 AM 9.28 48.704 0.099 6.69 12.51 10.79
10/30/2020 1:00:00 AM 9.27 48.686 0.099 6.7 12.62 10.79
10/30/2020 1:15:00 AM 9.26 48.668 0.098 6.7 12.06 10.8
10/30/2020 1:30:00 AM 9.23 48.614 0.098 6.7 11.88 10.8
10/30/2020 1:45:00 AM 9.21 48.578 0.098 6.69 11.84 10.81
10/30/2020 2:00:00 AM 9.18 48.524 0.098 6.7 11.65 10.81
10/30/2020 2:15:00 AM 9.14 48.452 0.098 6.69 11.36 10.81
10/30/2020 2:30:00 AM 9.13 48.434 0.097 6.7 11.19 10.83
10/30/2020 2:45:00 AM 9.11 48.398 0.097 6.7 10.99 10.84
10/30/2020 3:00:00 AM 9.09 48.362 0.097 6.7 10.97 10.84
10/30/2020 3:15:00 AM 9.06 48.308 0.097 6.7 10.78 10.85
10/30/2020 3:30:00 AM 9.04 48.272 0.097 6.71 10.7 10.86
10/30/2020 3:45:00 AM 9.01 48.218 0.097 6.71 10.91 10.86
10/30/2020 4:00:00 AM 8.98 48.164 0.096 6.7 10.77 10.87
10/30/2020 4:15:00 AM 8.93 48.074 0.096 6.7 10.71 10.9
10/30/2020 4:30:00 AM 8.9 48.02 0.096 6.7 10.63 10.91
10/30/2020 4:45:00 AM 8.88 47.984 0.096 6.7 10.6 10.91
10/30/2020 5:00:00 AM 8.85 47.93 0.096 6.7 10.65 10.91
10/30/2020 5:15:00 AM 8.82 47.876 0.096 6.7 11.01 10.92
10/30/2020 5:30:00 AM 8.8 47.84 0.095 6.71 10.72 10.94
10/30/2020 5:45:00 AM 8.78 47.804 0.095 6.71 10.62 10.93
10/30/2020 6:00:00 AM 8.75 47.75 0.095 6.7 10.64 10.96
10/30/2020 6:15:00 AM 8.73 47.714 0.095 6.71 10.7 10.97
10/30/2020 6:30:00 AM 8.72 47.696 0.095 6.71 10.79 10.96
10/30/2020 6:45:00 AM 8.7 47.66 0.095 6.71 10.44 10.98
10/30/2020 7:00:00 AM 8.68 47.624 0.095 6.72 10.7 10.99
10/30/2020 7:15:00 AM 8.66 47.588 0.095 6.72 10.8 11.01
10/30/2020 7:30:00 AM 8.64 47.552 0.094 6.71 10.69 11
10/30/2020 7:45:00 AM 8.62 47.516 0.094 6.72 10.71 11.02
10/30/2020 8:00:00 AM 8.61 47.498 0.094 6.72 10.77 11.04
10/30/2020 8:15:00 AM 8.59 47.462 0.094 6.71 10.94 11.04
10/30/2020 8:30:00 AM 8.58 47.444 0.094 6.71 11 11.06
10/30/2020 8:45:00 AM 8.57 47.426 0.094 6.71 10.65 11.07
10/30/2020 9:00:00 AM 8.57 47.426 0.094 6.7 10.81 11.08
10/30/2020 9:15:00 AM 8.56 47.408 0.094 6.71 10.67 11.09
10/30/2020 9:30:00 AM 8.56 47.408 0.094 6.71 10.45 11.1
10/30/2020 9:45:00 AM 8.56 47.408 0.094 6.71 10.63 11.11
10/30/2020 10:00:00 AM 8.56 47.408 0.095 6.71 10.57 11.11
10/30/2020 10:15:00 AM 8.56 47.408 0.095 6.71 10.58 11.1
10/30/2020 10:30:00 AM 8.57 47.426 0.095 6.71 10.51 11.11
10/30/2020 10:45:00 AM 8.59 47.462 0.095 6.71 10.39 11.11
10/30/2020 11:00:00 AM 8.61 47.498 0.095 6.71 10.41 11.13
10/30/2020 11:15:00 AM 8.64 47.552 0.095 6.72 10.32 11.13
10/30/2020 11:30:00 AM 8.66 47.588 0.095 6.72 10.34 11.14
10/30/2020 11:45:00 AM 8.67 47.606 0.095 6.72 10.52 11.13
10/30/2020 12:00:00 PM 8.68 47.624 0.095 6.72 10.3 11.13
10/30/2020 12:15:00 PM 8.72 47.696 0.095 6.73 10.46 11.13
10/30/2020 12:30:00 PM 8.73 47.714 0.095 6.72 10.28 11.13
10/30/2020 12:45:00 PM 8.73 47.714 0.095 6.72 10.25 11.11
10/30/2020 1:00:00 PM 8.76 47.768 0.095 6.72 10.23 11.12
10/30/2020 1:15:00 PM 8.78 47.804 0.095 6.72 10 11.12
10/30/2020 1:30:00 PM 8.78 47.804 0.095 6.72 10.01 11.11
10/30/2020 1:45:00 PM 8.8 47.84 0.095 6.72 10.03 11.11
10/30/2020 2:00:00 PM 8.84 47.912 0.095 6.73 9.82 11.11
10/30/2020 2:15:00 PM 8.89 48.002 0.095 6.74 9.82 11.11
10/30/2020 2:30:00 PM 8.91 48.038 0.095 6.73 9.98 11.09
10/30/2020 2:45:00 PM 8.92 48.056 0.095 6.73 9.66 11.1
10/30/2020 3:00:00 PM 8.92 48.056 0.095 6.73 9.7 11.08
10/30/2020 3:15:00 PM 8.95 48.11 0.095 6.74 9.62 11.08
10/30/2020 3:30:00 PM 8.96 48.128 0.095 6.73 9.66 11.08
10/30/2020 3:45:00 PM 8.97 48.146 0.095 6.73 9.38 11.09
10/30/2020 4:00:00 PM 8.97 48.146 0.095 6.74 9.49 11.09
10/30/2020 4:15:00 PM 8.97 48.146 0.095 6.73 9.44 11.07
10/30/2020 4:30:00 PM 8.96 48.128 0.095 6.73 9.34 11.07
10/30/2020 4:45:00 PM 8.95 48.11 0.095 6.73 9.31 11.07
10/30/2020 5:00:00 PM 8.93 48.074 0.095 6.73 9.37 11.06
10/30/2020 5:15:00 PM 8.92 48.056 0.095 6.73 9.29 11.07
10/30/2020 5:30:00 PM 8.9 48.02 0.095 6.72 9.48 11.07
10/30/2020 5:45:00 PM 8.88 47.984 0.095 6.72 9.27 11.07
10/30/2020 6:00:00 PM 8.85 47.93 0.095 6.72 9.39 11.06
10/30/2020 6:15:00 PM 8.82 47.876 0.095 6.71 9.41 11.05
10/30/2020 6:30:00 PM 8.79 47.822 0.095 6.71 9.7 11.05
10/30/2020 6:45:00 PM 8.76 47.768 0.095 6.71 9.3 11.06
10/30/2020 7:00:00 PM 8.72 47.696 0.095 6.7 9.26 11.08
10/30/2020 7:15:00 PM 8.69 47.642 0.095 6.7 9.18 11.08
10/30/2020 7:30:00 PM 8.66 47.588 0.095 6.71 9.26 11.1
10/30/2020 7:45:00 PM 8.61 47.498 0.095 6.71 9.7 11.1
10/30/2020 8:00:00 PM 8.55 47.39 0.095 6.71 9.15 11.12
10/30/2020 8:15:00 PM 8.49 47.282 0.095 6.7 9.2 11.14
10/30/2020 8:30:00 PM 8.45 47.21 0.095 6.7 9.15 11.15
10/30/2020 8:45:00 PM 8.41 47.138 0.095 6.7 9.2 11.16
10/30/2020 9:00:00 PM 8.37 47.066 0.095 6.71 9.09 11.18
10/30/2020 9:15:00 PM 8.34 47.012 0.095 6.71 9.14 11.19
10/30/2020 9:30:00 PM 8.31 46.958 0.095 6.71 9.07 11.2
10/30/2020 9:45:00 PM 8.28 46.904 0.095 6.71 9.26 11.21
10/30/2020 10:00:00 PM 8.25 46.85 0.095 6.71 9.17 11.23
10/30/2020 10:15:00 PM 8.22 46.796 0.095 6.71 9.15 11.24
10/30/2020 10:30:00 PM 8.19 46.742 0.095 6.71 9.16 11.25
10/30/2020 10:45:00 PM 8.17 46.706 0.095 6.72 9.06 11.26
10/30/2020 11:00:00 PM 8.14 46.652 0.095 6.71 9.07 11.27
10/30/2020 11:15:00 PM 8.12 46.616 0.095 6.71 9.1 11.27
10/30/2020 11:30:00 PM 8.1 46.58 0.095 6.71 9.02 11.28
10/30/2020 11:45:00 PM 8.08 46.544 0.095 6.72 9.16 11.28
10/31/2020 12:00:00 AM 8.06 46.508 0.095 6.71 9.11 11.3
10/31/2020 12:15:00 AM 8.04 46.472 0.095 6.71 9.02 11.31
10/31/2020 12:30:00 AM 8.02 46.436 0.095 6.71 9.07 11.31
10/31/2020 12:45:00 AM 8 46.4 0.095 6.71 9.05 11.31
10/31/2020 1:00:00 AM 7.98 46.364 0.095 6.72 8.94 11.32
10/31/2020 1:15:00 AM 7.95 46.31 0.095 6.71 8.88 11.33
10/31/2020 1:30:00 AM 7.93 46.274 0.095 6.71 8.87 11.34
10/31/2020 1:45:00 AM 7.91 46.238 0.095 6.72 9.03 11.34
10/31/2020 2:00:00 AM 7.89 46.202 0.095 6.7 8.92 11.35
10/31/2020 2:15:00 AM 7.87 46.166 0.095 6.71 8.93 11.35
10/31/2020 2:30:00 AM 7.85 46.13 0.095 6.71 8.9 11.36
10/31/2020 2:45:00 AM 7.82 46.076 0.095 6.71 8.88 11.37
10/31/2020 3:00:00 AM 7.8 46.04 0.095 6.72 8.88 11.37
10/31/2020 3:15:00 AM 7.78 46.004 0.095 6.72 8.95 11.37
10/31/2020 3:30:00 AM 7.75 45.95 0.095 6.72 8.83 11.38
10/31/2020 3:45:00 AM 7.72 45.896 0.095 6.72 8.82 11.38
10/31/2020 4:00:00 AM 7.7 45.86 0.095 6.72 9.2 11.4
10/31/2020 4:15:00 AM 7.68 45.824 0.095 6.72 8.81 11.41
10/31/2020 4:30:00 AM 7.66 45.788 0.095 6.72 8.9 11.41
10/31/2020 4:45:00 AM 7.64 45.752 0.095 6.73 8.83 11.42
10/31/2020 5:00:00 AM 7.62 45.716 0.095 6.73 8.82 11.41
10/31/2020 5:15:00 AM 7.58 45.644 0.095 6.72 8.81 11.43
10/31/2020 5:30:00 AM 7.54 45.572 0.096 6.73 9.04 11.43
10/31/2020 5:45:00 AM 7.5 45.5 0.096 6.73 9.65 11.44
10/31/2020 6:00:00 AM 7.47 45.446 0.096 6.73 9 11.46
10/31/2020 6:15:00 AM 7.41 45.338 0.096 6.73 9.03 11.48
10/31/2020 6:30:00 AM 7.36 45.248 0.096 6.73 8.98 11.48
10/31/2020 6:45:00 AM 7.31 45.158 0.096 6.73 9.06 11.5
10/31/2020 7:00:00 AM 7.27 45.086 0.096 6.73 8.97 11.5
10/31/2020 7:15:00 AM 7.24 45.032 0.096 6.73 9.05 11.53
10/31/2020 7:30:00 AM 7.21 44.978 0.096 6.73 8.99 11.53
10/31/2020 7:45:00 AM 7.18 44.924 0.096 6.73 9.03 11.55
10/31/2020 8:00:00 AM 7.16 44.888 0.096 6.74 8.9 11.56
10/31/2020 8:15:00 AM 7.14 44.852 0.096 6.74 8.92 11.58
10/31/2020 8:30:00 AM 7.13 44.834 0.096 6.75 8.91 11.61
10/31/2020 8:45:00 AM 7.13 44.834 0.096 6.76 8.9 11.63
10/31/2020 9:00:00 AM 7.14 44.852 0.096 6.76 8.88 11.65
10/31/2020 9:15:00 AM 7.16 44.888 0.096 6.77 8.85 11.66
10/31/2020 9:30:00 AM 7.13 44.834 0.096 6.77 8.95 11.67
10/31/2020 9:45:00 AM 7.16 44.888 0.096 6.78 8.91 11.68
10/31/2020 10:00:00 AM 7.21 44.978 0.096 6.78 8.88 11.7
10/31/2020 10:15:00 AM 7.24 45.032 0.096 6.79 8.84 11.7
10/31/2020 10:30:00 AM 7.26 45.068 0.096 6.79 8.85 11.7
10/31/2020 10:45:00 AM 7.28 45.104 0.096 6.8 8.85 11.7
10/31/2020 11:00:00 AM 7.35 45.23 0.096 6.81 8.82 11.68
10/31/2020 11:15:00 AM 7.41 45.338 0.096 6.81 8.87 11.69
10/31/2020 11:30:00 AM 7.49 45.482 0.096 6.82 8.85 11.67
10/31/2020 11:45:00 AM 7.51 45.518 0.096 6.81 8.82 11.67
10/31/2020 12:00:00 PM 7.56 45.608 0.096 6.81 8.8 11.65
10/31/2020 12:15:00 PM 7.61 45.698 0.096 6.82 8.8 11.63
10/31/2020 12:30:00 PM 7.67 45.806 0.096 6.82 8.83 11.61
10/31/2020 12:45:00 PM 7.75 45.95 0.096 6.82 8.82 11.6
10/31/2020 1:00:00 PM 7.82 46.076 0.096 6.82 8.74 11.57
10/31/2020 1:15:00 PM 7.85 46.13 0.096 6.82 8.79 11.57
10/31/2020 1:30:00 PM 7.9 46.22 0.096 6.82 8.78 11.54
10/31/2020 1:45:00 PM 7.98 46.364 0.096 6.83 8.78 11.53
10/31/2020 2:00:00 PM 8.04 46.472 0.096 6.83 8.78 11.51
10/31/2020 2:15:00 PM 8.08 46.544 0.096 6.83 8.75 11.5
10/31/2020 2:30:00 PM 8.2 46.76 0.096 6.85 8.75 11.48
10/31/2020 2:45:00 PM 8.24 46.832 0.096 6.84 8.74 11.46
10/31/2020 3:00:00 PM 8.21 46.778 0.096 6.82 8.75 11.45
10/31/2020 3:15:00 PM 8.24 46.832 0.096 6.83 8.77 11.42
10/31/2020 3:30:00 PM 8.19 46.742 0.096 6.81 8.73 11.42
10/31/2020 3:45:00 PM 8.12 46.616 0.096 6.81 8.81 11.39
10/31/2020 4:00:00 PM 8.06 46.508 0.096 6.79 8.74 11.36
10/31/2020 4:15:00 PM 8.02 46.436 0.096 6.79 8.79 11.35
10/31/2020 4:30:00 PM 7.98 46.364 0.096 6.79 8.75 11.34
10/31/2020 4:45:00 PM 7.95 46.31 0.096 6.78 8.74 11.33
10/31/2020 5:00:00 PM 7.92 46.256 0.096 6.79 8.76 11.34
10/31/2020 5:15:00 PM 7.89 46.202 0.096 6.79 8.75 11.34
10/31/2020 5:30:00 PM 7.86 46.148 0.096 6.78 8.83 11.32
10/31/2020 5:45:00 PM 7.82 46.076 0.096 6.78 8.76 11.32
10/31/2020 6:00:00 PM 7.78 46.004 0.096 6.78 8.77 11.32
10/31/2020 6:15:00 PM 7.72 45.896 0.096 6.77 8.77 11.32
10/31/2020 6:30:00 PM 7.66 45.788 0.096 6.77 8.76 11.32
10/31/2020 6:45:00 PM 7.6 45.68 0.096 6.77 8.8 11.33
10/31/2020 7:00:00 PM 7.53 45.554 0.096 6.76 8.78 11.34
10/31/2020 7:15:00 PM 7.48 45.464 0.096 6.76 8.75 11.33
10/31/2020 7:30:00 PM 7.43 45.374 0.097 6.76 8.77 11.35
10/31/2020 7:45:00 PM 7.37 45.266 0.097 6.75 8.76 11.37
10/31/2020 8:00:00 PM 7.31 45.158 0.097 6.75 8.79 11.37
10/31/2020 8:15:00 PM 7.25 45.05 0.097 6.75 8.82 11.38
10/31/2020 8:30:00 PM 7.2 44.96 0.097 6.75 8.78 11.39
10/31/2020 8:45:00 PM 7.14 44.852 0.097 6.74 8.81 11.42
10/31/2020 9:00:00 PM 7.08 44.744 0.097 6.74 8.83 11.43
10/31/2020 9:15:00 PM 7.01 44.618 0.097 6.75 8.82 11.44
10/31/2020 9:30:00 PM 6.95 44.51 0.097 6.75 8.83 11.46
10/31/2020 9:45:00 PM 6.89 44.402 0.097 6.75 8.79 11.48
10/31/2020 10:00:00 PM 6.84 44.312 0.097 6.75 8.81 11.48
10/31/2020 10:15:00 PM 6.78 44.204 0.097 6.74 8.8 11.51
10/31/2020 10:30:00 PM 6.72 44.096 0.097 6.75 8.82 11.51
10/31/2020 10:45:00 PM 6.67 44.006 0.097 6.74 8.82 11.53
10/31/2020 11:00:00 PM 6.62 43.916 0.097 6.75 8.8 11.55
10/31/2020 11:15:00 PM 6.57 43.826 0.097 6.75 8.82 11.56
10/31/2020 11:30:00 PM 6.54 43.772 0.097 6.75 8.81 11.58
10/31/2020 11:45:00 PM 6.5 43.7 0.097 6.76 8.73 11.58
11/1/2020 12:00:00 AM 6.46 43.628 0.097 6.75 8.83 11.59
11/1/2020 12:15:00 AM 6.42 43.556 0.097 6.76 8.8 11.6
11/1/2020 12:30:00 AM 6.37 43.466 0.097 6.76 8.77 11.62
11/1/2020 12:45:00 AM 6.32 43.376 0.097 6.76 8.78 11.63
11/1/2020 1:00:00 AM 6.27 43.286 0.097 6.76 8.84 11.64
11/1/2020 1:15:00 AM 6.22 43.196 0.097 6.76 9.02 11.66
11/1/2020 1:30:00 AM 6.2 43.16 0.097 6.76 8.77 11.67
11/1/2020 1:45:00 AM 6.17 43.106 0.097 6.76 8.78 11.67
11/1/2020 2:00:00 AM 6.15 43.07 0.097 6.76 8.75 11.69
11/1/2020 2:15:00 AM 6.13 43.034 0.097 6.76 8.87 11.69
11/1/2020 2:30:00 AM 6.1 42.98 0.097 6.76 8.73 11.7
11/1/2020 2:45:00 AM 6.08 42.944 0.097 6.77 9.02 11.7
11/1/2020 3:00:00 AM 6.04 42.872 0.097 6.76 8.76 11.71
11/1/2020 3:15:00 AM 6.02 42.836 0.097 6.77 8.8 11.71
11/1/2020 3:30:00 AM 6 42.8 0.097 6.77 8.8 11.71
11/1/2020 3:45:00 AM 5.98 42.764 0.097 6.77 8.79 11.72
11/1/2020 4:00:00 AM 5.96 42.728 0.097 6.77 8.74 11.72
11/1/2020 4:15:00 AM 5.82 42.476 0.097 6.75 8.74 11.74
11/1/2020 4:30:00 AM 5.8 42.44 0.097 6.76 8.73 11.74
11/1/2020 4:45:00 AM 5.78 42.404 0.097 6.76 8.74 11.74
11/1/2020 5:00:00 AM 5.74 42.332 0.097 6.76 8.73 11.76
11/1/2020 5:15:00 AM 5.73 42.314 0.097 6.77 8.73 11.75
11/1/2020 5:30:00 AM 5.7 42.26 0.097 6.76 8.8 11.78
11/1/2020 5:45:00 AM 5.7 42.26 0.097 6.77 8.69 11.75
11/1/2020 6:00:00 AM 5.66 42.188 0.097 6.77 8.75 11.79
11/1/2020 6:15:00 AM 5.66 42.188 0.097 6.77 8.68 11.76
11/1/2020 6:30:00 AM 5.64 42.152 0.097 6.77 8.69 11.77
11/1/2020 6:45:00 AM 5.63 42.134 0.097 6.76 8.73 11.76
11/1/2020 7:00:00 AM 5.65 42.17 0.097 6.77 8.7 11.76
11/1/2020 7:15:00 AM 5.67 42.206 0.097 6.77 8.69 11.77
11/1/2020 7:30:00 AM 5.7 42.26 0.097 6.78 8.66 11.78
11/1/2020 7:45:00 AM 5.73 42.314 0.097 6.78 8.7 11.77
11/1/2020 8:00:00 AM 5.77 42.386 0.097 6.79 8.71 11.79
11/1/2020 8:15:00 AM 5.83 42.494 0.097 6.79 8.72 11.78
11/1/2020 8:30:00 AM 5.89 42.602 0.097 6.8 8.69 11.77
11/1/2020 8:45:00 AM 5.94 42.692 0.097 6.8 8.69 11.76
11/1/2020 9:00:00 AM 6.01 42.818 0.097 6.81 8.77 11.74
11/1/2020 9:15:00 AM 6.08 42.944 0.097 6.82 8.63 11.74
11/1/2020 9:30:00 AM 6.12 43.016 0.097 6.81 8.67 11.74
11/1/2020 9:45:00 AM 6.18 43.124 0.097 6.82 8.66 11.72
11/1/2020 10:00:00 AM 6.25 43.25 0.097 6.83 8.7 11.72
11/1/2020 10:15:00 AM 6.31 43.358 0.097 6.83 8.71 11.69
11/1/2020 10:30:00 AM 6.37 43.466 0.097 6.83 8.68 11.68
11/1/2020 10:45:00 AM 6.42 43.556 0.097 6.83 8.66 11.65
11/1/2020 11:00:00 AM 6.48 43.664 0.097 6.83 8.63 11.65
11/1/2020 11:15:00 AM 6.56 43.808 0.097 6.84 8.62 11.64
11/1/2020 11:30:00 AM 6.63 43.934 0.097 6.85 8.65 11.63
11/1/2020 11:45:00 AM 6.67 44.006 0.097 6.83 8.66 11.59
11/1/2020 12:00:00 PM 6.72 44.096 0.097 6.84 8.82 11.56
11/1/2020 12:15:00 PM 6.83 44.294 0.097 6.85 8.74 11.55
11/1/2020 12:30:00 PM 6.92 44.456 0.097 6.85 8.68 11.52
11/1/2020 12:45:00 PM 6.94 44.492 0.096 6.82 8.87 11.46
11/1/2020 1:00:00 PM 6.97 44.546 0.095 6.83 9.16 11.44
11/1/2020 1:15:00 PM 7.03 44.654 0.096 6.85 8.99 11.47
11/1/2020 1:30:00 PM 7.15 44.87 0.096 6.85 8.76 11.48
11/1/2020 1:45:00 PM 7.28 45.104 0.096 6.86 8.72 11.46
11/1/2020 2:00:00 PM 7.25 45.05 0.096 6.82 8.72 11.38
11/1/2020 2:15:00 PM 7.17 44.906 0.096 6.81 8.72 11.37
11/1/2020 2:30:00 PM 7.13 44.834 0.096 6.82 8.74 11.42
11/1/2020 2:45:00 PM 7.19 44.942 0.096 6.84 8.71 11.42
11/1/2020 3:00:00 PM 7.31 45.158 0.096 6.85 8.65 11.4
11/1/2020 3:15:00 PM 7.31 45.158 0.096 6.83 8.7 11.42
11/1/2020 3:30:00 PM 7.3 45.14 0.096 6.83 8.8 11.41
11/1/2020 3:45:00 PM 7.32 45.176 0.096 6.83 8.7 11.38
11/1/2020 4:00:00 PM 7.31 45.158 0.096 6.82 8.71 11.38
11/1/2020 4:15:00 PM 7.28 45.104 0.096 6.82 8.64 11.36
11/1/2020 4:30:00 PM 7.23 45.014 0.095 6.81 8.72 11.35
11/1/2020 4:45:00 PM 7.16 44.888 0.096 6.8 8.73 11.34
11/1/2020 5:00:00 PM 7.09 44.762 0.096 6.8 8.67 11.32
11/1/2020 5:15:00 PM 7.03 44.654 0.096 6.8 8.78 11.32
11/1/2020 5:30:00 PM 6.99 44.582 0.096 6.8 8.73 11.31
11/1/2020 5:45:00 PM 6.95 44.51 0.096 6.8 8.8 11.32
11/1/2020 6:00:00 PM 6.9 44.42 0.096 6.78 8.78 11.33
11/1/2020 6:15:00 PM 6.84 44.312 0.096 6.78 8.95 11.32
11/1/2020 6:30:00 PM 6.77 44.186 0.096 6.78 9 11.35
11/1/2020 6:45:00 PM 6.72 44.096 0.096 6.78 9.03 11.36
11/1/2020 7:00:00 PM 6.68 44.024 0.096 6.78 9.6 11.37
11/1/2020 7:15:00 PM 6.61 43.898 0.096 6.78 9.13 11.42
11/1/2020 7:30:00 PM 6.58 43.844 0.096 6.79 9.19 11.43
11/1/2020 7:45:00 PM 6.53 43.754 0.096 6.79 9.13 11.45
11/1/2020 8:00:00 PM 6.4 43.52 0.096 6.78 9.04 11.46
11/1/2020 8:15:00 PM 6.37 43.466 0.096 6.77 9.05 11.44
11/1/2020 8:30:00 PM 6.33 43.394 0.096 6.78 9.03 11.51
11/1/2020 8:45:00 PM 6.29 43.322 0.096 6.78 8.92 11.52
11/1/2020 9:00:00 PM 6.26 43.268 0.096 6.78 8.91 11.54
11/1/2020 9:15:00 PM 6.24 43.232 0.096 6.79 8.95 11.55
11/1/2020 9:30:00 PM 6.22 43.196 0.096 6.79 8.95 11.56
11/1/2020 9:45:00 PM 6.19 43.142 0.096 6.79 8.93 11.57
11/1/2020 10:00:00 PM 6.17 43.106 0.096 6.8 8.89 11.6
11/1/2020 10:15:00 PM 6.14 43.052 0.096 6.79 8.9 11.58
11/1/2020 10:30:00 PM 6.11 42.998 0.096 6.79 8.89 11.62
11/1/2020 10:45:00 PM 6.1 42.98 0.096 6.79 8.84 11.6
11/1/2020 11:00:00 PM 6.07 42.926 0.096 6.79 8.89 11.63
11/1/2020 11:15:00 PM 6.04 42.872 0.096 6.78 8.84 11.63
11/1/2020 11:30:00 PM 6 42.8 0.096 6.79 8.9 11.64
11/1/2020 11:45:00 PM 5.96 42.728 0.096 6.78 8.85 11.65
11/2/2020 12:00:00 AM 5.93 42.674 0.096 6.79 8.85 11.65
11/2/2020 12:15:00 AM 5.88 42.584 0.096 6.78 8.94 11.68
11/2/2020 12:30:00 AM 5.86 42.548 0.096 6.78 8.9 11.67
11/2/2020 12:45:00 AM 5.83 42.494 0.096 6.79 8.85 11.69
11/2/2020 1:00:00 AM 5.82 42.476 0.096 6.78 8.79 11.69
11/2/2020 1:15:00 AM 5.8 42.44 0.096 6.78 8.84 11.69
11/2/2020 1:30:00 AM 5.78 42.404 0.096 6.79 8.86 11.7
11/2/2020 1:45:00 AM 5.74 42.332 0.096 6.78 8.84 11.71
11/2/2020 2:00:00 AM 5.67 42.206 0.096 6.78 8.88 11.72
11/2/2020 2:15:00 AM 5.66 42.188 0.097 6.78 8.86 11.73
11/2/2020 2:30:00 AM 5.65 42.17 0.097 6.78 8.85 11.74
11/2/2020 2:45:00 AM 5.63 42.134 0.097 6.78 8.82 11.74
11/2/2020 3:00:00 AM 5.62 42.116 0.097 6.78 8.9 11.76
11/2/2020 3:15:00 AM 5.59 42.062 0.097 6.79 8.83 11.76
11/2/2020 3:30:00 AM 5.59 42.062 0.097 6.78 8.79 11.76
11/2/2020 3:45:00 AM 5.57 42.026 0.097 6.79 8.8 11.77
11/2/2020 4:00:00 AM 5.54 41.972 0.097 6.79 8.81 11.8
11/2/2020 4:15:00 AM 5.51 41.918 0.097 6.78 8.77 11.79
11/2/2020 4:30:00 AM 5.48 41.864 0.097 6.78 8.8 11.81
11/2/2020 4:45:00 AM 5.48 41.864 0.097 6.78 8.81 11.8
11/2/2020 5:00:00 AM 5.44 41.792 0.097 6.78 8.78 11.82
11/2/2020 5:15:00 AM 5.4 41.72 0.097 6.78 8.8 11.83
11/2/2020 5:30:00 AM 5.38 41.684 0.097 6.78 8.8 11.84
11/2/2020 5:45:00 AM 5.36 41.648 0.097 6.79 8.8 11.86
11/2/2020 6:00:00 AM 5.33 41.594 0.097 6.78 8.77 11.87
11/2/2020 6:15:00 AM 5.32 41.576 0.097 6.78 8.77 11.85
11/2/2020 6:30:00 AM 5.3 41.54 0.097 6.78 8.98 11.89
11/2/2020 6:45:00 AM 5.29 41.522 0.097 6.78 8.83 11.9
11/2/2020 7:00:00 AM 5.22 41.396 0.097 6.78 8.82 11.89
11/2/2020 7:15:00 AM 5.18 41.324 0.097 6.78 8.81 11.9
11/2/2020 7:30:00 AM 5.18 41.324 0.097 6.79 8.84 11.97
11/2/2020 7:45:00 AM 5.21 41.378 0.097 6.79 8.8 11.97
11/2/2020 8:00:00 AM 5.18 41.324 0.097 6.8 8.79 12.01
11/2/2020 8:15:00 AM 5.18 41.324 0.097 6.81 8.76 12.04
11/2/2020 8:30:00 AM 5.2 41.36 0.097 6.81 8.77 12.05
11/2/2020 8:45:00 AM 5.22 41.396 0.097 6.82 8.77 12.08
11/2/2020 9:00:00 AM 5.25 41.45 0.097 6.83 8.78 12.1
11/2/2020 9:15:00 AM 5.28 41.504 0.097 6.82 8.75 12.1
11/2/2020 9:30:00 AM 5.3 41.54 0.097 6.83 8.77 12.12
11/2/2020 9:45:00 AM 5.33 41.594 0.097 6.84 8.76 12.12
11/2/2020 10:00:00 AM 5.35 41.63 0.097 6.84 8.76 12.12
11/2/2020 10:15:00 AM 5.42 41.756 0.097 6.85 8.77 12.11
11/2/2020 10:30:00 AM 5.51 41.918 0.097 6.86 8.71 12.12
11/2/2020 10:45:00 AM 5.65 42.17 0.097 6.87 8.71 12.11
11/2/2020 11:00:00 AM 5.81 42.458 0.097 6.87 8.72 12.08
11/2/2020 11:15:00 AM 5.94 42.692 0.097 6.88 8.72 12.07
11/2/2020 11:30:00 AM 6.05 42.89 0.097 6.86 8.72 12
11/2/2020 11:45:00 AM 5.92 42.656 0.097 6.83 8.76 12.01
11/2/2020 12:00:00 PM 5.86 42.548 0.097 6.84 8.75 12.02
11/2/2020 12:15:00 PM 5.83 42.494 0.097 6.83 8.7 11.99
11/2/2020 12:30:00 PM 5.89 42.602 0.097 6.84 8.72 11.98
11/2/2020 12:45:00 PM 6.01 42.818 0.097 6.85 8.7 11.93
11/2/2020 1:00:00 PM 5.99 42.782 0.097 6.84 8.71 11.92
11/2/2020 1:15:00 PM 6.03 42.854 0.097 6.84 8.69 11.89
11/2/2020 1:30:00 PM 6.06 42.908 0.098 6.84 8.68 11.87
11/2/2020 1:45:00 PM 6.09 42.962 0.098 6.84 8.7 11.87
11/2/2020 2:00:00 PM 6.08 42.944 0.098 6.84 8.7 11.88
11/2/2020 2:15:00 PM 6.07 42.926 0.098 6.83 8.67 11.88
11/2/2020 2:30:00 PM 6.08 42.944 0.098 6.83 8.67 11.9
11/2/2020 2:45:00 PM 6.08 42.944 0.098 6.83 8.69 11.89
11/2/2020 3:00:00 PM 6.06 42.908 0.098 6.82 8.74 11.89
11/2/2020 3:15:00 PM 6.05 42.89 0.098 6.82 8.71 11.86
11/2/2020 3:30:00 PM 6.05 42.89 0.098 6.82 8.7 11.85
11/2/2020 3:45:00 PM 6.05 42.89 0.098 6.82 8.7 11.88
11/2/2020 4:00:00 PM 6.02 42.836 0.098 6.82 8.69 11.84
11/2/2020 4:15:00 PM 5.99 42.782 0.098 6.82 8.73 11.86
11/2/2020 4:30:00 PM 5.97 42.746 0.098 6.82 8.74 11.81
11/2/2020 4:45:00 PM 5.95 42.71 0.098 6.81 8.72 11.83
11/2/2020 5:00:00 PM 5.92 42.656 0.098 6.8 8.79 11.79
11/2/2020 5:15:00 PM 5.88 42.584 0.098 6.8 8.7 11.77
11/2/2020 5:30:00 PM 5.85 42.53 0.098 6.79 8.7 11.75
11/2/2020 5:45:00 PM 5.81 42.458 0.098 6.78 8.71 11.74
11/2/2020 6:00:00 PM 5.79 42.422 0.098 6.78 8.74 11.74
11/2/2020 6:15:00 PM 5.78 42.404 0.098 6.78 8.72 11.72
11/2/2020 6:30:00 PM 5.76 42.368 0.098 6.78 8.72 11.73
11/2/2020 6:45:00 PM 5.75 42.35 0.098 6.78 8.73 11.74
11/2/2020 7:00:00 PM 5.74 42.332 0.098 6.78 8.73 11.73
11/2/2020 7:15:00 PM 5.73 42.314 0.098 6.77 8.73 11.73
11/2/2020 7:30:00 PM 5.69 42.242 0.098 6.78 8.71 11.75
11/2/2020 7:45:00 PM 5.67 42.206 0.098 6.77 8.76 11.74
11/2/2020 8:00:00 PM 5.67 42.206 0.098 6.78 8.7 11.74
11/2/2020 8:15:00 PM 5.65 42.17 0.098 6.77 8.73 11.75
11/2/2020 8:30:00 PM 5.6 42.08 0.098 6.77 8.72 11.75
11/2/2020 8:45:00 PM 5.56 42.008 0.098 6.77 8.73 11.75
11/2/2020 9:00:00 PM 5.52 41.936 0.098 6.77 8.72 11.75
11/2/2020 9:15:00 PM 5.48 41.864 0.098 6.76 8.74 11.75
11/2/2020 9:30:00 PM 5.42 41.756 0.098 6.76 8.72 11.78
11/2/2020 9:45:00 PM 5.41 41.738 0.098 6.77 8.8 11.78
11/2/2020 10:00:00 PM 5.38 41.684 0.098 6.76 8.7 11.79
11/2/2020 10:15:00 PM 5.38 41.684 0.098 6.77 8.71 11.8
11/2/2020 10:30:00 PM 5.37 41.666 0.098 6.77 8.73 11.79
11/2/2020 10:45:00 PM 5.36 41.648 0.098 6.76 8.71 11.81
11/2/2020 11:00:00 PM 5.35 41.63 0.098 6.77 8.77 11.8
11/2/2020 11:15:00 PM 5.33 41.594 0.098 6.77 8.69 11.82
11/2/2020 11:30:00 PM 5.32 41.576 0.098 6.77 8.71 11.81
11/2/2020 11:45:00 PM 5.32 41.576 0.098 6.77 8.75 11.82
11/3/2020 12:00:00 AM 5.32 41.576 0.098 6.77 8.79 11.81
11/3/2020 12:15:00 AM 5.28 41.504 0.098 6.77 8.71 11.82
11/3/2020 12:30:00 AM 5.24 41.432 0.098 6.77 8.72 11.83
11/3/2020 12:45:00 AM 5.22 41.396 0.098 6.77 8.7 11.83
11/3/2020 1:00:00 AM 5.2 41.36 0.098 6.77 8.77 11.84
11/3/2020 1:15:00 AM 5.17 41.306 0.098 6.77 8.7 11.85
11/3/2020 1:30:00 AM 5.14 41.252 0.098 6.76 8.73 11.85
11/3/2020 1:45:00 AM 5.11 41.198 0.098 6.76 8.71 11.87
11/3/2020 2:00:00 AM 5.09 41.162 0.098 6.76 8.69 11.87
11/3/2020 2:15:00 AM 5.07 41.126 0.098 6.76 8.69 11.88
11/3/2020 2:30:00 AM 5.05 41.09 0.098 6.76 8.73 11.89
11/3/2020 2:45:00 AM 5.02 41.036 0.098 6.76 8.71 11.9
11/3/2020 3:00:00 AM 5 41 0.098 6.76 8.73 11.91
11/3/2020 3:15:00 AM 4.98 40.964 0.098 6.76 8.69 11.91
11/3/2020 3:30:00 AM 4.95 40.91 0.098 6.76 8.75 11.93
11/3/2020 3:45:00 AM 4.94 40.892 0.098 6.76 8.7 11.92
11/3/2020 4:00:00 AM 4.91 40.838 0.098 6.76 8.71 11.94
11/3/2020 4:15:00 AM 4.89 40.802 0.098 6.76 8.72 11.94
11/3/2020 4:30:00 AM 4.88 40.784 0.098 6.76 8.71 11.92
11/3/2020 4:45:00 AM 4.84 40.712 0.099 6.75 8.76 11.94
11/3/2020 5:00:00 AM 4.81 40.658 0.098 6.76 8.74 11.95
11/3/2020 5:15:00 AM 4.79 40.622 0.099 6.75 8.73 11.95
11/3/2020 5:30:00 AM 4.76 40.568 0.099 6.76 8.72 11.96
11/3/2020 5:45:00 AM 4.73 40.514 0.099 6.75 8.75 11.99
11/3/2020 6:00:00 AM 4.7 40.46 0.099 6.76 8.7 12.01
11/3/2020 6:15:00 AM 4.68 40.424 0.099 6.76 8.71 12
11/3/2020 6:30:00 AM 4.65 40.37 0.099 6.76 8.71 12.04
11/3/2020 6:45:00 AM 4.64 40.352 0.099 6.77 8.7 12.06
11/3/2020 7:00:00 AM 4.62 40.316 0.099 6.76 8.7 12.06
11/3/2020 7:15:00 AM 4.62 40.316 0.099 6.77 8.74 12.09
11/3/2020 7:30:00 AM 4.62 40.316 0.099 6.77 8.75 12.1
11/3/2020 7:45:00 AM 4.63 40.334 0.099 6.78 8.71 12.12
11/3/2020 8:00:00 AM 4.64 40.352 0.099 6.79 8.75 12.15
11/3/2020 8:15:00 AM 4.66 40.388 0.099 6.79 8.74 12.17
11/3/2020 8:30:00 AM 4.69 40.442 0.099 6.8 8.71 12.2
11/3/2020 8:45:00 AM 4.76 40.568 0.099 6.81 8.71 12.2
11/3/2020 9:00:00 AM 4.84 40.712 0.098 6.82 8.74 12.21
11/3/2020 9:15:00 AM 4.96 40.928 0.098 6.84 8.7 12.21
11/3/2020 9:30:00 AM 5.08 41.144 0.098 6.84 8.69 12.19
11/3/2020 9:45:00 AM 5.22 41.396 0.098 6.85 8.71 12.18
11/3/2020 10:00:00 AM 5.36 41.648 0.098 6.85 8.66 12.14
11/3/2020 10:15:00 AM 5.51 41.918 0.098 6.86 8.69 12.13
11/3/2020 10:30:00 AM 5.67 42.206 0.098 6.86 8.69 12.13
11/3/2020 10:45:00 AM 5.77 42.386 0.098 6.85 8.67 12.1
11/3/2020 11:00:00 AM 5.95 42.71 0.098 6.86 8.64 12.07
11/3/2020 11:15:00 AM 6.08 42.944 0.098 6.87 8.61 12.07
11/3/2020 11:30:00 AM 6.22 43.196 0.098 6.85 8.66 11.99
11/3/2020 11:45:00 AM 6.3 43.34 0.098 6.84 8.6 11.95
11/3/2020 12:00:00 PM 6.37 43.466 0.098 6.84 8.64 11.93
11/3/2020 12:15:00 PM 6.47 43.646 0.098 6.84 8.59 11.91
11/3/2020 12:30:00 PM 6.55 43.79 0.098 6.84 8.65 11.87
11/3/2020 12:45:00 PM 6.51 43.718 0.098 6.82 8.65 11.84
11/3/2020 1:00:00 PM 6.55 43.79 0.098 6.83 8.7 11.84
11/3/2020 1:15:00 PM 6.74 44.132 0.098 6.85 8.65 11.82
11/3/2020 1:30:00 PM 6.83 44.294 0.098 6.84 8.62 11.76
11/3/2020 1:45:00 PM 6.85 44.33 0.098 6.83 8.64 11.73
11/3/2020 2:00:00 PM 6.89 44.402 0.098 6.83 8.62 11.73
11/3/2020 2:15:00 PM 6.95 44.51 0.098 6.83 8.63 11.67
11/3/2020 2:30:00 PM 6.9 44.42 0.098 6.8 8.64 11.62
11/3/2020 2:45:00 PM 6.82 44.276 0.098 6.8 8.63 11.64
11/3/2020 3:00:00 PM 6.84 44.312 0.098 6.8 8.65 11.6
11/3/2020 3:15:00 PM 6.88 44.384 0.098 6.82 8.67 11.62
11/3/2020 3:30:00 PM 6.83 44.294 0.098 6.79 8.62 11.57
11/3/2020 3:45:00 PM 6.79 44.222 0.098 6.79 8.64 11.59
11/3/2020 4:00:00 PM 6.83 44.294 0.098 6.8 8.66 11.54
11/3/2020 4:15:00 PM 6.81 44.258 0.098 6.79 8.67 11.55
11/3/2020 4:30:00 PM 6.77 44.186 0.098 6.79 8.69 11.52
11/3/2020 4:45:00 PM 6.74 44.132 0.098 6.78 8.67 11.51
11/3/2020 5:00:00 PM 6.71 44.078 0.098 6.77 8.62 11.47
11/3/2020 5:15:00 PM 6.71 44.078 0.098 6.76 8.66 11.48
11/3/2020 5:30:00 PM 6.67 44.006 0.098 6.73 8.71 11.35
11/3/2020 5:45:00 PM 6.64 43.952 0.098 6.75 8.7 11.46
11/3/2020 6:00:00 PM 6.6 43.88 0.098 6.75 8.7 11.48
11/3/2020 6:15:00 PM 6.56 43.808 0.098 6.74 8.69 11.49
11/3/2020 6:30:00 PM 6.51 43.718 0.098 6.75 8.7 11.51
11/3/2020 6:45:00 PM 6.48 43.664 0.098 6.75 8.7 11.51
11/3/2020 7:00:00 PM 6.43 43.574 0.098 6.74 8.79 11.48
11/3/2020 7:15:00 PM 6.39 43.502 0.098 6.75 8.71 11.54
11/3/2020 7:30:00 PM 6.34 43.412 0.098 6.73 8.74 11.53
11/3/2020 7:45:00 PM 6.31 43.358 0.098 6.75 8.75 11.56
11/3/2020 8:00:00 PM 6.25 43.25 0.099 6.75 8.77 11.54
11/3/2020 8:15:00 PM 6.21 43.178 0.098 6.74 8.72 11.59
11/3/2020 8:30:00 PM 6.17 43.106 0.098 6.75 8.73 11.59
11/3/2020 8:45:00 PM 6.14 43.052 0.098 6.75 8.96 11.61
11/3/2020 9:00:00 PM 6.09 42.962 0.099 6.75 8.77 11.61
11/3/2020 9:15:00 PM 6.04 42.872 0.098 6.74 8.76 11.62
11/3/2020 9:30:00 PM 6 42.8 0.098 6.75 8.79 11.65
11/3/2020 9:45:00 PM 5.95 42.71 0.099 6.75 8.76 11.66
11/3/2020 10:00:00 PM 5.9 42.62 0.098 6.75 8.24 11.67
11/3/2020 10:15:00 PM 5.86 42.548 0.098 6.75 7.84 11.7
11/3/2020 10:30:00 PM 5.81 42.458 0.099 6.74 7.84 11.63
11/3/2020 10:45:00 PM 5.75 42.35 0.098 6.75 7.82 11.74
11/3/2020 11:00:00 PM 5.7 42.26 0.099 6.75 7.81 11.75
11/3/2020 11:15:00 PM 5.66 42.188 0.099 6.75 7.86 11.75
11/3/2020 11:30:00 PM 5.61 42.098 0.098 6.74 7.79 11.78
11/3/2020 11:45:00 PM 5.56 42.008 0.099 6.75 7.82 11.79
11/4/2020 12:00:00 AM 5.52 41.936 0.099 6.75 7.82 11.81
11/4/2020 12:15:00 AM 5.48 41.864 0.099 6.74 7.81 11.82
11/4/2020 12:30:00 AM 5.42 41.756 0.099 6.74 7.83 11.84
11/4/2020 12:45:00 AM 5.37 41.666 0.099 6.75 7.85 11.87
11/4/2020 1:00:00 AM 5.33 41.594 0.099 6.75 7.81 11.89
11/4/2020 1:15:00 AM 5.29 41.522 0.099 6.75 7.81 11.9
11/4/2020 1:30:00 AM 5.25 41.45 0.099 6.75 7.8 11.94
11/4/2020 1:45:00 AM 5.21 41.378 0.099 6.74 7.83 11.93
11/4/2020 2:00:00 AM 5.17 41.306 0.099 6.75 7.81 11.96
11/4/2020 2:15:00 AM 5.13 41.234 0.099 6.75 7.81 11.98
11/4/2020 2:30:00 AM 5.1 41.18 0.099 6.75 7.84 11.99
11/4/2020 2:45:00 AM 5.06 41.108 0.099 6.75 7.84 12.01
11/4/2020 3:00:00 AM 5.04 41.072 0.099 6.75 7.8 11.99
11/4/2020 3:15:00 AM 5 41 0.099 6.74 7.82 12
11/4/2020 3:30:00 AM 4.96 40.928 0.099 6.75 7.84 12.05
11/4/2020 3:45:00 AM 4.93 40.874 0.099 6.74 7.87 12.07
11/4/2020 4:00:00 AM 4.89 40.802 0.099 6.75 7.79 12.1
11/4/2020 4:15:00 AM 4.86 40.748 0.099 6.75 7.81 12.09
11/4/2020 4:30:00 AM 4.84 40.712 0.099 6.75 7.8 12.1
11/4/2020 4:45:00 AM 4.81 40.658 0.099 6.75 7.79 12.11
11/4/2020 5:00:00 AM 4.76 40.568 0.099 6.75 7.89 12.14
11/4/2020 5:15:00 AM 4.74 40.532 0.099 6.75 7.79 12.12
11/4/2020 5:30:00 AM 4.72 40.496 0.099 6.75 7.8 12.12
11/4/2020 5:45:00 AM 4.68 40.424 0.099 6.74 7.77 12.15
11/4/2020 6:00:00 AM 4.64 40.352 0.099 6.75 7.81 12.2
11/4/2020 6:15:00 AM 4.62 40.316 0.099 6.75 7.81 12.18
11/4/2020 6:30:00 AM 4.58 40.244 0.099 6.75 7.8 12.2
11/4/2020 6:45:00 AM 4.54 40.172 0.099 6.75 7.79 12.21
11/4/2020 7:00:00 AM 4.53 40.154 0.099 6.75 7.83 12.21
11/4/2020 7:15:00 AM 4.52 40.136 0.099 6.75 7.95 12.23
11/4/2020 7:30:00 AM 4.51 40.118 0.099 6.76 7.83 12.26
11/4/2020 7:45:00 AM 4.5 40.1 0.099 6.76 7.77 12.3
11/4/2020 8:00:00 AM 4.48 40.064 0.099 6.77 7.77 12.34
11/4/2020 8:15:00 AM 4.48 40.064 0.099 6.78 7.83 12.39
11/4/2020 8:30:00 AM 4.51 40.118 0.099 6.78 7.79 12.37
11/4/2020 8:45:00 AM 4.56 40.208 0.099 6.79 7.8 12.38
11/4/2020 9:00:00 AM 4.63 40.334 0.099 6.8 7.81 12.41
11/4/2020 9:15:00 AM 4.73 40.514 0.099 6.81 7.79 12.4
11/4/2020 9:30:00 AM 4.83 40.694 0.098 6.82 7.81 12.39
11/4/2020 9:45:00 AM 4.96 40.928 0.098 6.83 7.75 12.42
11/4/2020 10:00:00 AM 5.11 41.198 0.098 6.83 7.76 12.34
11/4/2020 10:15:00 AM 5.24 41.432 0.098 6.85 7.8 12.36
11/4/2020 10:30:00 AM 5.4 41.72 0.098 6.83 7.77 12.28
11/4/2020 10:45:00 AM 5.57 42.026 0.098 6.84 7.72 12.27
11/4/2020 11:00:00 AM 5.71 42.278 0.098 6.85 7.71 12.29
11/4/2020 11:15:00 AM 5.85 42.53 0.098 6.85 7.73 12.23
11/4/2020 11:30:00 AM 5.93 42.674 0.098 6.84 7.72 12.24
11/4/2020 11:45:00 AM 6.04 42.872 0.098 6.84 7.73 12.16
11/4/2020 12:00:00 PM 6.16 43.088 0.098 6.84 7.72 12.11
11/4/2020 12:15:00 PM 6.23 43.214 0.098 6.82 7.72 12.05
11/4/2020 12:30:00 PM 6.32 43.376 0.098 6.84 7.68 12.06
11/4/2020 12:45:00 PM 6.42 43.556 0.098 6.84 7.73 11.99
11/4/2020 1:00:00 PM 6.52 43.736 0.098 6.83 7.7 11.95
11/4/2020 1:15:00 PM 6.6 43.88 0.098 6.84 7.69 11.84
11/4/2020 1:30:00 PM 6.71 44.078 0.098 6.84 7.68 11.82
11/4/2020 1:45:00 PM 6.76 44.168 0.098 6.84 7.67 11.81
11/4/2020 2:00:00 PM 6.79 44.222 0.098 6.83 7.73 11.78
11/4/2020 2:15:00 PM 6.82 44.276 0.098 6.82 7.72 11.77
11/4/2020 2:30:00 PM 6.81 44.258 0.098 6.81 7.69 11.64
11/4/2020 2:45:00 PM 6.77 44.186 0.098 6.8 7.72 11.68
11/4/2020 3:00:00 PM 6.78 44.204 0.098 6.8 7.76 11.66
11/4/2020 3:15:00 PM 6.79 44.222 0.098 6.79 7.73 11.55
11/4/2020 3:30:00 PM 6.82 44.276 0.098 6.81 7.71 11.6
11/4/2020 3:45:00 PM 6.84 44.312 0.098 6.8 7.73 11.61
11/4/2020 4:00:00 PM 6.86 44.348 0.098 6.79 7.72 11.54
11/4/2020 4:15:00 PM 6.87 44.366 0.098 6.79 7.74 11.56
11/4/2020 4:30:00 PM 6.88 44.384 0.098 6.8 7.71 11.54
11/4/2020 4:45:00 PM 6.89 44.402 0.098 6.78 7.77 11.48
11/4/2020 5:00:00 PM 6.89 44.402 0.098 6.77 7.74 11.44
11/4/2020 5:15:00 PM 6.88 44.384 0.098 6.76 7.75 11.45
11/4/2020 5:30:00 PM 6.87 44.366 0.098 6.76 7.77 11.43
11/4/2020 5:45:00 PM 6.86 44.348 0.098 6.76 7.76 11.43
11/4/2020 6:00:00 PM 6.84 44.312 0.098 6.75 7.71 11.38
11/4/2020 6:15:00 PM 6.81 44.258 0.098 6.74 7.73 11.41
11/4/2020 6:30:00 PM 6.79 44.222 0.098 6.73 7.73 11.35
11/4/2020 6:45:00 PM 6.75 44.15 0.098 6.73 7.77 11.4
11/4/2020 7:00:00 PM 6.72 44.096 0.098 6.74 7.75 11.42
11/4/2020 7:15:00 PM 6.7 44.06 0.098 6.73 7.81 11.4
11/4/2020 7:30:00 PM 6.66 43.988 0.098 6.73 7.8 11.45
11/4/2020 7:45:00 PM 6.64 43.952 0.098 6.73 7.72 11.4
11/4/2020 8:00:00 PM 6.59 43.862 0.098 6.73 7.76 11.45
11/4/2020 8:15:00 PM 6.56 43.808 0.098 6.73 7.78 11.44
11/4/2020 8:30:00 PM 6.53 43.754 0.098 6.74 7.73 11.49
11/4/2020 8:45:00 PM 6.49 43.682 0.098 6.73 7.74 11.47
11/4/2020 9:00:00 PM 6.45 43.61 0.098 6.73 7.77 11.45
11/4/2020 9:15:00 PM 6.41 43.538 0.098 6.74 7.76 11.53
11/4/2020 9:30:00 PM 6.37 43.466 0.098 6.73 7.74 11.48
11/4/2020 9:45:00 PM 6.34 43.412 0.098 6.73 7.74 11.52
11/4/2020 10:00:00 PM 6.31 43.358 0.099 6.72 7.74 11.52
11/4/2020 10:15:00 PM 6.27 43.286 0.099 6.73 7.78 11.56
11/4/2020 10:30:00 PM 6.22 43.196 0.099 6.72 7.77 11.57
11/4/2020 10:45:00 PM 6.15 43.07 0.099 6.73 7.81 11.61
11/4/2020 11:00:00 PM 6.13 43.034 0.099 6.73 7.76 11.58
11/4/2020 11:15:00 PM 6.09 42.962 0.099 6.74 7.77 11.59
11/4/2020 11:30:00 PM 6.04 42.872 0.099 6.74 7.76 11.62
11/4/2020 11:45:00 PM 6 42.8 0.099 6.74 7.73 11.61
11/5/2020 12:00:00 AM 5.95 42.71 0.099 6.73 7.75 11.59
11/5/2020 12:15:00 AM 5.89 42.602 0.099 6.73 7.74 11.68
11/5/2020 12:30:00 AM 5.88 42.584 0.099 6.72 7.74 11.61
11/5/2020 12:45:00 AM 5.83 42.494 0.099 6.73 7.75 11.71
11/5/2020 1:00:00 AM 5.78 42.404 0.099 6.73 7.75 11.7
11/5/2020 1:15:00 AM 5.75 42.35 0.099 6.72 7.73 11.65
11/5/2020 1:30:00 AM 5.72 42.296 0.099 6.73 7.75 11.66
11/5/2020 1:45:00 AM 5.65 42.17 0.099 6.73 7.73 11.73
11/5/2020 2:00:00 AM 5.63 42.134 0.099 6.74 7.76 11.76
11/5/2020 2:15:00 AM 5.59 42.062 0.099 6.74 7.73 11.74
11/5/2020 2:30:00 AM 5.55 41.99 0.099 6.73 7.76 11.72
11/5/2020 2:45:00 AM 5.51 41.918 0.099 6.73 7.77 11.74
11/5/2020 3:00:00 AM 5.45 41.81 0.099 6.73 7.73 11.82
11/5/2020 3:15:00 AM 5.43 41.774 0.099 6.74 7.73 11.77
11/5/2020 3:30:00 AM 5.38 41.684 0.099 6.74 7.74 11.82
11/5/2020 3:45:00 AM 5.35 41.63 0.099 6.73 7.73 11.86
11/5/2020 4:00:00 AM 5.3 41.54 0.099 6.74 7.75 11.87
11/5/2020 4:15:00 AM 5.28 41.504 0.099 6.74 7.74 11.86
11/5/2020 4:30:00 AM 5.25 41.45 0.099 6.74 7.76 11.89
11/5/2020 4:45:00 AM 5.23 41.414 0.099 6.74 7.81 11.92
11/5/2020 5:00:00 AM 5.24 41.432 0.099 6.74 7.73 11.87
11/5/2020 5:15:00 AM 5.21 41.378 0.099 6.74 7.73 11.87
11/5/2020 5:30:00 AM 5.15 41.27 0.099 6.74 7.74 11.96
11/5/2020 5:45:00 AM 5.11 41.198 0.099 6.74 7.72 11.9
11/5/2020 6:00:00 AM 5.12 41.216 0.099 6.74 7.73 11.93
11/5/2020 6:15:00 AM 5.1 41.18 0.099 6.74 7.92 11.9
11/5/2020 6:30:00 AM 5.07 41.126 0.099 6.74 7.74 11.9
11/5/2020 6:45:00 AM 5.03 41.054 0.099 6.75 7.73 11.95
11/5/2020 7:00:00 AM 4.99 40.982 0.099 6.75 7.82 11.98
11/5/2020 7:15:00 AM 4.97 40.946 0.099 6.75 7.8 12.02
11/5/2020 7:30:00 AM 5 41 0.099 6.76 7.81 12.04
11/5/2020 7:45:00 AM 4.94 40.892 0.099 6.77 7.78 12.14
11/5/2020 8:00:00 AM 4.97 40.946 0.099 6.78 7.75 12.09
11/5/2020 8:15:00 AM 4.99 40.982 0.099 6.79 7.8 12.16
11/5/2020 8:30:00 AM 5.04 41.072 0.099 6.79 7.81 12.18
11/5/2020 8:45:00 AM 5.09 41.162 0.099 6.82 7.78 12.2
11/5/2020 9:00:00 AM 5.14 41.252 0.099 6.82 7.78 12.28
11/5/2020 9:15:00 AM 5.22 41.396 0.099 6.82 7.75 12.19
11/5/2020 9:30:00 AM 5.28 41.504 0.099 6.83 7.77 12.26
11/5/2020 9:45:00 AM 5.36 41.648 0.098 6.83 7.74 12.21
11/5/2020 10:00:00 AM 5.51 41.918 0.099 6.84 7.75 12.17
11/5/2020 10:15:00 AM 5.69 42.242 0.098 6.86 7.72 12.2
11/5/2020 10:30:00 AM 5.73 42.314 0.098 6.84 7.73 12.15
11/5/2020 10:45:00 AM 5.79 42.422 0.099 6.84 7.72 12.12
11/5/2020 11:00:00 AM 5.87 42.566 0.098 6.83 7.73 12.12
11/5/2020 11:15:00 AM 6.04 42.872 0.098 6.85 7.75 12.06
11/5/2020 11:30:00 AM 6.15 43.07 0.098 6.85 7.69 12.07
11/5/2020 11:45:00 AM 6.28 43.304 0.098 6.85 7.71 12.02
11/5/2020 12:00:00 PM 6.41 43.538 0.098 6.87 7.73 11.99
11/5/2020 12:15:00 PM 6.52 43.736 0.098 6.86 7.72 12.03
11/5/2020 12:30:00 PM 6.61 43.898 0.098 6.85 7.7 11.9
11/5/2020 12:45:00 PM 6.69 44.042 0.098 6.84 7.72 11.82
11/5/2020 1:00:00 PM 6.77 44.186 0.098 6.84 7.67 11.85
11/5/2020 1:15:00 PM 6.89 44.402 0.098 6.85 8.28 11.9
11/5/2020 1:30:00 PM 6.96 44.528 0.098 6.85 8.52 11.61
11/5/2020 1:45:00 PM 7.08 44.744 0.098 6.83 8.48 11.8
11/5/2020 2:00:00 PM 7.19 44.942 0.098 6.85 8.44 11.78
11/5/2020 2:15:00 PM 7.23 45.014 0.098 6.84 8.44 11.73
11/5/2020 2:30:00 PM 7.23 45.014 0.098 6.83 8.41 11.69
11/5/2020 2:45:00 PM 7.23 45.014 0.098 6.82 8.41 11.65
11/5/2020 3:00:00 PM 7.24 45.032 0.098 6.82 8.36 11.55
11/5/2020 3:15:00 PM 7.25 45.05 0.098 6.82 8.37 11.58
11/5/2020 3:30:00 PM 7.22 44.996 0.098 6.8 8.37 11.52
11/5/2020 3:45:00 PM 7.23 45.014 0.098 6.81 8.41 11.57
11/5/2020 4:00:00 PM 7.22 44.996 0.098 6.79 8.38 11.53
11/5/2020 4:15:00 PM 7.21 44.978 0.098 6.79 8.38 11.45
11/5/2020 4:30:00 PM 7.2 44.96 0.098 6.79 8.37 11.49
11/5/2020 4:45:00 PM 7.18 44.924 0.098 6.79 8.42 11.44
11/5/2020 5:00:00 PM 7.17 44.906 0.098 6.77 8.41 11.42
11/5/2020 5:15:00 PM 7.14 44.852 0.098 6.77 8.47 11.34
11/5/2020 5:30:00 PM 7.11 44.798 0.098 6.75 8.47 11.31
11/5/2020 5:45:00 PM 7.09 44.762 0.098 6.76 8.57 11.35
11/5/2020 6:00:00 PM 7.06 44.708 0.098 6.75 8.48 11.32
11/5/2020 6:15:00 PM 7.05 44.69 0.098 6.75 8.45 11.34
11/5/2020 6:30:00 PM 7.03 44.654 0.098 6.74 8.43 11.39
11/5/2020 6:45:00 PM 7.02 44.636 0.098 6.75 8.43 11.33
11/5/2020 7:00:00 PM 6.99 44.582 0.098 6.74 8.46 11.3
11/5/2020 7:15:00 PM 6.98 44.564 0.098 6.73 8.44 11.33
11/5/2020 7:30:00 PM 6.96 44.528 0.098 6.73 8.45 11.27
11/5/2020 7:45:00 PM 6.95 44.51 0.098 6.73 8.41 11.36
11/5/2020 8:00:00 PM 6.93 44.474 0.098 6.73 8.45 11.34
11/5/2020 8:15:00 PM 6.92 44.456 0.098 6.73 8.48 11.36
11/5/2020 8:30:00 PM 6.9 44.42 0.098 6.73 8.42 11.34
11/5/2020 8:45:00 PM 6.89 44.402 0.098 6.72 8.46 11.28
11/5/2020 9:00:00 PM 6.87 44.366 0.098 6.73 8.42 11.36
11/5/2020 9:15:00 PM 6.86 44.348 0.098 6.71 8.46 11.36
11/5/2020 9:30:00 PM 6.84 44.312 0.098 6.72 8.5 11.38
11/5/2020 9:45:00 PM 6.83 44.294 0.098 6.72 8.45 11.36
11/5/2020 10:00:00 PM 6.82 44.276 0.098 6.72 8.43 11.28
11/5/2020 10:15:00 PM 6.82 44.276 0.098 6.72 8.43 11.22
11/5/2020 10:30:00 PM 6.81 44.258 0.098 6.72 8.43 11.35
11/5/2020 10:45:00 PM 6.79 44.222 0.098 6.71 8.49 11.38
11/5/2020 11:00:00 PM 6.77 44.186 0.098 6.72 8.47 11.34
11/5/2020 11:15:00 PM 6.75 44.15 0.098 6.72 8.44 11.41
11/5/2020 11:30:00 PM 6.72 44.096 0.098 6.73 8.44 11.4
11/5/2020 11:45:00 PM 6.7 44.06 0.098 6.72 8.51 11.38
11/6/2020 12:00:00 AM 6.68 44.024 0.098 6.72 8.49 11.42
11/6/2020 12:15:00 AM 6.68 44.024 0.098 6.71 8.52 11.33
11/6/2020 12:30:00 AM 6.67 44.006 0.098 6.72 8.47 11.39
11/6/2020 12:45:00 AM 6.66 43.988 0.098 6.73 8.46 11.42
11/6/2020 1:00:00 AM 6.65 43.97 0.098 6.72 8.42 11.46
11/6/2020 1:15:00 AM 6.65 43.97 0.098 6.73 8.43 11.43
11/6/2020 1:30:00 AM 6.64 43.952 0.098 6.73 8.42 11.44
11/6/2020 1:45:00 AM 6.63 43.934 0.098 6.73 8.41 11.47
11/6/2020 2:00:00 AM 6.61 43.898 0.098 6.72 8.45 11.41
11/6/2020 2:15:00 AM 6.59 43.862 0.098 6.73 8.44 11.41
11/6/2020 2:30:00 AM 6.57 43.826 0.098 6.72 8.47 11.43
11/6/2020 2:45:00 AM 6.54 43.772 0.098 6.72 8.42 11.42
11/6/2020 3:00:00 AM 6.51 43.718 0.098 6.72 8.42 11.4
11/6/2020 3:15:00 AM 6.48 43.664 0.098 6.72 8.42 11.45
11/6/2020 3:30:00 AM 6.44 43.592 0.098 6.72 8.46 11.46
11/6/2020 3:45:00 AM 6.38 43.484 0.098 6.71 8.42 11.47
11/6/2020 4:00:00 AM 6.35 43.43 0.098 6.72 8.46 11.48
11/6/2020 4:15:00 AM 6.32 43.376 0.098 6.7 8.45 11.46
11/6/2020 4:30:00 AM 6.28 43.304 0.098 6.7 8.42 11.48
11/6/2020 4:45:00 AM 6.23 43.214 0.099 6.72 8.41 11.5
11/6/2020 5:00:00 AM 6.18 43.124 0.098 6.72 8.42 11.48
11/6/2020 5:15:00 AM 6.15 43.07 0.099 6.72 8.45 11.56
11/6/2020 5:30:00 AM 6.12 43.016 0.099 6.73 8.46 11.52
11/6/2020 5:45:00 AM 6.07 42.926 0.099 6.73 8.43 11.62
11/6/2020 6:00:00 AM 6.03 42.854 0.099 6.73 8.4 11.61
11/6/2020 6:15:00 AM 5.99 42.782 0.099 6.74 8.41 11.62
11/6/2020 6:30:00 AM 5.95 42.71 0.099 6.74 8.41 11.6
11/6/2020 6:45:00 AM 5.92 42.656 0.099 6.72 8.4 11.62
11/6/2020 7:00:00 AM 5.88 42.584 0.099 6.73 8.43 11.45
11/6/2020 7:15:00 AM 5.85 42.53 0.099 6.75 8.46 11.67
11/6/2020 7:30:00 AM 5.84 42.512 0.099 6.75 8.44 11.71
11/6/2020 7:45:00 AM 5.81 42.458 0.099 6.76 8.46 11.76
11/6/2020 8:00:00 AM 5.79 42.422 0.099 6.77 8.44 11.73
11/6/2020 8:15:00 AM 5.81 42.458 0.099 6.78 8.43 11.86
11/6/2020 8:30:00 AM 5.86 42.548 0.099 6.79 8.47 11.86
11/6/2020 8:45:00 AM 5.9 42.62 0.098 6.8 8.42 11.89
11/6/2020 9:00:00 AM 5.95 42.71 0.098 6.81 8.42 11.9
11/6/2020 9:15:00 AM 6.04 42.872 0.098 6.83 8.43 11.98
11/6/2020 9:30:00 AM 6.16 43.088 0.098 6.83 8.42 11.93
11/6/2020 9:45:00 AM 6.28 43.304 0.098 6.86 8.37 12
11/6/2020 10:00:00 AM 6.42 43.556 0.098 6.87 8.33 11.98
11/6/2020 10:15:00 AM 6.55 43.79 0.098 6.86 8.32 11.95
11/6/2020 10:30:00 AM 6.68 44.024 0.098 6.87 8.34 11.94
11/6/2020 10:45:00 AM 6.84 44.312 0.098 6.87 8.34 11.91
11/6/2020 11:00:00 AM 6.99 44.582 0.098 6.86 8.33 11.88
11/6/2020 11:15:00 AM 7.1 44.78 0.098 6.85 8.32 11.87
11/6/2020 11:30:00 AM 7.24 45.032 0.098 6.85 8.39 11.85
11/6/2020 11:45:00 AM 7.32 45.176 0.098 6.84 8.31 11.79
11/6/2020 12:00:00 PM 7.41 45.338 0.098 6.85 8.33 11.74
11/6/2020 12:15:00 PM 7.45 45.41 0.098 6.83 8.28 11.67
11/6/2020 12:30:00 PM 7.48 45.464 0.098 6.85 8.29 11.75
11/6/2020 12:45:00 PM 7.56 45.608 0.098 6.85 8.31 11.67
11/6/2020 1:00:00 PM 7.65 45.77 0.098 6.86 8.26 11.66
11/6/2020 1:15:00 PM 7.75 45.95 0.098 6.85 8.27 11.59
11/6/2020 1:30:00 PM 7.81 46.058 0.098 6.84 8.25 11.55
11/6/2020 1:45:00 PM 7.89 46.202 0.098 6.84 8.24 11.49
11/6/2020 2:00:00 PM 7.91 46.238 0.098 6.81 8.24 11.4
11/6/2020 2:15:00 PM 7.92 46.256 0.098 6.81 8.26 11.39
11/6/2020 2:30:00 PM 7.92 46.256 0.098 6.81 8.26 11.39
11/6/2020 2:45:00 PM 7.87 46.166 0.098 6.79 8.26 11.38
11/6/2020 3:00:00 PM 7.87 46.166 0.098 6.8 8.26 11.3
11/6/2020 3:15:00 PM 7.87 46.166 0.098 6.8 8.25 11.32
11/6/2020 3:30:00 PM 7.88 46.184 0.098 6.8 8.24 11.26
11/6/2020 3:45:00 PM 7.92 46.256 0.098 6.81 8.29 11.33
11/6/2020 4:00:00 PM 7.95 46.31 0.098 6.82 8.31 11.28
11/6/2020 4:15:00 PM 7.95 46.31 0.098 6.79 8.25 11.22
11/6/2020 4:30:00 PM 7.94 46.292 0.098 6.79 8.16 11.25
11/6/2020 4:45:00 PM 7.94 46.292 0.098 6.79 8.19 11.19
11/6/2020 5:00:00 PM 7.91 46.238 0.098 6.77 8.22 11.11
11/6/2020 5:15:00 PM 7.9 46.22 0.098 6.77 8.33 11.14
11/6/2020 5:30:00 PM 7.88 46.184 0.098 6.75 12.39 11.08
11/6/2020 5:45:00 PM 7.88 46.184 0.098 6.77 8.02 11.07
11/6/2020 6:00:00 PM 7.86 46.148 0.098 6.76 7.8 11.11
11/6/2020 6:15:00 PM 7.83 46.094 0.098 6.74 7.81 11.04
11/6/2020 6:30:00 PM 7.8 46.04 0.098 6.75 7.78 11.04
11/6/2020 6:45:00 PM 7.78 46.004 0.098 6.74 7.81 11.1
11/6/2020 7:00:00 PM 7.75 45.95 0.098 6.75 7.82 11.07
11/6/2020 7:15:00 PM 7.71 45.878 0.098 6.73 7.96 11.12
11/6/2020 7:30:00 PM 7.67 45.806 0.098 6.74 7.81 11.08
11/6/2020 7:45:00 PM 7.63 45.734 0.098 6.73 7.78 11.08
11/6/2020 8:00:00 PM 7.6 45.68 0.098 6.74 7.79 11.08
11/6/2020 8:15:00 PM 7.56 45.608 0.098 6.74 7.78 11.12
11/6/2020 8:30:00 PM 7.53 45.554 0.098 6.74 7.79 11.12
11/6/2020 8:45:00 PM 7.49 45.482 0.098 6.74 7.86 11.13
11/6/2020 9:00:00 PM 7.45 45.41 0.098 6.74 7.79 11.13
11/6/2020 9:15:00 PM 7.41 45.338 0.098 6.74 7.82 11.13
11/6/2020 9:30:00 PM 7.38 45.284 0.099 6.71 7.79 11.16
11/6/2020 9:45:00 PM 7.33 45.194 0.099 6.73 7.78 11.15
11/6/2020 10:00:00 PM 7.3 45.14 0.099 6.74 7.76 11.18
11/6/2020 10:15:00 PM 7.26 45.068 0.099 6.73 7.76 11.17
11/6/2020 10:30:00 PM 7.22 44.996 0.099 6.73 7.8 11.14
11/6/2020 10:45:00 PM 7.19 44.942 0.099 6.73 7.78 11.18
11/6/2020 11:00:00 PM 7.13 44.834 0.099 6.73 7.8 11.16
11/6/2020 11:15:00 PM 7.08 44.744 0.099 6.73 7.8 11.23
11/6/2020 11:30:00 PM 7.05 44.69 0.099 6.73 7.77 11.22
11/6/2020 11:45:00 PM 7.01 44.618 0.099 6.73 7.82 11.25
11/7/2020 12:00:00 AM 6.95 44.51 0.099 6.74 7.84 11.26
11/7/2020 12:15:00 AM 6.93 44.474 0.099 6.74 7.85 11.27
11/7/2020 12:30:00 AM 6.87 44.366 0.099 6.73 7.78 11.29
11/7/2020 12:45:00 AM 6.83 44.294 0.099 6.72 7.8 11.31
11/7/2020 1:00:00 AM 6.79 44.222 0.099 6.73 7.79 11.36
11/7/2020 1:15:00 AM 6.75 44.15 0.099 6.71 7.79 11.28
11/7/2020 1:30:00 AM 6.71 44.078 0.099 6.73 7.78 11.27
11/7/2020 1:45:00 AM 6.65 43.97 0.099 6.74 7.76 11.39
11/7/2020 2:00:00 AM 6.62 43.916 0.099 6.73 7.79 11.39
11/7/2020 2:15:00 AM 6.59 43.862 0.099 6.73 7.78 11.37
11/7/2020 2:30:00 AM 6.53 43.754 0.099 6.74 7.79 11.39
11/7/2020 2:45:00 AM 6.51 43.718 0.099 6.73 7.78 11.44
11/7/2020 3:00:00 AM 6.44 43.592 0.099 6.74 7.79 11.44
11/7/2020 3:15:00 AM 6.4 43.52 0.099 6.74 7.76 11.45
11/7/2020 3:30:00 AM 6.4 43.52 0.099 6.74 7.81 11.45
11/7/2020 3:45:00 AM 6.32 43.376 0.099 6.74 7.8 11.5
11/7/2020 4:00:00 AM 6.27 43.286 0.099 6.73 7.8 11.5
11/7/2020 4:15:00 AM 6.25 43.25 0.099 6.73 7.81 11.51
11/7/2020 4:30:00 AM 6.26 43.268 0.099 6.74 7.79 11.5
11/7/2020 4:45:00 AM 6.18 43.124 0.099 6.74 7.79 11.56
11/7/2020 5:00:00 AM 6.13 43.034 0.099 6.74 7.76 11.53
11/7/2020 5:15:00 AM 6.1 42.98 0.099 6.74 7.77 11.58
11/7/2020 5:30:00 AM 6.08 42.944 0.099 6.75 7.78 11.55
11/7/2020 5:45:00 AM 6.02 42.836 0.099 6.73 7.8 11.56
11/7/2020 6:00:00 AM 5.99 42.782 0.099 6.73 7.79 11.49
11/7/2020 6:15:00 AM 5.97 42.746 0.099 6.75 7.77 11.63
11/7/2020 6:30:00 AM 5.94 42.692 0.099 6.74 7.77 11.62
11/7/2020 6:45:00 AM 5.92 42.656 0.099 6.74 7.79 11.61
11/7/2020 7:00:00 AM 5.89 42.602 0.099 6.75 7.82 11.62
11/7/2020 7:15:00 AM 5.87 42.566 0.099 6.76 7.83 11.7
11/7/2020 7:30:00 AM 5.84 42.512 0.099 6.76 7.81 11.72
11/7/2020 7:45:00 AM 5.86 42.548 0.099 6.77 7.79 11.76
11/7/2020 8:00:00 AM 5.86 42.548 0.099 6.79 7.79 11.8
11/7/2020 8:15:00 AM 5.83 42.494 0.099 6.78 7.76 11.84
11/7/2020 8:30:00 AM 5.85 42.53 0.099 6.77 7.77 11.93
11/7/2020 8:45:00 AM 5.9 42.62 0.099 6.81 7.76 11.9
11/7/2020 9:00:00 AM 5.99 42.782 0.099 6.82 7.77 11.98
11/7/2020 9:15:00 AM 6.05 42.89 0.099 6.82 7.76 12
11/7/2020 9:30:00 AM 6.09 42.962 0.098 6.83 7.79 12.02
11/7/2020 9:45:00 AM 6.2 43.16 0.098 6.85 7.76 12.01
11/7/2020 10:00:00 AM 6.36 43.448 0.099 6.85 7.75 11.96
11/7/2020 10:15:00 AM 6.46 43.628 0.098 6.86 7.76 11.97
11/7/2020 10:30:00 AM 6.6 43.88 0.098 6.86 7.71 11.91
11/7/2020 10:45:00 AM 6.75 44.15 0.098 6.86 7.7 11.95
11/7/2020 11:00:00 AM 6.91 44.438 0.098 6.86 7.71 11.89
11/7/2020 11:15:00 AM 7.02 44.636 0.098 6.86 7.66 11.87
11/7/2020 11:30:00 AM 7.1 44.78 0.098 6.85 7.67 11.75
11/7/2020 11:45:00 AM 7.15 44.87 0.098 6.85 7.63 11.8
11/7/2020 12:00:00 PM 7.21 44.978 0.098 6.84 7.67 11.72
11/7/2020 12:15:00 PM 7.29 45.122 0.098 6.84 7.66 11.78
11/7/2020 12:30:00 PM 7.33 45.194 0.098 6.81 7.62 11.56
11/7/2020 12:45:00 PM 7.43 45.374 0.098 6.83 7.64 11.68
11/7/2020 1:00:00 PM 7.47 45.446 0.098 6.84 7.64 11.55
11/7/2020 1:15:00 PM 7.57 45.626 0.098 6.83 7.64 11.54
11/7/2020 1:30:00 PM 7.66 45.788 0.098 6.82 7.61 11.58
11/7/2020 1:45:00 PM 7.74 45.932 0.098 6.84 7.64 11.53
11/7/2020 2:00:00 PM 7.76 45.968 0.098 6.83 7.65 11.51
11/7/2020 2:15:00 PM 7.78 46.004 0.098 6.83 7.6 11.5
11/7/2020 2:30:00 PM 7.78 46.004 0.098 6.82 7.62 11.47
11/7/2020 2:45:00 PM 7.77 45.986 0.098 6.81 7.61 11.47
11/7/2020 3:00:00 PM 7.78 46.004 0.098 6.83 7.59 11.4
11/7/2020 3:15:00 PM 7.85 46.13 0.098 6.83 7.6 11.34
11/7/2020 3:30:00 PM 7.89 46.202 0.098 6.84 7.6 11.43
11/7/2020 3:45:00 PM 7.9 46.22 0.098 6.83 7.64 11.33
11/7/2020 4:00:00 PM 7.94 46.292 0.098 6.83 7.66 11.39
11/7/2020 4:15:00 PM 7.94 46.292 0.098 6.84 7.66 11.35
11/7/2020 4:30:00 PM 7.93 46.274 0.098 6.81 7.64 11.32
11/7/2020 4:45:00 PM 7.92 46.256 0.098 6.81 7.63 11.31
11/7/2020 5:00:00 PM 7.91 46.238 0.098 6.79 7.6 11.19
11/7/2020 5:15:00 PM 7.91 46.238 0.098 6.79 7.66 11.25
11/7/2020 5:30:00 PM 7.88 46.184 0.098 6.77 7.7 11.16
11/7/2020 5:45:00 PM 7.84 46.112 0.098 6.77 7.5 11.13
11/7/2020 6:00:00 PM 7.82 46.076 0.098 6.77 7.53 11.13
11/7/2020 6:15:00 PM 7.79 46.022 0.098 6.75 7.5 11.1
11/7/2020 6:30:00 PM 7.75 45.95 0.098 6.76 7.47 11.08
11/7/2020 6:45:00 PM 7.73 45.914 0.098 6.75 7.5 11.05
11/7/2020 7:00:00 PM 7.7 45.86 0.098 6.75 7.46 11.12
11/7/2020 7:15:00 PM 7.66 45.788 0.098 6.74 7.49 11.1
11/7/2020 7:30:00 PM 7.62 45.716 0.098 6.73 7.49 10.94
11/7/2020 7:45:00 PM 7.59 45.662 0.098 6.73 7.65 11
11/7/2020 8:00:00 PM 7.55 45.59 0.098 6.74 7.48 11.14
11/7/2020 8:15:00 PM 7.5 45.5 0.098 6.74 7.51 11.17
11/7/2020 8:30:00 PM 7.45 45.41 0.098 6.74 7.5 11.15
11/7/2020 8:45:00 PM 7.41 45.338 0.098 6.74 7.5 11.16
11/7/2020 9:00:00 PM 7.37 45.266 0.099 6.74 7.5 11.14
11/7/2020 9:15:00 PM 7.32 45.176 0.098 6.74 7.51 11.12
11/7/2020 9:30:00 PM 7.27 45.086 0.099 6.75 7.51 11.15
11/7/2020 9:45:00 PM 7.24 45.032 0.099 6.74 7.49 11.22
11/7/2020 10:00:00 PM 7.2 44.96 0.099 6.74 7.53 11.24
11/7/2020 10:15:00 PM 7.15 44.87 0.099 6.73 7.48 11.16
11/7/2020 10:30:00 PM 7.12 44.816 0.099 6.73 7.49 11.19
11/7/2020 10:45:00 PM 7.08 44.744 0.099 6.73 7.48 11.14
11/7/2020 11:00:00 PM 7.03 44.654 0.099 6.74 7.49 11.24
11/7/2020 11:15:00 PM 7 44.6 0.099 6.72 7.5 11.21
11/7/2020 11:30:00 PM 6.97 44.546 0.099 6.73 7.58 11.22
11/7/2020 11:45:00 PM 6.95 44.51 0.099 6.73 7.54 11.13
11/8/2020 12:00:00 AM 6.85 44.33 0.099 6.73 7.48 11.23
11/8/2020 12:15:00 AM 6.84 44.312 0.099 6.73 7.63 11.29
11/8/2020 12:30:00 AM 6.72 44.096 0.099 6.72 7.52 11.34
11/8/2020 12:45:00 AM 6.74 44.132 0.099 6.72 7.55 11.32
11/8/2020 1:00:00 AM 6.7 44.06 0.099 6.73 7.53 11.34
11/8/2020 1:15:00 AM 6.7 44.06 0.099 6.73 7.55 11.32
11/8/2020 1:30:00 AM 6.61 43.898 0.099 6.73 7.53 11.34
11/8/2020 1:45:00 AM 6.51 43.718 0.099 6.75 7.58 11.45
11/8/2020 2:00:00 AM 6.45 43.61 0.099 6.75 7.56 11.42
11/8/2020 2:15:00 AM 6.4 43.52 0.099 6.75 7.5 11.47
11/8/2020 2:30:00 AM 6.38 43.484 0.098 6.72 7.71 11.47
11/8/2020 2:45:00 AM 6.31 43.358 0.099 6.74 7.49 11.51
11/8/2020 3:00:00 AM 6.28 43.304 0.099 6.73 7.52 11.52
11/8/2020 3:15:00 AM 6.18 43.124 0.099 6.74 7.49 11.59
11/8/2020 3:30:00 AM 6.15 43.07 0.099 6.74 7.47 11.6
11/8/2020 3:45:00 AM 6.13 43.034 0.099 6.74 7.53 11.55
11/8/2020 4:00:00 AM 6.09 42.962 0.099 6.74 7.52 11.63
11/8/2020 4:15:00 AM 6.06 42.908 0.099 6.73 7.58 11.6
11/8/2020 4:30:00 AM 5.98 42.764 0.099 6.75 7.55 11.62
11/8/2020 4:45:00 AM 5.95 42.71 0.099 6.74 7.55 11.63
11/8/2020 5:00:00 AM 5.86 42.548 0.099 6.75 7.48 11.73
11/8/2020 5:15:00 AM 5.85 42.53 0.099 6.74 7.49 11.7
11/8/2020 5:30:00 AM 5.82 42.476 0.099 6.74 7.49 11.65
11/8/2020 5:45:00 AM 5.78 42.404 0.099 6.75 7.51 11.72
11/8/2020 6:00:00 AM 5.76 42.368 0.099 6.75 7.53 11.73
11/8/2020 6:15:00 AM 5.74 42.332 0.099 6.76 7.51 11.76
11/8/2020 6:30:00 AM 5.74 42.332 0.099 6.76 7.52 11.68
11/8/2020 6:45:00 AM 5.71 42.278 0.099 6.75 7.57 11.74
11/8/2020 7:00:00 AM 5.66 42.188 0.099 6.75 7.47 11.78
11/8/2020 7:15:00 AM 5.66 42.188 0.099 6.75 7.47 11.76
11/8/2020 7:30:00 AM 5.63 42.134 0.099 6.76 7.48 11.87
11/8/2020 7:45:00 AM 5.64 42.152 0.099 6.78 7.5 11.85
11/8/2020 8:00:00 AM 5.66 42.188 0.099 6.78 7.5 11.85
11/8/2020 8:15:00 AM 5.68 42.224 0.099 6.79 7.48 11.97
11/8/2020 8:30:00 AM 5.71 42.278 0.099 6.82 7.48 12.07
11/8/2020 8:45:00 AM 5.79 42.422 0.099 6.84 7.47 12.07
11/8/2020 9:00:00 AM 5.85 42.53 0.098 6.85 7.49 12.12
11/8/2020 9:15:00 AM 5.93 42.674 0.098 6.83 7.46 12.12
11/8/2020 9:30:00 AM 5.98 42.764 0.099 6.86 7.47 12.14
11/8/2020 9:45:00 AM 6.07 42.926 0.098 6.85 7.47 12.11
11/8/2020 10:00:00 AM 6.23 43.214 0.098 6.85 7.43 12.06
11/8/2020 10:15:00 AM 6.34 43.412 0.098 6.88 7.43 12.11
11/8/2020 10:30:00 AM 6.48 43.664 0.098 6.87 7.4 12.07
11/8/2020 10:45:00 AM 6.61 43.898 0.098 6.85 7.39 12.03
11/8/2020 11:00:00 AM 6.74 44.132 0.098 6.85 7.35 12.02
11/8/2020 11:15:00 AM 6.88 44.384 0.098 6.86 7.33 11.92
11/8/2020 11:30:00 AM 6.95 44.51 0.098 6.84 7.31 11.9
11/8/2020 11:45:00 AM 7 44.6 0.098 6.84 7.32 11.92
11/8/2020 12:00:00 PM 7.05 44.69 0.098 6.81 7.3 11.85
11/8/2020 12:15:00 PM 7.06 44.708 0.098 6.84 7.39 11.92
11/8/2020 12:30:00 PM 7.11 44.798 0.098 6.86 7.44 11.85
11/8/2020 12:45:00 PM 7.14 44.852 0.098 6.86 7.45 11.9
11/8/2020 1:00:00 PM 7.24 45.032 0.098 6.86 7.41 11.84
11/8/2020 1:15:00 PM 7.3 45.14 0.098 6.87 7.42 11.74
11/8/2020 1:30:00 PM 7.37 45.266 0.098 6.85 7.42 11.66
11/8/2020 1:45:00 PM 7.44 45.392 0.098 6.86 7.38 11.71
11/8/2020 2:00:00 PM 7.47 45.446 0.098 6.85 7.42 11.65
11/8/2020 2:15:00 PM 7.53 45.554 0.098 6.86 7.43 11.71
11/8/2020 2:30:00 PM 7.49 45.482 0.098 6.85 7.41 11.58
11/8/2020 2:45:00 PM 7.44 45.392 0.098 6.83 7.43 11.59
11/8/2020 3:00:00 PM 7.46 45.428 0.098 6.85 7.47 11.55
11/8/2020 3:15:00 PM 7.48 45.464 0.098 6.84 7.4 11.57
11/8/2020 3:30:00 PM 7.48 45.464 0.098 6.84 7.89 11.57
11/8/2020 3:45:00 PM 7.5 45.5 0.098 6.84 7.46 11.46
11/8/2020 4:00:00 PM 7.51 45.518 0.098 6.83 7.46 11.45
11/8/2020 4:15:00 PM 7.52 45.536 0.098 6.82 7.46 11.43
11/8/2020 4:30:00 PM 7.52 45.536 0.098 6.81 7.51 11.37
11/8/2020 4:45:00 PM 7.52 45.536 0.098 6.81 7.47 11.42
11/8/2020 5:00:00 PM 7.51 45.518 0.098 6.8 7.69 11.39
11/8/2020 5:15:00 PM 7.5 45.5 0.098 6.78 7.45 11.32
11/8/2020 5:30:00 PM 7.48 45.464 0.098 6.78 7.46 11.3
11/8/2020 5:45:00 PM 7.46 45.428 0.098 6.78 7.43 11.33
11/8/2020 6:00:00 PM 7.44 45.392 0.098 6.76 7.47 11.29
11/8/2020 6:15:00 PM 7.42 45.356 0.098 6.77 7.57 11.25
11/8/2020 6:30:00 PM 7.4 45.32 0.098 6.76 7.46 11.26
11/8/2020 6:45:00 PM 7.37 45.266 0.098 6.76 7.5 11.27
11/8/2020 7:00:00 PM 7.34 45.212 0.098 6.75 7.49 11.28
11/8/2020 7:15:00 PM 7.31 45.158 0.098 6.75 7.47 11.2
11/8/2020 7:30:00 PM 7.28 45.104 0.098 6.76 7.48 11.25
11/8/2020 7:45:00 PM 7.24 45.032 0.098 6.75 7.45 11.3
11/8/2020 8:00:00 PM 7.22 44.996 0.099 6.76 7.5 11.3
11/8/2020 8:15:00 PM 7.17 44.906 0.098 6.74 7.49 11.25
11/8/2020 8:30:00 PM 7.15 44.87 0.099 6.75 7.46 11.31
11/8/2020 8:45:00 PM 7.12 44.816 0.099 6.74 7.56 11.18
11/8/2020 9:00:00 PM 7.07 44.726 0.099 6.74 7.51 11.3
11/8/2020 9:15:00 PM 7.03 44.654 0.099 6.74 7.51 11.3
11/8/2020 9:30:00 PM 6.97 44.546 0.099 6.74 7.45 11.38
11/8/2020 9:45:00 PM 6.97 44.546 0.099 6.74 7.48 11.34
11/8/2020 10:00:00 PM 6.94 44.492 0.099 6.73 7.48 11.28
11/8/2020 10:15:00 PM 6.92 44.456 0.099 6.74 7.48 11.32
11/8/2020 10:30:00 PM 6.89 44.402 0.099 6.74 7.5 11.32
11/8/2020 10:45:00 PM 6.84 44.312 0.099 6.74 7.49 11.34
11/8/2020 11:00:00 PM 6.78 44.204 0.099 6.75 7.5 11.41
11/8/2020 11:15:00 PM 6.76 44.168 0.099 6.74 7.46 11.37
11/8/2020 11:30:00 PM 6.7 44.06 0.099 6.75 7.48 11.43
11/8/2020 11:45:00 PM 6.68 44.024 0.099 6.74 7.5 11.31
11/9/2020 12:00:00 AM 6.62 43.916 0.099 6.75 7.49 11.47
11/9/2020 12:15:00 AM 6.58 43.844 0.099 6.75 7.48 11.48
11/9/2020 12:30:00 AM 6.61 43.898 0.099 6.75 7.52 11.37
11/9/2020 12:45:00 AM 6.53 43.754 0.099 6.75 7.49 11.44
11/9/2020 1:00:00 AM 6.47 43.646 0.099 6.75 7.47 11.47
11/9/2020 1:15:00 AM 6.42 43.556 0.099 6.75 7.49 11.52
11/9/2020 1:30:00 AM 6.4 43.52 0.099 6.75 7.46 11.45
11/9/2020 1:45:00 AM 6.33 43.394 0.099 6.75 7.46 11.55
11/9/2020 2:00:00 AM 6.32 43.376 0.099 6.74 7.49 11.52
11/9/2020 2:15:00 AM 6.22 43.196 0.099 6.75 7.45 11.58
11/9/2020 2:30:00 AM 6.22 43.196 0.099 6.75 7.48 11.56
11/9/2020 2:45:00 AM 6.17 43.106 0.099 6.75 7.51 11.61
11/9/2020 3:00:00 AM 6.21 43.178 0.099 6.75 7.46 11.52
11/9/2020 3:15:00 AM 6.13 43.034 0.099 6.74 7.49 11.57
11/9/2020 3:30:00 AM 6.08 42.944 0.099 6.76 7.48 11.62
11/9/2020 3:45:00 AM 6.04 42.872 0.099 6.76 7.49 11.62
11/9/2020 4:00:00 AM 5.99 42.782 0.099 6.76 7.5 11.66
11/9/2020 4:15:00 AM 5.96 42.728 0.099 6.76 7.47 11.65
11/9/2020 4:30:00 AM 5.94 42.692 0.099 6.76 7.49 11.68
11/9/2020 4:45:00 AM 5.84 42.512 0.099 6.75 7.53 11.71
11/9/2020 5:00:00 AM 5.86 42.548 0.099 6.76 7.49 11.7
11/9/2020 5:15:00 AM 5.81 42.458 0.099 6.76 7.48 11.67
11/9/2020 5:30:00 AM 5.76 42.368 0.099 6.76 7.49 11.69
11/9/2020 5:45:00 AM 5.72 42.296 0.099 6.76 7.49 11.72
11/9/2020 6:00:00 AM 5.64 42.152 0.099 6.75 7.49 11.83
11/9/2020 6:15:00 AM 5.65 42.17 0.099 6.76 7.48 11.72
11/9/2020 6:30:00 AM 5.62 42.116 0.099 6.76 7.5 11.77
11/9/2020 6:45:00 AM 5.56 42.008 0.099 6.76 7.44 11.79
11/9/2020 7:00:00 AM 5.53 41.954 0.099 6.76 7.67 11.71
11/9/2020 7:15:00 AM 5.53 41.954 0.099 6.77 7.48 11.87
11/9/2020 7:30:00 AM 5.47 41.846 0.099 6.78 7.48 11.96
11/9/2020 7:45:00 AM 5.46 41.828 0.099 6.78 7.43 11.99
11/9/2020 8:00:00 AM 5.53 41.954 0.099 6.79 7.52 11.88
11/9/2020 8:15:00 AM 5.51 41.918 0.099 6.81 7.46 12.06
11/9/2020 8:30:00 AM 5.53 41.954 0.099 6.82 7.46 12.13
11/9/2020 8:45:00 AM 5.56 42.008 0.099 6.83 7.46 12.15
11/9/2020 9:00:00 AM 5.6 42.08 0.098 6.84 7.48 12.14
11/9/2020 9:15:00 AM 5.66 42.188 0.098 6.85 7.45 12.21
11/9/2020 9:30:00 AM 5.81 42.458 0.098 6.86 7.46 12.16
11/9/2020 9:45:00 AM 5.93 42.674 0.098 6.88 7.46 12.18
11/9/2020 10:00:00 AM 6.04 42.872 0.098 6.88 7.41 12.19
11/9/2020 10:15:00 AM 6.19 43.142 0.098 6.89 7.45 12.2
11/9/2020 10:30:00 AM 6.36 43.448 0.098 6.89 7.42 12.13
11/9/2020 10:45:00 AM 6.48 43.664 0.098 6.89 7.43 12.12
11/9/2020 11:00:00 AM 6.64 43.952 0.098 6.89 7.41 12.06
11/9/2020 11:15:00 AM 6.78 44.204 0.098 6.9 7.38 12.05
11/9/2020 11:30:00 AM 6.87 44.366 0.098 6.88 7.42 11.99
11/9/2020 11:45:00 AM 6.96 44.528 0.098 6.88 7.42 12
11/9/2020 12:00:00 PM 6.94 44.492 0.098 6.87 7.42 11.97
11/9/2020 12:15:00 PM 6.99 44.582 0.098 6.87 7.39 11.95
11/9/2020 12:30:00 PM 7.05 44.69 0.098 6.86 7.37 11.85
11/9/2020 12:45:00 PM 7.1 44.78 0.098 6.86 7.44 11.84
11/9/2020 1:00:00 PM 7.14 44.852 0.098 6.88 7.48 11.89
11/9/2020 1:15:00 PM 7.2 44.96 0.098 6.86 6.96 11.83
11/9/2020 1:30:00 PM 7.28 45.104 0.098 6.87 6.83 11.75
11/9/2020 1:45:00 PM 7.34 45.212 0.098 6.88 7.09 11.79
11/9/2020 2:00:00 PM 7.41 45.338 0.098 6.88 6.64 11.76
11/9/2020 2:15:00 PM 7.46 45.428 0.098 6.88 6.57 11.73
11/9/2020 2:30:00 PM 7.43 45.374 0.098 6.85 6.46 11.68
11/9/2020 2:45:00 PM 7.39 45.302 0.098 6.85 6.46 11.58
11/9/2020 3:00:00 PM 7.4 45.32 0.098 6.84 6.51 11.58
11/9/2020 3:15:00 PM 7.43 45.374 0.098 6.83 6.4 11.5
11/9/2020 3:30:00 PM 7.45 45.41 0.098 6.83 6.4 11.44
11/9/2020 3:45:00 PM 7.47 45.446 0.098 6.82 6.41 11.47
11/9/2020 4:00:00 PM 7.48 45.464 0.098 6.83 6.43 11.46
11/9/2020 4:15:00 PM 7.49 45.482 0.098 6.83 6.48 11.45
11/9/2020 4:30:00 PM 7.49 45.482 0.098 6.82 6.43 11.39
11/9/2020 4:45:00 PM 7.49 45.482 0.098 6.82 6.4 11.36
11/9/2020 5:00:00 PM 7.48 45.464 0.098 6.8 6.39 11.29
11/9/2020 5:15:00 PM 7.47 45.446 0.098 6.78 6.42 11.27
11/9/2020 5:30:00 PM 7.47 45.446 0.098 6.79 6.4 11.25
11/9/2020 5:45:00 PM 7.46 45.428 0.098 6.78 6.43 11.2
11/9/2020 6:00:00 PM 7.45 45.41 0.098 6.78 6.43 11.27
11/9/2020 6:15:00 PM 7.44 45.392 0.098 6.78 6.46 11.28
11/9/2020 6:30:00 PM 7.42 45.356 0.098 6.77 6.44 11.26
11/9/2020 6:45:00 PM 7.4 45.32 0.098 6.77 6.49 11.22
11/9/2020 7:00:00 PM 7.37 45.266 0.098 6.76 6.46 11.13
11/9/2020 7:15:00 PM 7.35 45.23 0.098 6.76 6.49 11.25
11/9/2020 7:30:00 PM 7.33 45.194 0.098 6.75 6.46 11.21
11/9/2020 7:45:00 PM 7.3 45.14 0.098 6.75 6.48 11.2
11/9/2020 8:00:00 PM 7.28 45.104 0.098 6.75 6.48 11.21
11/9/2020 8:15:00 PM 7.25 45.05 0.098 6.74 6.44 11.23
11/9/2020 8:30:00 PM 7.22 44.996 0.098 6.75 6.62 11.25
11/9/2020 8:45:00 PM 7.2 44.96 0.098 6.75 6.47 11.24
11/9/2020 9:00:00 PM 7.16 44.888 0.098 6.75 6.48 11.26
11/9/2020 9:15:00 PM 7.13 44.834 0.098 6.74 6.49 11.26
11/9/2020 9:30:00 PM 7.1 44.78 0.098 6.74 6.47 11.26
11/9/2020 9:45:00 PM 7.08 44.744 0.098 6.74 6.52 11.28
11/9/2020 10:00:00 PM 7.03 44.654 0.098 6.75 6.54 11.3
11/9/2020 10:15:00 PM 7.01 44.618 0.098 6.73 6.55 11.29
11/9/2020 10:30:00 PM 6.98 44.564 0.099 6.74 6.57 11.28
11/9/2020 10:45:00 PM 6.96 44.528 0.099 6.73 6.56 11.26
11/9/2020 11:00:00 PM 6.93 44.474 0.099 6.74 6.53 11.28
11/9/2020 11:15:00 PM 6.89 44.402 0.099 6.74 6.51 11.32
11/9/2020 11:30:00 PM 6.86 44.348 0.099 6.74 6.52 11.32
11/9/2020 11:45:00 PM 6.84 44.312 0.099 6.74 6.54 11.32
11/10/2020 12:00:00 AM 6.81 44.258 0.099 6.74 6.51 11.29
11/10/2020 12:15:00 AM 6.77 44.186 0.099 6.75 6.54 11.36
11/10/2020 12:30:00 AM 6.76 44.168 0.099 6.74 6.52 11.35
11/10/2020 12:45:00 AM 6.74 44.132 0.099 6.74 6.48 11.4
11/10/2020 1:00:00 AM 6.7 44.06 0.099 6.74 6.51 11.33
11/10/2020 1:15:00 AM 6.65 43.97 0.099 6.75 6.56 11.42
11/10/2020 1:30:00 AM 6.65 43.97 0.099 6.74 6.53 11.36
11/10/2020 1:45:00 AM 6.63 43.934 0.099 6.74 6.5 11.32
11/10/2020 2:00:00 AM 6.57 43.826 0.099 6.74 6.55 11.42
11/10/2020 2:15:00 AM 6.57 43.826 0.099 6.74 6.52 11.4
11/10/2020 2:30:00 AM 6.55 43.79 0.099 6.74 6.5 11.44
11/10/2020 2:45:00 AM 6.5 43.7 0.099 6.74 6.57 11.42
11/10/2020 3:00:00 AM 6.49 43.682 0.099 6.74 6.57 11.36
11/10/2020 3:15:00 AM 6.44 43.592 0.099 6.74 6.57 11.35
11/10/2020 3:30:00 AM 6.42 43.556 0.099 6.75 6.57 11.43
11/10/2020 3:45:00 AM 6.41 43.538 0.099 6.74 6.57 11.45
11/10/2020 4:00:00 AM 6.39 43.502 0.099 6.75 6.54 11.35
11/10/2020 4:15:00 AM 6.4 43.52 0.099 6.74 6.58 11.4
11/10/2020 4:30:00 AM 6.41 43.538 0.099 6.74 6.58 11.45
11/10/2020 4:45:00 AM 6.34 43.412 0.099 6.74 6.55 11.46
11/10/2020 5:00:00 AM 6.38 43.484 0.099 6.75 6.56 11.42
11/10/2020 5:15:00 AM 6.37 43.466 0.099 6.75 6.56 11.42
11/10/2020 5:30:00 AM 6.4 43.52 0.099 6.76 6.58 11.5
11/10/2020 5:45:00 AM 6.36 43.448 0.099 6.76 6.57 11.56
11/10/2020 6:00:00 AM 6.34 43.412 0.099 6.77 6.56 11.54
11/10/2020 6:15:00 AM 6.37 43.466 0.099 6.76 6.55 11.54
11/10/2020 6:30:00 AM 6.37 43.466 0.099 6.76 6.57 11.45
11/10/2020 6:45:00 AM 6.4 43.52 0.099 6.76 6.53 11.53
11/10/2020 7:00:00 AM 6.35 43.43 0.099 6.76 6.57 11.52
11/10/2020 7:15:00 AM 6.38 43.484 0.099 6.78 6.54 11.47
11/10/2020 7:30:00 AM 6.36 43.448 0.099 6.78 6.53 11.58
11/10/2020 7:45:00 AM 6.39 43.502 0.099 6.8 6.57 11.61
11/10/2020 8:00:00 AM 6.43 43.574 0.099 6.8 6.56 11.59
11/10/2020 8:15:00 AM 6.48 43.664 0.099 6.8 6.55 11.59
11/10/2020 8:30:00 AM 6.52 43.736 0.099 6.83 6.55 11.65
11/10/2020 8:45:00 AM 6.59 43.862 0.099 6.84 6.5 11.66
11/10/2020 9:00:00 AM 6.63 43.934 0.098 6.87 6.52 11.7
11/10/2020 9:15:00 AM 6.71 44.078 0.098 6.87 6.4 11.71
11/10/2020 9:30:00 AM 6.79 44.222 0.098 6.87 6.4 11.63
11/10/2020 9:45:00 AM 6.84 44.312 0.098 6.87 6.36 11.74
11/10/2020 10:00:00 AM 6.97 44.546 0.098 6.87 6.38 11.44
11/10/2020 10:15:00 AM 7.11 44.798 0.098 6.9 6.34 11.73
11/10/2020 10:30:00 AM 7.26 45.068 0.098 6.92 6.35 11.77
11/10/2020 10:45:00 AM 7.37 45.266 0.098 6.9 6.31 11.6
11/10/2020 11:00:00 AM 7.47 45.446 0.098 6.89 6.31 11.68
11/10/2020 11:15:00 AM 7.6 45.68 0.098 6.9 6.36 11.6
11/10/2020 11:30:00 AM 7.71 45.878 0.098 6.87 6.31 11.54
11/10/2020 11:45:00 AM 7.78 46.004 0.098 6.87 6.32 11.5
11/10/2020 12:00:00 PM 7.82 46.076 0.098 6.86 6.34 11.56
11/10/2020 12:15:00 PM 7.82 46.076 0.098 6.84 6.44 11.52
11/10/2020 12:30:00 PM 7.76 45.968 0.098 6.84 6.27 11.37
11/10/2020 12:45:00 PM 7.98 46.364 0.098 6.83 6.28 11.17
11/10/2020 1:00:00 PM 8.02 46.436 0.098 6.85 6.29 11.42
11/10/2020 1:15:00 PM 8.1 46.58 0.098 6.83 6.28 11.32
11/10/2020 1:30:00 PM 8.15 46.67 0.098 6.86 6.27 11.29
11/10/2020 1:45:00 PM 8.19 46.742 0.098 6.88 6.28 11.41
11/10/2020 2:00:00 PM 8.21 46.778 0.098 6.85 6.31 11.32
11/10/2020 2:15:00 PM 8.32 46.976 0.098 6.88 6.27 11.36
11/10/2020 2:30:00 PM 8.04 46.472 0.098 6.86 6.29 11.2
11/10/2020 2:45:00 PM 8.24 46.832 0.098 6.77 6.31 10.94
11/10/2020 3:00:00 PM 8.28 46.904 0.098 6.77 6.29 11.04
11/10/2020 3:15:00 PM 8.39 47.102 0.098 6.85 6.3 11.14
11/10/2020 3:30:00 PM 8.23 46.814 0.098 6.74 6.29 10.99
11/10/2020 3:45:00 PM 8.33 46.994 0.098 6.83 6.32 11.12
11/10/2020 4:00:00 PM 8.4 47.12 0.098 6.82 6.3 11.05
11/10/2020 4:15:00 PM 8.42 47.156 0.098 6.83 6.3 11.03
11/10/2020 4:30:00 PM 8.4 47.12 0.098 6.8 6.3 10.97
11/10/2020 4:45:00 PM 8.46 47.228 0.098 6.8 6.29 10.99
11/10/2020 5:00:00 PM 8.35 47.03 0.098 6.8 6.31 10.96
11/10/2020 5:15:00 PM 8.47 47.246 0.098 6.79 6.29 10.9
11/10/2020 5:30:00 PM 8.37 47.066 0.098 6.78 6.3 10.85
11/10/2020 5:45:00 PM 8.4 47.12 0.098 6.78 6.29 10.74
11/10/2020 6:00:00 PM 8.3 46.94 0.098 6.75 6.4 10.77
11/10/2020 6:15:00 PM 8.41 47.138 0.098 6.75 6.32 10.76
11/10/2020 6:30:00 PM 8.39 47.102 0.098 6.77 8.77 10.8
11/10/2020 6:45:00 PM 8.33 46.994 0.098 6.74 7.23 10.72
11/10/2020 7:00:00 PM 8.36 47.048 0.098 6.75 7.02 10.8
11/10/2020 7:15:00 PM 8.31 46.958 0.098 6.73 6.8 10.72
11/10/2020 7:30:00 PM 8.35 47.03 0.098 6.75 6.8 10.74
11/10/2020 7:45:00 PM 8.41 47.138 0.098 6.74 6.86 10.79
11/10/2020 8:00:00 PM 8.35 47.03 0.098 6.74 6.76 10.66
11/10/2020 8:15:00 PM 8.37 47.066 0.098 6.74 6.83 10.76
11/10/2020 8:30:00 PM 8.38 47.084 0.098 6.74 6.79 10.73
11/10/2020 8:45:00 PM 8.39 47.102 0.098 6.74 6.74 10.76
11/10/2020 9:00:00 PM 8.39 47.102 0.099 6.74 6.77 10.73
11/10/2020 9:15:00 PM 8.33 46.994 0.098 6.73 6.77 10.72
11/10/2020 9:30:00 PM 8.35 47.03 0.099 6.74 6.77 10.75
11/10/2020 9:45:00 PM 8.33 46.994 0.098 6.74 6.79 10.75
11/10/2020 10:00:00 PM 8.25 46.85 0.098 6.73 6.81 10.75
11/10/2020 10:15:00 PM 8.31 46.958 0.099 6.72 6.76 10.74
11/10/2020 10:30:00 PM 8.27 46.886 0.098 6.73 6.89 10.76
11/10/2020 10:45:00 PM 8.23 46.814 0.098 6.72 6.72 10.71
11/10/2020 11:00:00 PM 8.27 46.886 0.098 6.74 6.87 10.8
11/10/2020 11:15:00 PM 8.27 46.886 0.099 6.74 6.81 10.82
11/10/2020 11:30:00 PM 8.24 46.832 0.099 6.72 6.74 10.83
11/10/2020 11:45:00 PM 8.23 46.814 0.099 6.74 6.76 10.81
11/11/2020 12:00:00 AM 8.22 46.796 0.099 6.73 6.75 10.82
11/11/2020 12:15:00 AM 8.19 46.742 0.099 6.73 6.77 10.75
11/11/2020 12:30:00 AM 8.19 46.742 0.099 6.74 6.76 10.73
11/11/2020 12:45:00 AM 8.19 46.742 0.099 6.74 6.73 10.78
11/11/2020 1:00:00 AM 8.15 46.67 0.099 6.74 6.74 10.83
11/11/2020 1:15:00 AM 8.16 46.688 0.099 6.74 6.81 10.84
11/11/2020 1:30:00 AM 8.16 46.688 0.099 6.73 6.74 10.82
11/11/2020 1:45:00 AM 8.16 46.688 0.099 6.74 6.79 10.8
11/11/2020 2:00:00 AM 8.14 46.652 0.099 6.74 6.75 10.85
11/11/2020 2:15:00 AM 8.14 46.652 0.099 6.74 6.79 10.79
11/11/2020 2:30:00 AM 8.16 46.688 0.099 6.74 6.73 10.83
11/11/2020 2:45:00 AM 8.15 46.67 0.099 6.76 6.74 10.81
11/11/2020 3:00:00 AM 8.09 46.562 0.099 6.74 6.8 10.79
11/11/2020 3:15:00 AM 8.13 46.634 0.099 6.75 6.75 10.85
11/11/2020 3:30:00 AM 8.12 46.616 0.099 6.76 6.77 10.85
11/11/2020 3:45:00 AM 8.15 46.67 0.099 6.76 6.77 10.87
11/11/2020 4:00:00 AM 8.16 46.688 0.099 6.76 7.05 10.81
11/11/2020 4:15:00 AM 8.2 46.76 0.098 6.76 7.44 10.73
11/11/2020 4:30:00 AM 8.18 46.724 0.099 6.76 6.66 10.72
11/11/2020 4:45:00 AM 8.2 46.76 0.099 6.75 6.68 10.68
11/11/2020 5:00:00 AM 8.25 46.85 0.099 6.75 6.72 10.76
11/11/2020 5:15:00 AM 8.24 46.832 0.099 6.75 6.83 10.71
11/11/2020 5:30:00 AM 8.26 46.868 0.098 6.74 6.68 10.72
11/11/2020 5:45:00 AM 8.26 46.868 0.098 6.76 6.75 10.79
11/11/2020 6:00:00 AM 8.27 46.886 0.098 6.74 6.84 10.66
11/11/2020 6:15:00 AM 8.32 46.976 0.098 6.75 6.91 10.76
11/11/2020 6:30:00 AM 8.33 46.994 0.098 6.75 7.14 10.72
11/11/2020 6:45:00 AM 8.36 47.048 0.098 6.74 6.88 10.7
11/11/2020 7:00:00 AM 8.4 47.12 0.096 6.75 7.07 10.62
11/11/2020 7:15:00 AM 8.41 47.138 0.096 6.76 8.26 10.69
11/11/2020 7:30:00 AM 8.41 47.138 0.097 6.77 8.21 10.66
11/11/2020 7:45:00 AM 8.6 47.48 0.093 6.79 9.69 10.81
11/11/2020 8:00:00 AM 8.61 47.498 0.093 6.83 11.8 10.78
11/11/2020 8:15:00 AM 8.58 47.444 0.093 6.78 12.36 10.73
11/11/2020 8:30:00 AM 8.62 47.516 0.093 6.76 10.88 10.78
11/11/2020 8:45:00 AM 8.62 47.516 0.093 6.76 9.5 10.78
11/11/2020 9:00:00 AM 8.67 47.606 0.093 6.77 8.69 10.84
11/11/2020 9:15:00 AM 8.69 47.642 0.093 6.77 8.09 10.87
11/11/2020 9:30:00 AM 8.71 47.678 0.093 6.77 7.93 10.88
11/11/2020 9:45:00 AM 8.75 47.75 0.092 6.77 7.82 10.86
11/11/2020 10:00:00 AM 8.81 47.858 0.091 6.78 7.51 10.85
11/11/2020 10:15:00 AM 8.83 47.894 0.091 6.78 7.41 10.8
11/11/2020 10:30:00 AM 8.84 47.912 0.091 6.77 7.32 10.76
11/11/2020 10:45:00 AM 8.92 48.056 0.09 6.77 7.17 10.73
11/11/2020 11:00:00 AM 8.98 48.164 0.089 6.78 7.29 10.7
11/11/2020 11:15:00 AM 8.99 48.182 0.09 6.77 7.38 10.71
11/11/2020 11:30:00 AM 9.03 48.254 0.09 6.76 7.56 10.74
11/11/2020 11:45:00 AM 9.07 48.326 0.09 6.78 7.72 10.81
11/11/2020 12:00:00 PM 9.11 48.398 0.09 6.79 7.84 10.85
11/11/2020 12:15:00 PM 9.17 48.506 0.09 6.8 7.79 10.89
11/11/2020 12:30:00 PM 9.21 48.578 0.09 6.81 7.94 10.92
11/11/2020 12:45:00 PM 9.25 48.65 0.09 6.82 8.11 10.98
11/11/2020 1:00:00 PM 9.27 48.686 0.09 6.82 8.04 10.97
11/11/2020 1:15:00 PM 9.3 48.74 0.09 6.82 8.17 10.96
11/11/2020 1:30:00 PM 9.33 48.794 0.089 6.84 9.07 10.95
11/11/2020 1:45:00 PM 9.39 48.902 0.089 6.85 9.91 10.96
11/11/2020 2:00:00 PM 9.45 49.01 0.089 6.88 10.85 10.96
11/11/2020 2:15:00 PM 9.47 49.046 0.088 6.9 13.21 10.94
11/11/2020 2:30:00 PM 9.5 49.1 0.087 6.9 13.44 10.91
11/11/2020 2:45:00 PM 9.55 49.19 0.087 6.92 14.56 10.92
11/11/2020 3:00:00 PM 9.61 49.298 0.087 6.92 14.64 10.91
11/11/2020 3:15:00 PM 9.65 49.37 0.087 6.91 13.9 10.9
11/11/2020 3:30:00 PM 9.68 49.424 0.088 6.88 13.78 10.87
11/11/2020 3:45:00 PM 9.71 49.478 0.089 6.85 13.29 10.85
11/11/2020 4:00:00 PM 9.73 49.514 0.09 6.82 12.93 10.83
11/11/2020 4:15:00 PM 9.76 49.568 0.092 6.8 13.38 10.81
11/11/2020 4:30:00 PM 9.78 49.604 0.093 6.78 13.12 10.8
11/11/2020 4:45:00 PM 9.81 49.658 0.093 6.77 13.8 10.79
11/11/2020 5:00:00 PM 9.83 49.694 0.094 6.75 13.59 10.77
11/11/2020 5:15:00 PM 9.85 49.73 0.095 6.73 14.46 10.76
11/11/2020 5:30:00 PM 9.87 49.766 0.096 6.72 14.3 10.75
11/11/2020 5:45:00 PM 9.89 49.802 0.096 6.7 13.5 10.74
11/11/2020 6:00:00 PM 9.91 49.838 0.096 6.69 13.36 10.73
11/11/2020 6:15:00 PM 9.93 49.874 0.097 6.69 12.69 10.72
11/11/2020 6:30:00 PM 9.95 49.91 0.097 6.68 12.31 10.72
11/11/2020 6:45:00 PM 9.96 49.928 0.097 6.66 12.09 10.72
11/11/2020 7:00:00 PM 9.98 49.964 0.097 6.65 11.9 10.71
11/11/2020 7:15:00 PM 9.99 49.982 0.097 6.65 11.46 10.71
11/11/2020 7:30:00 PM 10 50 0.097 6.64 11.28 10.71
11/11/2020 7:45:00 PM 10.02 50.036 0.097 6.64 10.75 10.7
11/11/2020 8:00:00 PM 10.03 50.054 0.096 6.63 10.79 10.7
11/11/2020 8:15:00 PM 10.04 50.072 0.096 6.63 10.53 10.7
11/11/2020 8:30:00 PM 10.05 50.09 0.096 6.62 12.99 10.69
11/11/2020 8:45:00 PM 10.06 50.108 0.096 6.63 10.93 10.68
11/11/2020 9:00:00 PM 10.1 50.18 0.095 6.63 9.43 10.68
11/11/2020 9:15:00 PM 10.12 50.216 0.095 6.65 9.42 10.68
11/11/2020 9:30:00 PM 10.11 50.198 0.095 6.65 9.13 10.66
11/11/2020 9:45:00 PM 10.12 50.216 0.095 6.66 9.09 10.67
11/11/2020 10:00:00 PM 10.12 50.216 0.094 6.67 9 10.66
11/11/2020 10:15:00 PM 10.12 50.216 0.094 6.68 8.87 10.67
11/11/2020 10:30:00 PM 10.11 50.198 0.094 6.68 8.81 10.67
11/11/2020 10:45:00 PM 10.11 50.198 0.093 6.68 8.81 10.68
11/11/2020 11:00:00 PM 10.1 50.18 0.093 6.68 8.71 10.68
11/11/2020 11:15:00 PM 10.09 50.162 0.093 6.68 8.67 10.69
11/11/2020 11:30:00 PM 10.08 50.144 0.093 6.69 8.61 10.69
11/11/2020 11:45:00 PM 10.07 50.126 0.092 6.69 8.52 10.68
11/12/2020 12:00:00 AM 10.06 50.108 0.092 6.68 8.54 10.69
11/12/2020 12:15:00 AM 10.04 50.072 0.092 6.69 8.51 10.7
11/12/2020 12:30:00 AM 10.01 50.018 0.092 6.69 8.37 10.7
11/12/2020 12:45:00 AM 9.98 49.964 0.091 6.68 8.33 10.71
11/12/2020 1:00:00 AM 9.95 49.91 0.091 6.68 8.41 10.72
11/12/2020 1:15:00 AM 9.92 49.856 0.091 6.68 8.38 10.73
11/12/2020 1:30:00 AM 9.89 49.802 0.091 6.68 8.38 10.74
11/12/2020 1:45:00 AM 9.86 49.748 0.091 6.68 8.38 10.74
11/12/2020 2:00:00 AM 9.83 49.694 0.091 6.68 8.2 10.76
11/12/2020 2:15:00 AM 9.79 49.622 0.09 6.68 8.22 10.76
11/12/2020 2:30:00 AM 9.76 49.568 0.09 6.69 8.31 10.77
11/12/2020 2:45:00 AM 9.73 49.514 0.09 6.69 8.21 10.78
11/12/2020 3:00:00 AM 9.7 49.46 0.09 6.69 8.19 10.78
11/12/2020 3:15:00 AM 9.67 49.406 0.09 6.68 8.13 10.79
11/12/2020 3:30:00 AM 9.64 49.352 0.09 6.68 8.09 10.81
11/12/2020 3:45:00 AM 9.61 49.298 0.09 6.69 8.12 10.82
11/12/2020 4:00:00 AM 9.57 49.226 0.09 6.69 8.09 10.82
11/12/2020 4:15:00 AM 9.53 49.154 0.09 6.69 8.23 10.84
11/12/2020 4:30:00 AM 9.5 49.1 0.089 6.69 8.02 10.85
11/12/2020 4:45:00 AM 9.45 49.01 0.089 6.68 8.28 10.86
11/12/2020 5:00:00 AM 9.4 48.92 0.089 6.68 8.04 10.86
11/12/2020 5:15:00 AM 9.36 48.848 0.089 6.68 8 10.87
11/12/2020 5:30:00 AM 9.32 48.776 0.089 6.69 8.22 10.89
11/12/2020 5:45:00 AM 9.28 48.704 0.089 6.69 8.06 10.9
11/12/2020 6:00:00 AM 9.23 48.614 0.089 6.7 7.95 10.91
11/12/2020 6:15:00 AM 9.21 48.578 0.089 6.69 7.97 10.93
11/12/2020 6:30:00 AM 9.19 48.542 0.089 6.7 8.08 10.94
11/12/2020 6:45:00 AM 9.16 48.488 0.089 6.7 8.11 10.95
11/12/2020 7:00:00 AM 9.14 48.452 0.089 6.7 7.99 10.95
11/12/2020 7:15:00 AM 9.12 48.416 0.089 6.7 8 10.97
11/12/2020 7:30:00 AM 9.1 48.38 0.089 6.7 8.05 10.98
11/12/2020 7:45:00 AM 9.08 48.344 0.089 6.7 8.04 11
11/12/2020 8:00:00 AM 9.06 48.308 0.089 6.71 7.8 11.02
11/12/2020 8:15:00 AM 9.05 48.29 0.089 6.72 7.72 11.04
11/12/2020 8:30:00 AM 9.03 48.254 0.089 6.71 7.78 11.07
11/12/2020 8:45:00 AM 9.02 48.236 0.089 6.74 7.68 11.1
11/12/2020 9:00:00 AM 9.02 48.236 0.088 6.74 7.52 11.12
11/12/2020 9:15:00 AM 9.01 48.218 0.088 6.75 7.67 11.15
11/12/2020 9:30:00 AM 9.04 48.272 0.088 6.76 7.56 11.16
11/12/2020 9:45:00 AM 9.04 48.272 0.088 6.76 7.74 11.18
11/12/2020 10:00:00 AM 9.05 48.29 0.088 6.77 7.57 11.19
11/12/2020 10:15:00 AM 9.05 48.29 0.088 6.78 7.5 11.2
11/12/2020 10:30:00 AM 9.06 48.308 0.088 6.77 7.47 11.2
11/12/2020 10:45:00 AM 9.06 48.308 0.088 6.77 7.37 11.21
11/12/2020 11:00:00 AM 9.1 48.38 0.088 6.78 7.43 11.22
11/12/2020 11:15:00 AM 9.15 48.47 0.088 6.79 7.49 11.21
11/12/2020 11:30:00 AM 9.16 48.488 0.088 6.8 7.44 11.22
11/12/2020 11:45:00 AM 9.17 48.506 0.088 6.79 7.38 11.21
11/12/2020 12:00:00 PM 9.22 48.596 0.088 6.8 7.39 11.2
11/12/2020 12:15:00 PM 9.27 48.686 0.088 6.8 7.4 11.19
11/12/2020 12:30:00 PM 9.28 48.704 0.088 6.79 7.35 11.18
11/12/2020 12:45:00 PM 9.3 48.74 0.088 6.79 7.38 11.17
11/12/2020 1:00:00 PM 9.31 48.758 0.088 6.79 7.4 11.16
11/12/2020 1:15:00 PM 9.29 48.722 0.088 6.78 7.34 11.17
11/12/2020 1:30:00 PM 9.31 48.758 0.088 6.78 7.31 11.15
11/12/2020 1:45:00 PM 9.32 48.776 0.088 6.79 7.3 11.15
11/12/2020 2:00:00 PM 9.33 48.794 0.088 6.81 5.13 11.14
11/12/2020 2:15:00 PM 9.3 48.74 0.088 6.79 5.07 11.13
11/12/2020 2:30:00 PM 9.26 48.668 0.088 6.77 4.34 11.12
11/12/2020 2:45:00 PM 9.21 48.578 0.088 6.77 4.32 11.1
11/12/2020 3:00:00 PM 9.16 48.488 0.088 6.77 4.36 11.1
11/12/2020 3:15:00 PM 9.13 48.434 0.088 6.77 4.29 11.1
11/12/2020 3:30:00 PM 9.09 48.362 0.088 6.77 4.23 11.08
11/12/2020 3:45:00 PM 9.04 48.272 0.088 6.76 4.34 11.08
11/12/2020 4:00:00 PM 9.02 48.236 0.088 6.78 4.22 11.06
11/12/2020 4:15:00 PM 8.99 48.182 0.088 6.76 4.28 11.07
11/12/2020 4:30:00 PM 8.94 48.092 0.088 6.75 4.23 11.06
11/12/2020 4:45:00 PM 8.88 47.984 0.088 6.76 4.25 11.05
11/12/2020 5:00:00 PM 8.81 47.858 0.088 6.75 4.24 11.04
11/12/2020 5:15:00 PM 8.75 47.75 0.088 6.74 4.27 11.03
11/12/2020 5:30:00 PM 8.69 47.642 0.088 6.74 4.25 11.02
11/12/2020 5:45:00 PM 8.63 47.534 0.088 6.72 4.25 11.03
11/12/2020 6:00:00 PM 8.56 47.408 0.088 6.71 4.28 11.05
11/12/2020 6:15:00 PM 8.49 47.282 0.088 6.71 4.35 11.06
11/12/2020 6:30:00 PM 8.43 47.174 0.088 6.72 4.73 11.07
11/12/2020 6:45:00 PM 8.36 47.048 0.088 6.71 4.33 11.09
11/12/2020 7:00:00 PM 8.28 46.904 0.088 6.71 4.41 11.11
11/12/2020 7:15:00 PM 8.21 46.778 0.088 6.71 4.45 11.13
11/12/2020 7:30:00 PM 8.14 46.652 0.088 6.71 4.29 11.15
11/12/2020 7:45:00 PM 8.06 46.508 0.088 6.71 4.36 11.17
11/12/2020 8:00:00 PM 7.99 46.382 0.089 6.7 4.3 11.2
11/12/2020 8:15:00 PM 7.91 46.238 0.089 6.71 4.34 11.21
11/12/2020 8:30:00 PM 7.83 46.094 0.089 6.71 4.36 11.23
11/12/2020 8:45:00 PM 7.77 45.986 0.089 6.71 4.3 11.24
11/12/2020 9:00:00 PM 7.69 45.842 0.089 6.71 4.31 11.26
11/12/2020 9:15:00 PM 7.61 45.698 0.089 6.71 4.34 11.28
11/12/2020 9:30:00 PM 7.54 45.572 0.089 6.72 4.31 11.3
11/12/2020 9:45:00 PM 7.47 45.446 0.089 6.71 4.41 11.32
11/12/2020 10:00:00 PM 7.4 45.32 0.089 6.71 4.32 11.34
11/12/2020 10:15:00 PM 7.32 45.176 0.089 6.71 4.31 11.36
11/12/2020 10:30:00 PM 7.26 45.068 0.089 6.72 4.39 11.39
11/12/2020 10:45:00 PM 7.2 44.96 0.089 6.72 4.33 11.41
11/12/2020 11:00:00 PM 7.14 44.852 0.089 6.72 4.36 11.42
11/12/2020 11:15:00 PM 7.1 44.78 0.089 6.72 4.32 11.44
11/12/2020 11:30:00 PM 7.03 44.654 0.089 6.73 4.31 11.46
11/12/2020 11:45:00 PM 6.98 44.564 0.089 6.74 4.3 11.47
11/13/2020 12:00:00 AM 6.95 44.51 0.089 6.74 4.3 11.48
11/13/2020 12:15:00 AM 6.92 44.456 0.089 6.74 4.37 11.49
11/13/2020 12:30:00 AM 6.88 44.384 0.089 6.74 4.29 11.51
11/13/2020 12:45:00 AM 6.86 44.348 0.089 6.74 4.31 11.53
11/13/2020 1:00:00 AM 6.82 44.276 0.089 6.74 4.24 11.53
11/13/2020 1:15:00 AM 6.8 44.24 0.089 6.74 4.23 11.54
11/13/2020 1:30:00 AM 6.77 44.186 0.089 6.75 4.25 11.56
11/13/2020 1:45:00 AM 6.75 44.15 0.089 6.75 4.22 11.57
11/13/2020 2:00:00 AM 6.73 44.114 0.089 6.75 4.23 11.56
11/13/2020 2:15:00 AM 6.69 44.042 0.089 6.74 4.23 11.56
11/13/2020 2:30:00 AM 6.66 43.988 0.089 6.74 4.25 11.58
11/13/2020 2:45:00 AM 6.63 43.934 0.089 6.75 4.23 11.6
11/13/2020 3:00:00 AM 6.62 43.916 0.089 6.75 4.23 11.6
11/13/2020 3:15:00 AM 6.59 43.862 0.089 6.75 4.23 11.6
11/13/2020 3:30:00 AM 6.57 43.826 0.089 6.75 4.21 11.61
11/13/2020 3:45:00 AM 6.54 43.772 0.089 6.76 4.25 11.62
11/13/2020 4:00:00 AM 6.51 43.718 0.089 6.76 4.22 11.62
11/13/2020 4:15:00 AM 6.49 43.682 0.089 6.76 4.21 11.64
11/13/2020 4:30:00 AM 6.48 43.664 0.089 6.76 4.2 11.63
11/13/2020 4:45:00 AM 6.46 43.628 0.089 6.76 4.19 11.63
11/13/2020 5:00:00 AM 6.43 43.574 0.089 6.76 4.19 11.65
11/13/2020 5:15:00 AM 6.39 43.502 0.089 6.75 4.27 11.65
11/13/2020 5:30:00 AM 6.36 43.448 0.089 6.76 4.23 11.66
11/13/2020 5:45:00 AM 6.33 43.394 0.089 6.76 4.21 11.67
11/13/2020 6:00:00 AM 6.31 43.358 0.089 6.76 4.25 11.67
11/13/2020 6:15:00 AM 6.27 43.286 0.089 6.76 4.27 11.68
11/13/2020 6:30:00 AM 6.26 43.268 0.089 6.76 4.33 11.68
11/13/2020 6:45:00 AM 6.22 43.196 0.089 6.76 4.21 11.7
11/13/2020 7:00:00 AM 6.2 43.16 0.089 6.76 4.23 11.71
11/13/2020 7:15:00 AM 6.17 43.106 0.089 6.76 4.23 11.72
11/13/2020 7:30:00 AM 6.15 43.07 0.089 6.76 4.23 11.74
11/13/2020 7:45:00 AM 6.13 43.034 0.089 6.77 4.19 11.77
11/13/2020 8:00:00 AM 6.12 43.016 0.089 6.77 4.3 11.8
11/13/2020 8:15:00 AM 6.12 43.016 0.089 6.78 4.17 11.83
11/13/2020 8:30:00 AM 6.12 43.016 0.089 6.79 4.16 11.89
11/13/2020 8:45:00 AM 6.14 43.052 0.089 6.81 4.18 11.92
11/13/2020 9:00:00 AM 6.17 43.106 0.089 6.82 4.14 11.96
11/13/2020 9:15:00 AM 6.19 43.142 0.089 6.82 4.18 11.98
11/13/2020 9:30:00 AM 6.22 43.196 0.089